Provisional Data: Tuscarora Creek near Woodhull, NY


Please select a monitoring station.
Please select start date.
Please select start date.

Toggle Unit: C/F Toggle Unit: C/F
Sample Time Temperature (C) Temperature (F) Specific Conductivity (mS/cm) pH   Turbidity (NTU+) DO (mg/L)
5/17/2022 12:00:00 AM 14.25 57.65 0.228 7.59 51.29 9.47
5/17/2022 12:15:00 AM 14.16 57.488 0.229 7.61 48.78 9.48
5/17/2022 12:30:00 AM 14.08 57.344 0.23 7.6 46.09 9.49
5/17/2022 12:45:00 AM 14 57.2 0.231 7.6 44.57 9.51
5/17/2022 1:00:00 AM 13.92 57.056 0.232 7.61 44.61 9.54
5/17/2022 1:15:00 AM 13.83 56.894 0.233 7.61 41.1 9.56
5/17/2022 1:30:00 AM 13.73 56.714 0.235 7.62 40.58 9.58
5/17/2022 1:45:00 AM 13.63 56.534 0.236 7.63 38.33 9.6
5/17/2022 2:00:00 AM 13.54 56.372 0.237 7.62 37.86 9.62
5/17/2022 2:15:00 AM 13.46 56.228 0.237 7.62 37.33 9.64
5/17/2022 2:30:00 AM 13.38 56.084 0.238 7.6 29.95 9.66
5/17/2022 2:45:00 AM 13.29 55.922 0.239 7.58 33.23 9.67
5/17/2022 3:00:00 AM 13.23 55.814 0.24 7.59 35.95 9.69
5/17/2022 3:15:00 AM 13.17 55.706 0.241 7.6 36 9.7
5/17/2022 3:30:00 AM 13.1 55.58 0.242 7.6 34.13 9.72
5/17/2022 3:45:00 AM 13.03 55.454 0.243 7.61 41.44 9.74
5/17/2022 4:00:00 AM 12.98 55.364 0.243 7.61 32.79 9.75
5/17/2022 4:15:00 AM 12.92 55.256 0.244 7.61 36.61 9.77
5/17/2022 4:30:00 AM 12.87 55.166 0.245 7.61 32.81 9.78
5/17/2022 4:45:00 AM 12.81 55.058 0.246 7.62 35.52 9.8
5/17/2022 5:00:00 AM 12.74 54.932 0.247 7.62 19.02 9.82
5/17/2022 5:15:00 AM 12.68 54.824 0.247 7.62 22.42 9.82
5/17/2022 5:30:00 AM 12.64 54.752 0.248 7.64 5.77 9.83
5/17/2022 5:45:00 AM 12.61 54.698 0.249 7.65 14.59 9.86
5/17/2022 6:00:00 AM 12.56 54.608 0.25 7.71 11.89 9.88
5/17/2022 6:15:00 AM 12.5 54.5 0.246 7.63 9.82 9.91
5/17/2022 6:30:00 AM 12.46 54.428 0.251 7.7 7.43 9.97
5/17/2022 6:45:00 AM 12.43 54.374 0.252 7.65 9.71 10.02
5/17/2022 7:00:00 AM 12.44 54.392 0.25 7.69 5.78 10.02
5/17/2022 7:15:00 AM 12.44 54.392 0.22 7.67 4.23 10.09
5/17/2022 7:30:00 AM 12.43 54.374 0.028 7.69 4.09 10.12
5/17/2022 7:45:00 AM 12.47 54.446 0.242 7.7 4.14 10.11
5/17/2022 8:00:00 AM 12.6 54.68 0.178 7.73 3.68 10.12
5/17/2022 8:15:00 AM 12.68 54.824 0.067 7.76 7.09 10.1
5/17/2022 8:30:00 AM 12.76 54.968 0.202 7.73 3.58 10.09
5/17/2022 8:45:00 AM 12.8 55.04 0.026 7.76 3.59 10.1
5/17/2022 9:00:00 AM 12.87 55.166 0.033 7.77 3.54 10.1
5/17/2022 9:15:00 AM 13.04 55.472 0.204 7.79 3.37 10.08
5/17/2022 9:30:00 AM 13.12 55.616 0.007 7.78 4.8 10.05
5/17/2022 9:45:00 AM 13.3 55.94 0.007 7.67 3.67 10
5/17/2022 10:00:00 AM 13.41 56.138 0.006 7.64 3.25 9.97
5/17/2022 10:15:00 AM 13.69 56.642 0.004 7.83 3.87 9.92
5/17/2022 10:30:00 AM 13.71 56.678 0.029 7.88 3.44 9.92
5/17/2022 10:45:00 AM 13.79 56.822 0.005 7.85 3.31 9.9
5/17/2022 11:00:00 AM 14.05 57.29 0.011 7.87 4.09 9.83
5/17/2022 11:15:00 AM 14.17 57.506 0.007 7.88 3.34 9.83
5/17/2022 11:30:00 AM 14.28 57.704 0.002 7.59 3.5 9.78
5/17/2022 11:45:00 AM 14.36 57.848 0.004 7.49 3.49 9.76
5/17/2022 12:00:00 PM 14.05 57.29 0.001 7.81 3.33 9.88
5/17/2022 12:15:00 PM 14.22 57.596 0.001 7.99 2.52 9.84
5/17/2022 12:30:00 PM 14.49 58.082 0.003 7.71 4.78 9.73
5/17/2022 12:45:00 PM 15.05 59.09 0 7.7 3.38 9.59
5/17/2022 1:00:00 PM 15.64 60.152 0.002 8.02 3.13 9.54
5/17/2022 1:15:00 PM 15.41 59.738 0.001 7.97 3.99 9.58
5/17/2022 1:30:00 PM 15.72 60.296 0 7.77 3.88 9.5
5/17/2022 1:45:00 PM 15.76 60.368 0.001 8.06 3.11 9.51
5/17/2022 2:00:00 PM 15.54 59.972 0.001 8.01 3.35 9.53
5/17/2022 2:15:00 PM 15.47 59.846 0.001 8.05 3.39 9.55
5/17/2022 2:30:00 PM 15.76 60.368 0.001 7.61 3.64 9.44
5/17/2022 2:45:00 PM 15.49 59.882 0.001 8.03 3.27 9.54
5/17/2022 3:00:00 PM 14.94 58.892 0.001 7.99 3.28 9.61
5/17/2022 3:15:00 PM 15.19 59.342 0.001 8.07 3.37 9.61
5/17/2022 3:30:00 PM 14.71 58.478 0.001 7.93 3.26 9.71
5/17/2022 3:45:00 PM 15.04 59.072 0.001 8.12 3.46 9.64
5/17/2022 4:00:00 PM 15.12 59.216 0.001 8.08 3.63 9.61
5/17/2022 4:15:00 PM 15.3 59.54 0.001 7.9 3.41 9.56
5/17/2022 4:30:00 PM 15.09 59.162 0.001 7.93 3.21 9.64
5/17/2022 4:45:00 PM 14.27 57.686 0 7.76 3.56 9.83
5/17/2022 5:00:00 PM 14.25 57.65 0.001 7.86 3.48 9.85
5/17/2022 5:15:00 PM 14.26 57.668 0 7.96 3.51 9.8
5/17/2022 5:30:00 PM 14.2 57.56 0 7.92 3.65 9.84
5/17/2022 5:45:00 PM 13.24 55.832 0 7.45 5.71 10
5/17/2022 6:00:00 PM 13.27 55.886 0 7.78 3.23 10.08
5/17/2022 6:15:00 PM 12.87 55.166 0 7.65 3.97 10.16
5/17/2022 6:30:00 PM 13.44 56.192 0 7.96 3.57 10.02
5/17/2022 6:45:00 PM 13.69 56.642 0 7.99 3.35 9.94
5/17/2022 7:00:00 PM 13.31 55.958 0 8.09 3.88 10.05
5/17/2022 7:15:00 PM 13.32 55.976 0 8.14 3.54 10.04
5/17/2022 7:30:00 PM 13.01 55.418 0 8.05 3.55 10.11
5/17/2022 7:45:00 PM 13.38 56.084 0 7.74 4.41 9.99
5/17/2022 8:00:00 PM 13.02 55.436 0 7.92 3.54 10.13
5/17/2022 8:15:00 PM 12.76 54.968 0 7.49 6.54 10.11
5/17/2022 8:30:00 PM 12.61 54.698 0 7.9 3.48 10.2
5/17/2022 8:45:00 PM 12.35 54.23 0 7.79 4.47 10.22
5/17/2022 9:00:00 PM 11.92 53.456 0 7.97 5.4 10.36
5/17/2022 9:15:00 PM 12 53.6 0 8.06 3.84 10.33
5/17/2022 9:30:00 PM 11.57 52.826 0 8.12 3.29 10.45
5/17/2022 9:45:00 PM 11.44 52.592 0 8.2 3.48 10.46
5/17/2022 10:00:00 PM 11.64 52.952 0 8.1 3.21 10.42
5/17/2022 10:15:00 PM 11.82 53.276 0 7.71 4.03 10.34
5/17/2022 10:30:00 PM 11.8 53.24 0 8.05 2.9 10.35
5/17/2022 10:45:00 PM 11.43 52.574 0 7.89 5.18 10.47
5/17/2022 11:00:00 PM 11.47 52.646 0 7.92 2.92 10.44
5/17/2022 11:15:00 PM 11.27 52.286 0 8.05 4.02 10.51
5/17/2022 11:30:00 PM 10.99 51.782 0 8.04 3.34 10.58
5/17/2022 11:45:00 PM 10.86 51.548 0 8.06 3.02 10.63
5/18/2022 12:00:00 AM 10.67 51.206 0 8.02 3.02 10.66
5/18/2022 12:15:00 AM 10.38 50.684 0 8.03 3.27 10.73
5/18/2022 12:30:00 AM 10.06 50.108 0 8 3.76 10.83
5/18/2022 12:45:00 AM 9.83 49.694 0 7.92 3.09 10.89
5/18/2022 1:00:00 AM 9.7 49.46 0 7.94 3.55 10.92
5/18/2022 1:15:00 AM 9.45 49.01 0 8 4.55 10.99
5/18/2022 1:30:00 AM 9.3 48.74 0 7.76 3.26 11.02
5/18/2022 1:45:00 AM 9.18 48.524 0 8.11 5.55 11.06
5/18/2022 2:00:00 AM 8.99 48.182 0 7.95 4.69 11.11
5/18/2022 2:15:00 AM 8.58 47.444 0 8.07 3.78 11.25
5/18/2022 2:30:00 AM 8.23 46.814 0 7.76 8.4 11.33
5/18/2022 2:45:00 AM 8.3 46.94 0 8.05 8.02 11.3
5/18/2022 3:00:00 AM 8.02 46.436 0 7.67 8.05 11.37
5/18/2022 3:15:00 AM 7.48 45.464 0 7.81 6.99 11.56
5/18/2022 3:30:00 AM 7.49 45.482 0 7.86 8.38 11.53
5/18/2022 3:45:00 AM 7.46 45.428 0 7.82 9.98 11.55
5/18/2022 4:00:00 AM 7.43 45.374 0 7.8 10.2 11.55
5/18/2022 4:15:00 AM 7.23 45.014 0 7.79 9.09 11.6
5/18/2022 4:30:00 AM 7.14 44.852 0 8.04 9.52 11.64
5/18/2022 4:45:00 AM 6.96 44.528 0 7.8 10.6 11.68
5/18/2022 5:00:00 AM 6.87 44.366 0 8.01 8.42 11.74
5/18/2022 5:15:00 AM 6.67 44.006 0 7.84 9.47 11.76
5/18/2022 5:30:00 AM 6.39 43.502 0 7.83 10.69 11.83
5/18/2022 5:45:00 AM 6.43 43.574 0 7.93 9.46 11.83
5/18/2022 6:00:00 AM 6.24 43.232 0 7.84 10.62 11.89
5/18/2022 6:15:00 AM 6.32 43.376 0 7.95 10.46 11.85
5/18/2022 6:30:00 AM 6.6 43.88 0 8 9.57 11.75
5/18/2022 6:45:00 AM 7.64 45.752 0 7.78 10.43 11.42
5/18/2022 7:00:00 AM 8.23 46.814 0 7.01 10.42 11.26
5/18/2022 7:15:00 AM 9.71 49.478 0 8.09 5.94 10.89
5/18/2022 7:30:00 AM 10.11 50.198 0 6.97 10.33 10.79
5/18/2022 7:45:00 AM 10.51 50.918 0 6.85 10.28 10.68
5/18/2022 8:00:00 AM 11.02 51.836 0 6.6 10.23 10.61
5/18/2022 8:15:00 AM 11.24 52.232 0 6.97 10.3 10.62
5/18/2022 8:30:00 AM 11.75 53.15 0 6.9 10.37 10.8
5/18/2022 8:45:00 AM 11.63 52.934 0 6.86 10.53 10.72
5/18/2022 9:00:00 AM 12.45 54.41 0 6.47 10.48 10.37
5/18/2022 9:15:00 AM 13.4 56.12 0 12.92 10.45 10.13
5/18/2022 9:30:00 AM 14.31 57.758 0 17.73 10.33 9.84
5/18/2022 9:45:00 AM 14.91 58.838 0 17.7 10.27 9.75
5/18/2022 10:00:00 AM 15.63 60.134 0 7.06 10.27 9.58
5/18/2022 10:15:00 AM 15.61 60.098 0 17.68 10.25 9.53
5/18/2022 10:30:00 AM 16.35 61.43 0 17.65 10.19 9.4
5/18/2022 10:45:00 AM 17.24 63.032 0 7.6 10.13 9.21
5/18/2022 11:00:00 AM 17.16 62.888 0 17.62 10.11 9.26
5/18/2022 11:15:00 AM 16.86 62.348 0 17.63 10.2 9.32
5/18/2022 11:30:00 AM 16.6 61.88 0 2.46 10.22 9.33
5/18/2022 11:45:00 AM 16.63 61.934 0 17.64 10.23 9.3
5/18/2022 12:00:00 PM 16.31 61.358 0 17.65 10.27 9.33
5/18/2022 12:15:00 PM 16.28 61.304 0 -4.74 10.25 9.33
5/18/2022 12:30:00 PM 16.75 62.15 0 16.65 10.25 9.21
5/18/2022 12:45:00 PM 17.22 62.996 0 17.62 10.22 9.12
5/18/2022 1:00:00 PM 18.06 64.508 0 -4.66 10.14 8.94
5/18/2022 1:15:00 PM 18.31 64.958 0 17.58 10.1 8.88
5/18/2022 1:30:00 PM 18.29 64.922 0 17.58 10.14 8.91
5/18/2022 1:45:00 PM 18.02 64.436 0 17.59 10.17 8.97
5/18/2022 2:00:00 PM 18.04 64.472 0 17.59 10.2 8.93
5/18/2022 2:15:00 PM 18.18 64.724 0 15.98 10.14 8.91
5/18/2022 2:30:00 PM 18.5 65.3 0 6.94 10.13 8.84
5/18/2022 2:45:00 PM 18.84 65.912 0 17.56 10.07 8.76
5/18/2022 3:00:00 PM 19.09 66.362 0 10.25 10.05 8.72
5/18/2022 3:15:00 PM 19.21 66.578 0 17.55 10.06 8.73
5/18/2022 3:30:00 PM 18.95 66.11 0 17.56 10.06 8.78
5/18/2022 3:45:00 PM 18.55 65.39 0 4.45 10.14 8.86
5/18/2022 4:00:00 PM 18.09 64.562 0 17.59 10.18 8.92
5/18/2022 4:15:00 PM 17.78 64.004 0 -1.52 10.19 8.98
5/18/2022 4:30:00 PM 17.48 63.464 0 17.61 10.21 9.01
5/18/2022 4:45:00 PM 17.28 63.104 0 4.42 10.24 9.02
5/18/2022 5:00:00 PM 16.89 62.402 0 6.28 10.24 9.1
5/18/2022 5:15:00 PM 16.81 62.258 0 7.33 10.26 9.09
5/18/2022 5:30:00 PM 16.44 61.592 0 8.83 10.3 9.16
5/18/2022 5:45:00 PM 16.37 61.466 0 17.65 10.32 9.15
5/18/2022 6:00:00 PM 16.24 61.232 0 11.45 10.3 9.17
5/18/2022 6:15:00 PM 16.11 60.998 0 17.66 10.31 9.18
5/18/2022 6:30:00 PM 16.07 60.926 0 6.02 10.29 9.19
5/18/2022 6:45:00 PM 15.86 60.548 0 17.67 10.31 9.27
5/18/2022 7:00:00 PM 15.7 60.26 0 4.71 10.32 9.27
5/18/2022 7:15:00 PM 15.51 59.918 0 17.68 10.33 9.31
5/18/2022 7:30:00 PM 15.36 59.648 0 13.11 10.34 9.35
5/18/2022 7:45:00 PM 15.11 59.198 0 15.17 10.36 9.4
5/18/2022 8:00:00 PM 14.87 58.766 0 16.39 10.37 9.43
5/18/2022 8:15:00 PM 14.44 57.992 0 14.69 10.41 9.53
5/18/2022 8:30:00 PM 13.98 57.164 0 5.94 10.42 9.64
5/18/2022 8:45:00 PM 13.64 56.552 0 7.07 10.3 9.72
5/18/2022 9:00:00 PM 13.35 56.03 0 7.23 10.05 9.74
5/18/2022 9:15:00 PM 13.23 55.814 0 7.37 8.55 9.79
5/18/2022 9:30:00 PM 13.06 55.508 0 7.46 10.08 9.83
5/18/2022 9:45:00 PM 13.22 55.796 0 7.72 7.81 9.8
5/18/2022 10:00:00 PM 13.12 55.616 0 7.67 8.01 9.81
5/18/2022 10:15:00 PM 12.48 54.464 0 7.54 8.52 9.97
5/18/2022 10:30:00 PM 12.34 54.212 0 7.81 4.4 9.99
5/18/2022 10:45:00 PM 12.34 54.212 0 7.87 4.35 10
5/18/2022 11:00:00 PM 12.22 53.996 0 7.72 5.72 10.01
5/18/2022 11:15:00 PM 12.25 54.05 0 7.77 3.81 10
5/18/2022 11:30:00 PM 12.31 54.158 0 7.61 4 9.98
5/18/2022 11:45:00 PM 12.08 53.744 0 7.46 4.93 10.04
5/19/2022 12:00:00 AM 12.03 53.654 0 7.36 8.53 10.04
5/19/2022 12:15:00 AM 12.33 54.194 0 7.68 2.88 9.97
5/19/2022 12:30:00 AM 12.08 53.744 0 7.45 5.48 10.03
5/19/2022 12:45:00 AM 12.23 54.014 0 7.64 3.39 9.99
5/19/2022 1:00:00 AM 12.09 53.762 0 7.55 3.76 10.02
5/19/2022 1:15:00 AM 12.16 53.888 0 7.45 3.61 10
5/19/2022 1:30:00 AM 12.35 54.23 0 7.54 2.86 9.94
5/19/2022 1:45:00 AM 12.11 53.798 0 7.43 5.09 10.01
5/19/2022 2:00:00 AM 12.3 54.14 0 7.5 2.87 9.96
5/19/2022 2:15:00 AM 12.35 54.23 0 7.46 3.05 9.94
5/19/2022 2:30:00 AM 12.42 54.356 0 7.45 2.66 9.93
5/19/2022 2:45:00 AM 12.52 54.536 0 7.43 2.79 9.9
5/19/2022 3:00:00 AM 12.52 54.536 0 7.36 4.03 9.9
5/19/2022 3:15:00 AM 12.97 55.346 0 7.53 2.75 9.79
5/19/2022 3:30:00 AM 13.24 55.832 0 7.41 4.04 9.73
5/19/2022 3:45:00 AM 13.42 56.156 0 7.49 3.61 9.69
5/19/2022 4:00:00 AM 13.47 56.246 0.001 7.7 3.79 9.69
5/19/2022 4:15:00 AM 13.44 56.192 0.001 7.86 3.63 9.71
5/19/2022 4:30:00 AM 13.46 56.228 0.001 7.84 3.3 9.7
5/19/2022 4:45:00 AM 13.43 56.174 0.006 7.86 3.44 9.7
5/19/2022 5:00:00 AM 13.36 56.048 0.003 7.88 3.46 9.72
5/19/2022 5:15:00 AM 13.29 55.922 0.001 7.89 3.66 9.74
5/19/2022 5:30:00 AM 13.22 55.796 0.001 7.93 3.52 9.76
5/19/2022 5:45:00 AM 13.18 55.724 0 7.92 3.7 9.77
5/19/2022 6:00:00 AM 13.15 55.67 0.001 7.88 3.43 9.77
5/19/2022 6:15:00 AM 13.12 55.616 0.001 7.9 3.54 9.78
5/19/2022 6:30:00 AM 13.09 55.562 0 7.91 3.32 9.8
5/19/2022 6:45:00 AM 13.08 55.544 0 7.89 3.52 9.8
5/19/2022 7:00:00 AM 13.1 55.58 0 7.92 3.46 9.8
5/19/2022 7:15:00 AM 13.11 55.598 0 7.91 3.44 9.79
5/19/2022 7:30:00 AM 13.16 55.688 0 7.93 3.36 9.79
5/19/2022 7:45:00 AM 13.24 55.832 0 7.94 3.45 9.78
5/19/2022 8:00:00 AM 13.28 55.904 0 7.95 3.46 9.77
5/19/2022 8:15:00 AM 13.37 56.066 0 7.94 3.46 9.75
5/19/2022 8:30:00 AM 13.49 56.282 0 7.97 3.37 9.74
5/19/2022 8:45:00 AM 13.68 56.624 0 7.96 3.46 9.69
5/19/2022 9:00:00 AM 13.83 56.894 0 7.98 3.52 9.67
5/19/2022 9:15:00 AM 13.83 56.894 0 8.01 3.7 9.67
5/19/2022 9:30:00 AM 13.91 57.038 0 7.98 3.54 9.66
5/19/2022 9:45:00 AM 14.2 57.56 0 8 3.76 9.61
5/19/2022 10:00:00 AM 14.51 58.118 0 7.97 3.54 9.55
5/19/2022 10:15:00 AM 14.83 58.694 0 8.04 3.53 9.5
5/19/2022 10:30:00 AM 14.82 58.676 0 8.07 3.45 9.49
5/19/2022 10:45:00 AM 15.03 59.054 0 8.01 3.59 9.45
5/19/2022 11:00:00 AM 15.48 59.864 0 8.04 3.51 9.36
5/19/2022 11:15:00 AM 15.75 60.35 0 8.09 3.78 9.31
5/19/2022 11:30:00 AM 15.8 60.44 0 8.07 3.72 9.31
5/19/2022 11:45:00 AM 15.94 60.692 0 8.08 3.5 9.28
5/19/2022 12:00:00 PM 16.21 61.178 0 8.11 3.71 9.21
5/19/2022 12:15:00 PM 16.5 61.7 0 8.06 3.63 9.17
5/19/2022 12:30:00 PM 17.03 62.654 0 8.11 3.72 9.01
5/19/2022 12:45:00 PM 16.95 62.51 0 8.12 3.72 9.09
5/19/2022 1:00:00 PM 17.19 62.942 0 8.06 3.6 9.01
5/19/2022 1:15:00 PM 17.36 63.248 0 8.13 3.78 9
5/19/2022 1:30:00 PM 17.32 63.176 0 8.1 3.7 9
5/19/2022 1:45:00 PM 17.61 63.698 0 8.21 3.88 8.93
5/19/2022 2:00:00 PM 17.18 62.924 0 7.96 3.84 8.96
5/19/2022 2:15:00 PM 17.45 63.41 0 8.15 3.88 8.95
5/19/2022 2:30:00 PM 17.22 62.996 0 8.03 4.09 9.01
5/19/2022 2:45:00 PM 16.94 62.492 0 8.21 3.79 9.14
5/19/2022 3:00:00 PM 17.48 63.464 0 7.87 4.6 9.03
5/19/2022 3:15:00 PM 17.73 63.914 0 8.15 5.67 8.96
5/19/2022 3:30:00 PM 17.9 64.22 0 7.5 7.93 8.94
5/19/2022 3:45:00 PM 18.07 64.526 0 7.44 6.47 8.9
5/19/2022 4:00:00 PM 18.55 65.39 0 7.11 9.14 8.81
5/19/2022 4:15:00 PM 18.6 65.48 0.002 7.28 10.49 8.82
5/19/2022 4:30:00 PM 18.83 65.894 0 7.72 10.38 8.8
5/19/2022 4:45:00 PM 19.11 66.398 0.001 7.22 10.24 8.71
5/19/2022 5:00:00 PM 19.01 66.218 0 9.54 10.89 8.73
5/19/2022 5:15:00 PM 18.7 65.66 0 6.42 10.28 8.75
5/19/2022 5:30:00 PM 18.38 65.084 0 7.19 10.91 8.85
5/19/2022 5:45:00 PM 19.01 66.218 0 6.97 10.23 8.67
5/19/2022 6:00:00 PM 18.67 65.606 0 6.88 10.27 8.72
5/19/2022 6:15:00 PM 18.56 65.408 0 3.11 10.33 8.75
5/19/2022 6:30:00 PM 18.53 65.354 0 6.65 10.85 8.74
5/19/2022 6:45:00 PM 18.48 65.264 0 7.15 10.25 8.75
5/19/2022 7:00:00 PM 18.44 65.192 0 6.88 10.29 8.75
5/19/2022 7:15:00 PM 18.33 64.994 0 6.49 10.3 8.79
5/19/2022 7:30:00 PM 17.88 64.184 0 7.52 10.27 8.86
5/19/2022 7:45:00 PM 17.47 63.446 0 7.32 11.05 8.93
5/19/2022 8:00:00 PM 17.2 62.96 0 9.37 10.22 8.98
5/19/2022 8:15:00 PM 16.93 62.474 0 6.81 10.77 9.02
5/19/2022 8:30:00 PM 16.42 61.556 0 7.44 10.22 9.13
5/19/2022 8:45:00 PM 15.96 60.728 0 7.31 10.25 9.23
5/19/2022 9:00:00 PM 15.53 59.954 0 7.55 10.25 9.3
5/19/2022 9:15:00 PM 15.21 59.378 0 7.69 10.2 9.36
5/19/2022 9:30:00 PM 14.88 58.784 0 7.44 10.2 9.44
5/19/2022 9:45:00 PM 14.49 58.082 0 6.8 10.45 9.5
5/19/2022 10:00:00 PM 14.19 57.542 0 7.57 10.26 9.56
5/19/2022 10:15:00 PM 14.03 57.254 0 7.65 10.25 9.6
5/19/2022 10:30:00 PM 13.86 56.948 0 7.63 10.23 9.64
5/19/2022 10:45:00 PM 13.77 56.786 0 7.72 10.21 9.65
5/19/2022 11:00:00 PM 13.62 56.516 0 7.72 10.21 9.68
5/19/2022 11:15:00 PM 13.38 56.084 0 7.61 10.25 9.74
5/19/2022 11:30:00 PM 13.2 55.76 0 8.25 10.3 9.78
5/19/2022 11:45:00 PM 13.22 55.796 0 7.87 10.24 9.76
5/20/2022 12:00:00 AM 13.17 55.706 0 7.81 10.14 9.77
5/20/2022 12:15:00 AM 13.03 55.454 0 7.76 10.39 9.8
5/20/2022 12:30:00 AM 13.1 55.58 0 7.67 10.19 9.77
5/20/2022 12:45:00 AM 13.04 55.472 0 7.72 10.23 9.8
5/20/2022 1:00:00 AM 13 55.4 0 7.38 10.59 9.81
5/20/2022 1:15:00 AM 12.81 55.058 0 7.75 10.29 9.86
5/20/2022 1:30:00 AM 12.78 55.004 0 7.84 10.23 9.85
5/20/2022 1:45:00 AM 12.7 54.86 0 7.67 10.28 9.87
5/20/2022 2:00:00 AM 12.72 54.896 0 7.71 10.28 9.86
5/20/2022 2:15:00 AM 12.64 54.752 0 7.65 10.25 9.88
5/20/2022 2:30:00 AM 12.49 54.482 0 7.77 10.3 9.92
5/20/2022 2:45:00 AM 12.27 54.086 0 7.73 10.32 9.98
5/20/2022 3:00:00 AM 12.12 53.816 0 7.86 10.3 10.01
5/20/2022 3:15:00 AM 12.02 53.636 0 7.67 10.34 10.02
5/20/2022 3:30:00 AM 11.92 53.456 0 7.62 10.31 10.07
5/20/2022 3:45:00 AM 11.68 53.024 0 7.69 10.36 10.11
5/20/2022 4:00:00 AM 11.5 52.7 0 7.85 10.38 10.16
5/20/2022 4:15:00 AM 11.43 52.574 0 7.55 10.35 10.17
5/20/2022 4:30:00 AM 11.36 52.448 0 7.79 10.34 10.2
5/20/2022 4:45:00 AM 11.03 51.854 0 8.19 10.41 10.27
5/20/2022 5:00:00 AM 10.94 51.692 0 7.63 10.42 10.3
5/20/2022 5:15:00 AM 10.87 51.566 0 7.73 10.41 10.33
5/20/2022 5:30:00 AM 10.77 51.386 0 7.75 10.58 10.34
5/20/2022 5:45:00 AM 10.65 51.17 0 7.82 10.42 10.38
5/20/2022 6:00:00 AM 10.56 51.008 0 7.68 10.42 10.4
5/20/2022 6:15:00 AM 10.5 50.9 0 7.5 10.38 10.43
5/20/2022 6:30:00 AM 10.71 51.278 0 7.77 10.3 10.36
5/20/2022 6:45:00 AM 11.07 51.926 0 7.57 10.43 10.26
5/20/2022 7:00:00 AM 11.59 52.862 0 7.59 10.41 10.13
5/20/2022 7:15:00 AM 12.09 53.762 0 7.78 10.29 10.03
5/20/2022 7:30:00 AM 12.17 53.906 0 7.68 10.42 10.05
5/20/2022 7:45:00 AM 13.08 55.544 0 7.05 10.34 9.82
5/20/2022 8:00:00 AM 13.07 55.526 0 7.46 10.39 9.83
5/20/2022 8:15:00 AM 13.41 56.138 0 7.43 10.35 9.76
5/20/2022 8:30:00 AM 13.89 57.002 0 7.21 10.33 9.65
5/20/2022 8:45:00 AM 15.5 59.9 0 6.83 10.27 9.27
5/20/2022 9:00:00 AM 16.12 61.016 0 8.16 10.23 9.19
5/20/2022 9:15:00 AM 16.95 62.51 0 8.86 10.18 9.04
5/20/2022 9:30:00 AM 17.4 63.32 0 6.93 10.17 8.96
5/20/2022 9:45:00 AM 17.78 64.004 0 6.65 10.14 8.91
5/20/2022 10:00:00 AM 18.23 64.814 0 6.81 10.09 8.81
5/20/2022 10:15:00 AM 18.65 65.57 0 6.51 10.08 8.75
5/20/2022 10:30:00 AM 18.94 66.092 0 7.09 10.06 8.68
5/20/2022 10:45:00 AM 19.55 67.19 0 6.92 10.01 8.58
5/20/2022 11:00:00 AM 20.13 68.234 0 6.39 9.94 8.48
5/20/2022 11:15:00 AM 20.3 68.54 0 17.51 9.96 8.47
5/20/2022 11:30:00 AM 20.7 69.26 0 6.22 9.94 8.4
5/20/2022 11:45:00 AM 21.2 70.16 0 17.47 9.88 8.33
5/20/2022 12:00:00 PM 21.82 71.276 0 17.45 9.86 8.23
5/20/2022 12:15:00 PM 22.14 71.852 0 6.58 9.82 8.18
5/20/2022 12:30:00 PM 22.67 72.806 0 3.15 9.81 8.1
5/20/2022 12:45:00 PM 23.26 73.868 0 9.61 9.73 8
5/20/2022 1:00:00 PM 23.82 74.876 0 5.54 9.71 7.92
5/20/2022 1:15:00 PM 24.06 75.308 0 8.39 9.68 7.88
5/20/2022 1:30:00 PM 24.19 75.542 0 17.37 9.67 7.87
5/20/2022 1:45:00 PM 23.97 75.146 0 13.01 9.7 7.9
5/20/2022 2:00:00 PM 23.34 74.012 0 17.4 9.77 7.99
5/20/2022 2:15:00 PM 23.36 74.048 0 6.55 9.78 7.96
5/20/2022 2:30:00 PM 23.55 74.39 0 15.05 9.74 7.92
5/20/2022 2:45:00 PM 23.49 74.282 0 17.39 9.79 7.94
5/20/2022 3:00:00 PM 23.59 74.462 0 17.39 9.76 7.91
5/20/2022 3:15:00 PM 23.82 74.876 0 17.38 9.73 7.87
5/20/2022 3:30:00 PM 23.75 74.75 0 16.57 9.77 7.9
5/20/2022 3:45:00 PM 23.71 74.67799 0 8.3 9.74 7.9
5/20/2022 4:00:00 PM 23.76 74.768 0 6.41 9.74 7.88
5/20/2022 4:15:00 PM 23.64 74.552 0 6.89 9.73 7.89
5/20/2022 4:30:00 PM 23.26 73.868 0 5.46 9.77 7.96
5/20/2022 4:45:00 PM 23 73.4 0 17.41 9.81 7.98
5/20/2022 5:00:00 PM 22.78 73.004 0 6.69 9.81 8.01
5/20/2022 5:15:00 PM 22.6 72.68 0 17.43 9.82 8.04
5/20/2022 5:30:00 PM 22.48 72.464 0 6.3 9.85 8.06
5/20/2022 5:45:00 PM 22.36 72.248 0 17.43 9.83 8.07
5/20/2022 6:00:00 PM 22.41 72.338 0 7.29 9.82 8.06
5/20/2022 6:15:00 PM 22.28 72.104 0 6.87 9.83 8.08
5/20/2022 6:30:00 PM 22.12 71.816 0 4.39 9.86 8.11
5/20/2022 6:45:00 PM 21.95 71.51 0 7.15 9.87 8.13
5/20/2022 7:00:00 PM 21.8 71.24 0 7.04 9.91 8.15
5/20/2022 7:15:00 PM 21.75 71.15 0 8.4 9.89 8.15
5/20/2022 7:30:00 PM 21.69 71.042 0 17.46 9.91 8.17
5/20/2022 7:45:00 PM 21.53 70.754 0 17.46 9.9 8.2
5/20/2022 8:00:00 PM 21.22 70.196 0 15 9.9 8.25
5/20/2022 8:15:00 PM 20.91 69.638 0 7.35 9.96 8.29
5/20/2022 8:30:00 PM 20.46 68.828 0 14.98 9.98 8.37
5/20/2022 8:45:00 PM 20.11 68.198 0 7.38 10 8.42
5/20/2022 9:00:00 PM 19.71 67.478 0 7.43 10.03 8.5
5/20/2022 9:15:00 PM 19.43 66.974 0 7.83 10.05 8.54
5/20/2022 9:30:00 PM 19.29 66.722 0 7.78 10.02 8.55
5/20/2022 9:45:00 PM 19.08 66.344 0 7.56 9.98 8.59
5/20/2022 10:00:00 PM 19.05 66.29 0 7.73 9.92 8.59
5/20/2022 10:15:00 PM 18.91 66.038 0 7.65 9.97 8.62
5/20/2022 10:30:00 PM 18.68 65.624 0 7.67 10.01 8.68
5/20/2022 10:45:00 PM 18.48 65.264 0 7.55 10.05 8.7
5/20/2022 11:00:00 PM 18.28 64.904 0 7.61 10.09 8.74
5/20/2022 11:15:00 PM 18.05 64.49 0 7.62 10.07 8.81
5/20/2022 11:30:00 PM 17.91 64.238 0 7.71 10.01 8.83
5/20/2022 11:45:00 PM 17.78 64.004 0 7.72 10 8.86
5/21/2022 12:00:00 AM 17.65 63.77 0 7.73 10.02 8.88
5/21/2022 12:15:00 AM 17.48 63.464 0 7.69 10.04 8.92
5/21/2022 12:30:00 AM 17.4 63.32 0 7.78 10.06 8.94
5/21/2022 12:45:00 AM 17.21 62.978 0 7.77 10.01 8.97
5/21/2022 1:00:00 AM 17.04 62.672 0 7.72 10.08 9.01
5/21/2022 1:15:00 AM 16.92 62.456 0 7.75 10.07 9.04
5/21/2022 1:30:00 AM 16.76 62.168 0 7.73 10.14 9.06
5/21/2022 1:45:00 AM 16.68 62.024 0 7.8 10 9.08
5/21/2022 2:00:00 AM 16.66 61.988 0 7.81 9.98 9.08
5/21/2022 2:15:00 AM 16.53 61.754 0 7.77 10.06 9.1
5/21/2022 2:30:00 AM 16.41 61.538 0 7.78 10.12 9.13
5/21/2022 2:45:00 AM 16.27 61.286 0 7.75 10.12 9.16
5/21/2022 3:00:00 AM 16.22 61.196 0 7.81 9.95 9.16
5/21/2022 3:15:00 AM 16.09 60.962 0 7.77 10.13 9.2
5/21/2022 3:30:00 AM 16.04 60.872 0 7.81 10.06 9.19
5/21/2022 3:45:00 AM 15.98 60.764 0 7.82 10.12 9.21
5/21/2022 4:00:00 AM 15.94 60.692 0 7.81 10 9.22
5/21/2022 4:15:00 AM 15.77 60.386 0 7.8 10.19 9.25
5/21/2022 4:30:00 AM 15.62 60.116 0 7.75 10.26 9.27
5/21/2022 4:45:00 AM 15.47 59.846 0 7.78 10.3 9.32
5/21/2022 5:00:00 AM 15.34 59.612 0 7.82 10.24 9.35
5/21/2022 5:15:00 AM 15.2 59.36 0 7.83 10.22 9.37
5/21/2022 5:30:00 AM 15.12 59.216 0 7.82 10.15 9.39
5/21/2022 5:45:00 AM 15.11 59.198 0 7.88 10.05 9.39
5/21/2022 6:00:00 AM 15.05 59.09 0 7.83 10.14 9.41
5/21/2022 6:15:00 AM 15.01 59.018 0 7.86 10.04 9.43
5/21/2022 6:30:00 AM 15.06 59.108 0 7.88 9.71 9.42
5/21/2022 6:45:00 AM 15.41 59.738 0.001 7.99 7.48 9.35
5/21/2022 7:00:00 AM 16 60.8 0.001 7.93 6.88 9.26
5/21/2022 7:15:00 AM 16.52 61.736 0 7.73 11.45 9.16
5/21/2022 7:30:00 AM 17.47 63.446 0 7.63 11.35 8.98
5/21/2022 7:45:00 AM 18.56 65.408 0 7.61 10.89 8.82
5/21/2022 8:00:00 AM 19.24 66.632 0 7.54 10.82 8.77
5/21/2022 8:15:00 AM 19.46 67.028 0 7.52 10.74 8.74
5/21/2022 8:30:00 AM 19.98 67.964 0 7.6 10.72 8.76
5/21/2022 8:45:00 AM 20.66 69.188 0 7.51 10.58 8.52
5/21/2022 9:00:00 AM 22.34 72.212 0 7.3 10.45 8.2
5/21/2022 9:15:00 AM 23.81 74.858 0 7.07 10.18 8
5/21/2022 9:30:00 AM 24.98 76.964 0 9.97 9.95 7.82
5/21/2022 9:45:00 AM 25.99 78.782 0 14.22 9.79 7.66
5/21/2022 10:00:00 AM 26.77 80.186 0 13.44 9.69 7.58
5/21/2022 10:15:00 AM 27.41 81.338 0 17.26 9.62 7.5
5/21/2022 10:30:00 AM 27.96 82.328 0 17.24 9.49 7.43
5/21/2022 10:45:00 AM 28.58 83.444 0 17.22 10 7.35
5/21/2022 11:00:00 AM 28.67 83.606 0 17.22 10.24 7.36
5/21/2022 11:15:00 AM 28.44 83.192 0 13.6 9.49 7.37
5/21/2022 11:30:00 AM 28.47 83.24599 0 17.22 11.19 7.35
5/21/2022 11:45:00 AM 28.34 83.012 0 17.23 10.62 7.34
5/21/2022 12:00:00 PM 28.28 82.904 0 17.23 11.64 7.34
5/21/2022 12:15:00 PM 28.38 83.084 0 17.23 10.52 7.33
5/21/2022 12:30:00 PM 28.5 83.3 0 8.74 9.48 7.31
5/21/2022 12:45:00 PM 28.52 83.336 0 8.39 9.45 7.31
5/21/2022 1:00:00 PM 29.27 84.686 0 5.54 9.38 7.22
5/21/2022 1:15:00 PM 30.05 86.09 0 5.83 9.33 7.12
5/21/2022 1:30:00 PM 29.94 85.892 0 6.06 9.29 7.13
5/21/2022 1:45:00 PM 29.68 85.424 0 6.84 9.3 7.17
5/21/2022 2:00:00 PM 29.51 85.118 0 17.19 9.33 7.18
5/21/2022 2:15:00 PM 29.46 85.028 0 15.12 9.36 7.19
5/21/2022 2:30:00 PM 29.41 84.938 0 12.6 9.37 7.17
5/21/2022 2:45:00 PM 29.46 85.028 0 11.75 9.39 7.17
5/21/2022 3:00:00 PM 29.28 84.704 0 11.4 9.36 7.18
5/21/2022 3:15:00 PM 29.47 85.046 0 14.5 9.36 7.15
5/21/2022 3:30:00 PM 29.8 85.64 0 10.79 9.33 7.12
5/21/2022 3:45:00 PM 30.28 86.50401 0 17.16 9.28 7.07
5/21/2022 4:00:00 PM 30.62 87.116 0 17.15 9.21 7.02
5/21/2022 4:15:00 PM 30.8 87.43999 0 17.14 9.22 7
5/21/2022 4:30:00 PM 30.72 87.296 0 11.86 9.23 7
5/21/2022 4:45:00 PM 30.64 87.152 0 17.15 9.75 7.01
5/21/2022 5:00:00 PM 30.66 87.188 0 5.82 9.25 7
5/21/2022 5:15:00 PM 30.26 86.468 0 3.89 10.73 7.06
5/21/2022 5:30:00 PM 29.73 85.514 0 17.18 9.29 7.09
5/21/2022 5:45:00 PM 29.29 84.722 0 10.94 9.37 7.13
5/21/2022 6:00:00 PM 28.71 83.67799 0 17.21 9.4 7.19
5/21/2022 6:15:00 PM 28.3 82.94 0 17.23 9.45 7.22
5/21/2022 6:30:00 PM 28.01 82.418 0 16.49 9.45 7.24
5/21/2022 6:45:00 PM 27.51 81.518 0 6.37 9.49 7.32
5/21/2022 7:00:00 PM 27.09 80.762 0 6.5 9.53 7.35
5/21/2022 7:15:00 PM 26.53 79.754 0 17.29 9.58 7.42
5/21/2022 7:30:00 PM 25.97 78.746 0 16.09 9.61 7.51
5/21/2022 7:45:00 PM 25.39 77.702 0 17.33 9.62 7.59
5/21/2022 8:00:00 PM 24.84 76.712 0 17.35 9.65 7.67
5/21/2022 8:15:00 PM 24.31 75.758 0 6.74 11.89 7.73
5/21/2022 8:30:00 PM 23.62 74.516 0 6.78 9.75 7.84
5/21/2022 8:45:00 PM 23.34 74.012 0 7.14 9.83 7.86
5/21/2022 9:00:00 PM 23 73.4 0 7.19 9.83 7.92
5/21/2022 9:15:00 PM 22.68 72.824 0 7.32 9.83 7.95
5/21/2022 9:30:00 PM 22.39 72.302 0 7.54 9.84 8
5/21/2022 9:45:00 PM 22.16 71.888 0 7.45 9.87 8.04
5/21/2022 10:00:00 PM 21.93 71.474 0 7.31 9.87 8.09
5/21/2022 10:15:00 PM 22.05 71.69 0 7.34 9.85 8.06
5/21/2022 10:30:00 PM 21.92 71.456 0 7.36 9.83 8.07
5/21/2022 10:45:00 PM 21.79 71.222 0 7.37 9.86 8.11
5/21/2022 11:00:00 PM 21.77 71.186 0 7.25 9.85 8.13
5/21/2022 11:15:00 PM 22.12 71.816 0 16.87 9.96 8.08
5/21/2022 11:30:00 PM 21.91 71.438 0 6.84 9.94 8.11
5/21/2022 11:45:00 PM 21.58 70.844 0 7.08 9.98 8.17
5/22/2022 12:00:00 AM 21.19 70.142 0 5.84 10 8.22
5/22/2022 12:15:00 AM 20.92 69.656 0 7.36 10.05 8.27
5/22/2022 12:30:00 AM 20.55 68.99 0 7.36 9.99 8.32
5/22/2022 12:45:00 AM 20.24 68.432 0 7.42 10 8.38
5/22/2022 1:00:00 AM 20.01 68.018 0 7.49 9.96 8.4
5/22/2022 1:15:00 AM 19.59 67.262 0 7.44 9.94 8.48
5/22/2022 1:30:00 AM 19.18 66.524 0 7.43 9.97 8.55
5/22/2022 1:45:00 AM 18.97 66.146 0 7.55 10.02 8.58
5/22/2022 2:00:00 AM 18.76 65.768 0 7.5 10.03 8.62
5/22/2022 2:15:00 AM 18.78 65.804 0 7.52 10 8.62
5/22/2022 2:30:00 AM 18.67 65.606 0 7.51 10.01 8.64
5/22/2022 2:45:00 AM 18.72 65.696 0 7.6 9.96 8.62
5/22/2022 3:00:00 AM 18.34 65.012 0 7.56 10.05 8.7
5/22/2022 3:15:00 AM 18.22 64.796 0 7.44 10.01 8.7
5/22/2022 3:30:00 AM 17.75 63.95 0 7.5 10.1 8.8
5/22/2022 3:45:00 AM 17.64 63.752 0 7.62 10.03 8.8
5/22/2022 4:00:00 AM 17.53 63.554 0 7.53 10.06 8.81
5/22/2022 4:15:00 AM 17.2 62.96 0 7.52 10.11 8.87
5/22/2022 4:30:00 AM 17.18 62.924 0 7.58 10.04 8.87
5/22/2022 4:45:00 AM 16.91 62.438 0 7.57 10.11 8.91
5/22/2022 5:00:00 AM 16.8 62.24 0 7.74 10.06 8.93
5/22/2022 5:15:00 AM 16.64 61.952 0 7.62 10.07 8.97
5/22/2022 5:30:00 AM 16.47 61.646 0 7.64 10.09 9
5/22/2022 5:45:00 AM 16.4 61.52 0 7.62 10.07 9
5/22/2022 6:00:00 AM 16.2 61.16 0 7.61 10.13 9.05
5/22/2022 6:15:00 AM 16.01 60.818 0 7.59 10.21 9.1
5/22/2022 6:30:00 AM 16.29 61.322 0 7.77 9.61 9.04
5/22/2022 6:45:00 AM 16.54 61.772 0 7.49 10.34 8.99
5/22/2022 7:00:00 AM 17.58 63.644 0 7.41 10.44 8.76
5/22/2022 7:15:00 AM 18.35 65.03 0 7.35 10.38 8.7
5/22/2022 7:30:00 AM 19.16 66.488 0 7.28 10.28 8.57
5/22/2022 7:45:00 AM 20.33 68.594 0 7.4 10.12 8.39
5/22/2022 8:00:00 AM 20.82 69.476 0 7.19 9.9 8.38
5/22/2022 8:15:00 AM 20.8 69.44 0 7.23 10.15 8.36
5/22/2022 8:30:00 AM 20.75 69.35 0 7.79 10.16 8.33
5/22/2022 8:45:00 AM 21 69.8 0 7.3 10.11 8.29
5/22/2022 9:00:00 AM 21.5 70.7 0 7.21 10 8.22
5/22/2022 9:15:00 AM 21.59 70.862 0 8.93 9.98 8.2
5/22/2022 9:30:00 AM 21.76 71.168 0 17.45 9.97 8.18
5/22/2022 9:45:00 AM 21.97 71.546 0 6.97 9.95 8.15
5/22/2022 10:00:00 AM 22.49 72.482 0 11.4 9.9 8.07
5/22/2022 10:15:00 AM 23.24 73.832 0 6.68 9.84 7.97
5/22/2022 10:30:00 AM 24.22 75.596 0 5.28 9.76 7.82
5/22/2022 10:45:00 AM 25.25 77.45 0 17.33 9.63 7.66
5/22/2022 11:00:00 AM 25.61 78.098 0 6.23 9.62 7.63
5/22/2022 11:15:00 AM 25.92 78.656 0 5.76 9.61 7.56
5/22/2022 11:30:00 AM 26.07 78.926 0 6.23 9.58 7.55
5/22/2022 11:45:00 AM 26.18 79.124 0 6.61 9.6 7.54
5/22/2022 12:00:00 PM 26.21 79.17799 0 17.3 9.56 7.53
5/22/2022 12:15:00 PM 26.76 80.168 0 8 9.54 7.45
5/22/2022 12:30:00 PM 27.08 80.744 0 17.27 9.5 7.41
5/22/2022 12:45:00 PM 27.4 81.32 0 13.52 9.48 7.37
5/22/2022 1:00:00 PM 27.53 81.554 0 -4.3 9.45 7.38
5/22/2022 1:15:00 PM 27.22 80.996 0 4.98 9.49 7.42
5/22/2022 1:30:00 PM 26.87 80.366 0 -0.7 9.53 7.44
5/22/2022 1:45:00 PM 26.86 80.348 0 7.01 9.53 7.43
5/22/2022 2:00:00 PM 27.12 80.816 0 12.38 9.52 7.4
5/22/2022 2:15:00 PM 26.8 80.24 0 15.3 9.53 7.45
5/22/2022 2:30:00 PM 26.6 79.88 0 16.42 9.53 7.46
5/22/2022 2:45:00 PM 26.63 79.934 0 17.28 9.56 7.45
5/22/2022 3:00:00 PM 26.65 79.97 0 6.68 9.56 7.43
5/22/2022 3:15:00 PM 26.57 79.826 0 13.87 9.55 7.45
5/22/2022 3:30:00 PM 26.68 80.024 0 17.28 9.51 7.44
5/22/2022 3:45:00 PM 26.44 79.592 0 17.29 9.58 7.46
5/22/2022 4:00:00 PM 25.96 78.728 0 17.31 9.6 7.53
5/22/2022 4:15:00 PM 23.89 75.002 0 7.64 8.66 7.68
5/22/2022 4:30:00 PM 21.38 70.484 0 7.29 9.21 8.15
5/22/2022 4:45:00 PM 20.59 69.062 0 7.37 9.36 8.28
5/22/2022 5:00:00 PM 19.86 67.748 0 7.39 9.71 8.42
5/22/2022 5:15:00 PM 19.68 67.424 0 7.34 9.97 8.42
5/22/2022 5:30:00 PM 19.36 66.848 0 7.31 10.63 8.48
5/22/2022 5:45:00 PM 19.48 67.064 0 7.2 10.73 8.44
5/22/2022 6:00:00 PM 19.52 67.136 0 7.65 10.59 8.45
5/22/2022 6:15:00 PM 19.39 66.902 0 4.25 10.51 8.44
5/22/2022 6:30:00 PM 19.13 66.434 0 5.39 10.5 8.5
5/22/2022 6:45:00 PM 18.71 65.67799 0 3.5 10.52 8.57
5/22/2022 7:00:00 PM 18.79 65.82201 0 7.33 10.29 8.55
5/22/2022 7:15:00 PM 18.64 65.552 0 7.29 10.25 8.53
5/22/2022 7:30:00 PM 18.15 64.67 0 9.4 10.45 8.67
5/22/2022 7:45:00 PM 17.76 63.968 0 8.96 10.41 8.73
5/22/2022 8:00:00 PM 17.53 63.554 0 7.58 10.17 8.76
5/22/2022 8:15:00 PM 17.27 63.086 0 7.42 10.33 8.84
5/22/2022 8:30:00 PM 16.75 62.15 0 6.63 10.36 8.95
5/22/2022 8:45:00 PM 16.29 61.322 0 2.63 10.35 9.04
5/22/2022 9:00:00 PM 16.02 60.836 0 10.35 10.37 9.09
5/22/2022 9:15:00 PM 15.87 60.566 0 7.25 10.31 9.11
5/22/2022 9:30:00 PM 15.08 59.144 0 12.23 10.32 9.26
5/22/2022 9:45:00 PM 15.02 59.036 0 7.46 10.25 9.25
5/22/2022 10:00:00 PM 14.4 57.92 0 7.54 10.19 9.42
5/22/2022 10:15:00 PM 13.89 57.002 0 7.49 10.2 9.52
5/22/2022 10:30:00 PM 13.68 56.624 0 7.66 10.1 9.55
5/22/2022 10:45:00 PM 13.42 56.156 0 7.65 10.09 9.63
5/22/2022 11:00:00 PM 13.1 55.58 0 7.59 10.23 9.69
5/22/2022 11:15:00 PM 12.73 54.914 0 7.69 10.24 9.78
5/22/2022 11:30:00 PM 12.59 54.662 0 7.61 10.22 9.8
5/22/2022 11:45:00 PM 12.24 54.032 0 7.59 10.26 9.89
5/23/2022 12:00:00 AM 11.84 53.312 0 7.6 10.27 9.96
5/23/2022 12:15:00 AM 11.69 53.042 0 7.71 10.19 10.02
5/23/2022 12:30:00 AM 11.41 52.538 0 7.67 10.2 10.06
5/23/2022 12:45:00 AM 11.23 52.214 0 7.55 10.31 10.09
5/23/2022 1:00:00 AM 11.02 51.836 0 7.54 10.33 10.16
5/23/2022 1:15:00 AM 11.15 52.07 0 7.85 9.94 10.13
5/23/2022 1:30:00 AM 11.05 51.89 0 7.76 10.07 10.15
5/23/2022 1:45:00 AM 11.22 52.196 0 7.88 9.92 10.12
5/23/2022 2:00:00 AM 11.08 51.944 0 7.58 10.35 10.16
5/23/2022 2:15:00 AM 11.45 52.61 0 7.55 10.3 10.05
5/23/2022 2:30:00 AM 11.63 52.934 0 7.68 10.02 10.02
5/23/2022 2:45:00 AM 11.52 52.736 0 7.61 10.35 10.03
5/23/2022 3:00:00 AM 11.69 53.042 0 7.6 10.28 10.01
5/23/2022 3:15:00 AM 11.77 53.186 0 7.76 10 9.99
5/23/2022 3:30:00 AM 11.61 52.898 0 7.54 10.38 10.02
5/23/2022 3:45:00 AM 11.64 52.952 0 7.68 10.15 10.02
5/23/2022 4:00:00 AM 11.78 53.204 0 7.58 10.09 9.95
5/23/2022 4:15:00 AM 11.62 52.916 0 7.47 10.51 10
5/23/2022 4:30:00 AM 11.78 53.204 0 7.74 10.02 10
5/23/2022 4:45:00 AM 11.68 53.024 0 7.64 10.31 10.02
5/23/2022 5:00:00 AM 11.59 52.862 0 7.62 10.45 10.05
5/23/2022 5:15:00 AM 11.25 52.25 0 7.48 10.56 10.13
5/23/2022 5:30:00 AM 10.93 51.674 0 7.5 10.55 10.21
5/23/2022 5:45:00 AM 10.79 51.422 0 7.69 10.47 10.25
5/23/2022 6:00:00 AM 10.57 51.026 0 7.66 10.39 10.32
5/23/2022 6:15:00 AM 10.38 50.684 0 7.53 10.53 10.36
5/23/2022 6:30:00 AM 10.28 50.504 0 7.56 10.52 10.36
5/23/2022 6:45:00 AM 11.26 52.268 0 7.65 9.9 10.16
5/23/2022 7:00:00 AM 12.17 53.906 0 7.39 10.56 9.88
5/23/2022 7:15:00 AM 12.29 54.122 0 7.49 10.6 9.94
5/23/2022 7:30:00 AM 12.51 54.518 0 7.46 10.76 9.9
5/23/2022 7:45:00 AM 12.81 55.058 0 7.17 10.7 9.8
5/23/2022 8:00:00 AM 12.97 55.346 0 5.06 10.56 9.84
5/23/2022 8:15:00 AM 13.4 56.12 0 4.39 10.52 9.79
5/23/2022 8:30:00 AM 13.69 56.642 0 17.75 10.41 9.83
5/23/2022 8:45:00 AM 13.86 56.948 0 6.57 10.53 9.74
5/23/2022 9:00:00 AM 14.3 57.74 0 17.73 10.52 9.6
5/23/2022 9:15:00 AM 14.81 58.658 0 13.69 10.46 9.47
5/23/2022 9:30:00 AM 15.51 59.918 0 10.25 10.37 9.33
5/23/2022 9:45:00 AM 16.31 61.358 0 1.41 10.33 9.18
5/23/2022 10:00:00 AM 17.17 62.906 0 17.62 10.28 9.01
5/23/2022 10:15:00 AM 17.73 63.914 0 17.6 10.21 8.89
5/23/2022 10:30:00 AM 18.39 65.102 0 17.58 10.14 8.74
5/23/2022 10:45:00 AM 19.11 66.398 0 0.62 10.09 8.69
5/23/2022 11:00:00 AM 19.27 66.686 0 9.22 10.09 8.68
5/23/2022 11:15:00 AM 18.83 65.894 0 8.92 10.13 8.75
5/23/2022 11:30:00 AM 18.69 65.642 0 -4.64 10.15 8.74
5/23/2022 11:45:00 AM 18.66 65.588 0 0.39 10.13 8.76
5/23/2022 12:00:00 PM 18.6 65.48 0 15.39 10.17 8.78
5/23/2022 12:15:00 PM 18.65 65.57 0 12.97 10.13 8.75
5/23/2022 12:30:00 PM 18.39 65.102 0 -4.65 10.19 8.78
5/23/2022 12:45:00 PM 18.62 65.516 0 17.57 10.16 8.7
5/23/2022 1:00:00 PM 19.1 66.38 0 16.46 10.1 8.61
5/23/2022 1:15:00 PM 19.26 66.668 0 5.85 10.12 8.59
5/23/2022 1:30:00 PM 19.42 66.956 0 11.64 10.11 8.58
5/23/2022 1:45:00 PM 19.31 66.758 0 9.8 10.12 8.57
5/23/2022 2:00:00 PM 19.21 66.578 0 14.45 10.15 8.6
5/23/2022 2:15:00 PM 19.21 66.578 0 -1.51 10.11 8.57
5/23/2022 2:30:00 PM 19.41 66.938 0 13.68 10.09 8.57
5/23/2022 2:45:00 PM 19.55 67.19 0 12.4 10.06 8.51
5/23/2022 3:00:00 PM 19.61 67.298 0 12.29 10.08 8.53
5/23/2022 3:15:00 PM 19.55 67.19 0 17.53 10.1 8.53
5/23/2022 3:30:00 PM 19.72 67.496 0 12.92 10.09 8.5
5/23/2022 3:45:00 PM 19.69 67.442 0 15.46 10.1 8.47
5/23/2022 4:00:00 PM 19.89 67.802 0 17.52 10.08 8.44
5/23/2022 4:15:00 PM 19.71 67.478 0 16.3 10.1 8.49
5/23/2022 4:30:00 PM 19.66 67.388 0 13.34 10.05 8.44
5/23/2022 4:45:00 PM 19.14 66.452 0 14.84 10.16 8.56
5/23/2022 5:00:00 PM 18.91 66.038 0 -0.45 10.16 8.6
5/23/2022 5:15:00 PM 18.67 65.606 0 7.66 10.17 8.68
5/23/2022 5:30:00 PM 18.44 65.192 0 9.82 10.23 8.7
5/23/2022 5:45:00 PM 18.18 64.724 0 17.58 10.21 8.72
5/23/2022 6:00:00 PM 17.97 64.346 0 17.59 10.23 8.79
5/23/2022 6:15:00 PM 17.81 64.058 0 16.29 10.27 8.78
5/23/2022 6:30:00 PM 17.54 63.572 0 17.61 10.28 8.83
5/23/2022 6:45:00 PM 17.18 62.924 0 9.63 10.29 8.88
5/23/2022 7:00:00 PM 17.03 62.654 0 17.63 10.32 8.91
5/23/2022 7:15:00 PM 16.78 62.204 0 17.63 10.34 8.92
5/23/2022 7:30:00 PM 16.52 61.736 0 17.64 10.36 8.97
5/23/2022 7:45:00 PM 16.38 61.484 0 11.09 10.37 8.99
5/23/2022 8:00:00 PM 15.87 60.566 0 17.65 10.4 9.09
5/23/2022 8:15:00 PM 15.46 59.828 0 17.68 10.43 9.15
5/23/2022 8:30:00 PM 14.96 58.928 0 9.59 10.47 9.25
5/23/2022 8:45:00 PM 14.39 57.902 0 12 10.51 9.34
5/23/2022 9:00:00 PM 13.97 57.146 0 12.23 10.58 9.41
5/23/2022 9:15:00 PM 13.61 56.498 0 3.09 10.61 9.49
5/23/2022 9:30:00 PM 13.12 55.616 0 3.58 10.64 9.59
5/23/2022 9:45:00 PM 12.78 55.004 0 -3.43 10.63 9.68
5/23/2022 10:00:00 PM 12.46 54.428 0 7.13 10.65 9.72
5/23/2022 10:15:00 PM 12.17 53.906 0 8.22 10.66 9.81
5/23/2022 10:30:00 PM 11.89 53.402 0 7.24 10.67 9.87
5/23/2022 10:45:00 PM 11.61 52.898 0 7.37 10.54 9.94
5/23/2022 11:00:00 PM 11.46 52.628 0 7.38 10.5 9.97
5/23/2022 11:15:00 PM 11.24 52.232 0 7.34 10.54 10.02
5/23/2022 11:30:00 PM 11.1 51.98 0 7.41 10.51 10.05
5/23/2022 11:45:00 PM 10.97 51.746 0 7.47 10.49 10.08
5/24/2022 12:00:00 AM 10.58 51.044 0 7.45 10.51 10.18
5/24/2022 12:15:00 AM 10.49 50.882 0 7.52 10.47 10.19
5/24/2022 12:30:00 AM 10.23 50.414 0 7.44 10.53 10.27
5/24/2022 12:45:00 AM 9.94 49.892 0 7.49 10.54 10.34
5/24/2022 1:00:00 AM 9.63 49.334 0 7.73 10.55 10.42
5/24/2022 1:15:00 AM 9.5 49.1 0 7.52 10.59 10.46
5/24/2022 1:30:00 AM 9.31 48.758 0 7.54 10.58 10.53
5/24/2022 1:45:00 AM 9.26 48.668 0 7.59 10.55 10.53
5/24/2022 2:00:00 AM 9 48.2 0 7.58 10.58 10.61
5/24/2022 2:15:00 AM 8.74 47.732 0 7.63 10.64 10.67
5/24/2022 2:30:00 AM 8.64 47.552 0 7.6 10.64 10.68
5/24/2022 2:45:00 AM 8.49 47.282 0 7.55 10.63 10.73
5/24/2022 3:00:00 AM 8.16 46.688 0 7.61 10.68 10.83
5/24/2022 3:15:00 AM 8.11 46.598 0 7.63 10.62 10.85
5/24/2022 3:30:00 AM 8 46.4 0 7.61 10.64 10.85
5/24/2022 3:45:00 AM 7.65 45.77 0 7.71 10.68 10.95
5/24/2022 4:00:00 AM 7.42 45.356 0 7.62 10.63 11.04
5/24/2022 4:15:00 AM 7.36 45.248 0 7.56 10.65 11.05
5/24/2022 4:30:00 AM 7.04 44.672 0 7.61 10.73 11.13
5/24/2022 4:45:00 AM 6.95 44.51 0 7.75 10.7 11.19
5/24/2022 5:00:00 AM 6.79 44.222 0 7.71 10.82 11.22
5/24/2022 5:15:00 AM 6.61 43.898 0 7.6 10.79 11.28
5/24/2022 5:30:00 AM 6.52 43.736 0 7.67 10.68 11.3
5/24/2022 5:45:00 AM 6.39 43.502 0 7.6 10.82 11.32
5/24/2022 6:00:00 AM 6.33 43.394 0 7.72 10.72 11.38
5/24/2022 6:15:00 AM 6.32 43.376 0 7.59 10.8 11.36
5/24/2022 6:30:00 AM 6.48 43.664 0 7.72 10.69 11.31
5/24/2022 6:45:00 AM 7.48 45.464 0 7.47 10.93 11.01
5/24/2022 7:00:00 AM 8.29 46.922 0 7.41 10.93 10.78
5/24/2022 7:15:00 AM 10.18 50.324 0 7.44 10.86 10.27
5/24/2022 7:30:00 AM 11.73 53.114 0 7.07 10.96 9.84
5/24/2022 7:45:00 AM 12.3 54.14 0 7.01 10.83 9.79
5/24/2022 8:00:00 AM 12.25 54.05 0 17.8 10.72 9.83
5/24/2022 8:15:00 AM 12.86 55.148 0 7.76 10.77 9.77
5/24/2022 8:30:00 AM 12.36 54.248 0 6.8 10.72 10.01
5/24/2022 8:45:00 AM 12.8 55.04 0 9.65 10.73 9.83
5/24/2022 9:00:00 AM 13.67 56.606 0 3.77 10.63 9.63
5/24/2022 9:15:00 AM 14.81 58.658 0 17.71 10.55 9.37
5/24/2022 9:30:00 AM 16.16 61.088 0 16.9 10.48 9.08
5/24/2022 9:45:00 AM 17.11 62.798 0 17.62 10.4 8.96
5/24/2022 10:00:00 AM 18.1 64.58 0 4.28 10.28 8.75
5/24/2022 10:15:00 AM 19.12 66.416 0 1.97 10.22 8.55
5/24/2022 10:30:00 AM 19.36 66.848 0 17.54 10.17 8.57
5/24/2022 10:45:00 AM 20.17 68.306 0 -3.05 10.12 8.44
5/24/2022 11:00:00 AM 20.35 68.63 0 17.51 10.15 8.4
5/24/2022 11:15:00 AM 19.73 67.514 0 17.53 10.14 8.52
5/24/2022 11:30:00 AM 19.39 66.902 0 17.54 10.21 8.55
5/24/2022 11:45:00 AM 19.84 67.712 0 17.52 10.17 8.48
5/24/2022 12:00:00 PM 19.57 67.226 0 -4.61 10.19 8.54
5/24/2022 12:15:00 PM 19.2 66.56 0 -4.62 10.18 8.59
5/24/2022 12:30:00 PM 19.53 67.154 0 17.53 10.21 8.49
5/24/2022 12:45:00 PM 20.07 68.126 0 -3.77 10.16 8.4
5/24/2022 1:00:00 PM 20.34 68.612 0 17.51 10.11 8.33
5/24/2022 1:15:00 PM 20.31 68.558 0 -4.58 10.14 8.39
5/24/2022 1:30:00 PM 20.4 68.72 0 17.5 10.65 8.39
5/24/2022 1:45:00 PM 20.65 69.17 0 17.49 10.09 8.3
5/24/2022 2:00:00 PM 20.73 69.314 0 17.49 10.06 8.32
5/24/2022 2:15:00 PM 20.58 69.044 0 17.5 10.08 8.32
5/24/2022 2:30:00 PM 20.99 69.782 0 17.48 10.07 8.25
5/24/2022 2:45:00 PM 20.72 69.296 0 17.49 11.47 8.31
5/24/2022 3:00:00 PM 20.67 69.206 0 17.49 10.1 8.25
5/24/2022 3:15:00 PM 20.75 69.35 0 7.96 10.09 8.29
5/24/2022 3:30:00 PM 20.92 69.656 0 12.77 10.04 8.25
5/24/2022 3:45:00 PM 20.68 69.224 0 17.49 10.1 8.29
5/24/2022 4:00:00 PM 20.53 68.954 0 14.96 10.1 8.32
5/24/2022 4:15:00 PM 20.09 68.162 0 5.41 10.14 8.41
5/24/2022 4:30:00 PM 19.93 67.874 0 6.93 10.16 8.39
5/24/2022 4:45:00 PM 19.83 67.694 0 17.52 10.13 8.42
5/24/2022 5:00:00 PM 19.92 67.856 0 4.89 10.16 8.38
5/24/2022 5:15:00 PM 19.78 67.604 0 5.68 10.16 8.42
5/24/2022 5:30:00 PM 19.51 67.118 0 17.54 10.18 8.44
5/24/2022 5:45:00 PM 19.18 66.524 0 7.11 10.23 8.48
5/24/2022 6:00:00 PM 19.14 66.452 0 7.16 10.23 8.48
5/24/2022 6:15:00 PM 19.1 66.38 0 5.54 10.23 8.49
5/24/2022 6:30:00 PM 18.93 66.074 0 6.12 10.23 8.5
5/24/2022 6:45:00 PM 18.44 65.192 0 17.57 10.28 8.59
5/24/2022 7:00:00 PM 18.38 65.084 0 4.5 10.27 8.57
5/24/2022 7:15:00 PM 18.09 64.562 0 6.82 10.3 8.66
5/24/2022 7:30:00 PM 17.78 64.004 0 6.4 10.33 8.7
5/24/2022 7:45:00 PM 17.44 63.392 0 6.51 10.36 8.73
5/24/2022 8:00:00 PM 17.11 62.798 0 6.4 10.45 8.77
5/24/2022 8:15:00 PM 16.75 62.15 0 9.87 10.56 8.81
5/24/2022 8:30:00 PM 16.36 61.448 0 9.09 10.57 8.91
5/24/2022 8:45:00 PM 15.93 60.674 0 7.01 10.48 8.98
5/24/2022 9:00:00 PM 15.47 59.846 0 7.41 10.44 9.08
5/24/2022 9:15:00 PM 14.8 58.64 0 7.2 10.43 9.23
5/24/2022 9:30:00 PM 14.43 57.974 0 7.15 10.47 9.3
5/24/2022 9:45:00 PM 14.09 57.362 0 7.25 10.43 9.37
5/24/2022 10:00:00 PM 13.94 57.092 0 7.26 10.36 9.42
5/24/2022 10:15:00 PM 14.01 57.218 0 7.29 10.35 9.39
5/24/2022 10:30:00 PM 14.03 57.254 0 7.27 10.38 9.36
5/24/2022 10:45:00 PM 14.09 57.362 0 7.34 10.38 9.35
5/24/2022 11:00:00 PM 14.17 57.506 0 7.32 10.34 9.33
5/24/2022 11:15:00 PM 14.24 57.632 0 7.3 10.34 9.31
5/24/2022 11:30:00 PM 14.26 57.668 0 7.23 10.39 9.31
5/24/2022 11:45:00 PM 14.21 57.578 0 7.24 10.41 9.33
5/25/2022 12:00:00 AM 14.3 57.74 0 7.34 10.27 9.32
5/25/2022 12:15:00 AM 14.26 57.668 0 7.28 10.35 9.31
5/25/2022 12:30:00 AM 14.19 57.542 0 7.33 10.32 9.35
5/25/2022 12:45:00 AM 14.19 57.542 0 7.32 10.34 9.33
5/25/2022 1:00:00 AM 14.16 57.488 0 7.46 10.24 9.34
5/25/2022 1:15:00 AM 14.12 57.416 0 7.43 10.2 9.35
5/25/2022 1:30:00 AM 14.11 57.398 0 7.48 10.05 9.35
5/25/2022 1:45:00 AM 13.95 57.11 0 7.36 10.33 9.39
5/25/2022 2:00:00 AM 13.88 56.984 0 7.39 10.24 9.41
5/25/2022 2:15:00 AM 13.89 57.002 0 7.4 10.26 9.4
5/25/2022 2:30:00 AM 13.83 56.894 0 7.38 10.36 9.42
5/25/2022 2:45:00 AM 13.81 56.858 0 7.39 10.34 9.43
5/25/2022 3:00:00 AM 13.88 56.984 0 7.41 10.23 9.41
5/25/2022 3:15:00 AM 13.88 56.984 0 7.37 10.36 9.4
5/25/2022 3:30:00 AM 13.89 57.002 0 7.42 10.24 9.4
5/25/2022 3:45:00 AM 13.86 56.948 0 7.39 10.24 9.41
5/25/2022 4:00:00 AM 13.81 56.858 0 7.48 10.15 9.43
5/25/2022 4:15:00 AM 13.8 56.84 0 7.41 10.25 9.43
5/25/2022 4:30:00 AM 13.83 56.894 0 7.36 10.34 9.42
5/25/2022 4:45:00 AM 13.86 56.948 0 7.44 10.23 9.42
5/25/2022 5:00:00 AM 13.84 56.912 0 7.41 10.29 9.42
5/25/2022 5:15:00 AM 13.88 56.984 0 7.43 10.24 9.42
5/25/2022 5:30:00 AM 13.92 57.056 0 7.41 10.26 9.41
5/25/2022 5:45:00 AM 13.85 56.93 0 7.43 10.27 9.43
5/25/2022 6:00:00 AM 13.85 56.93 0 7.42 10.29 9.44
5/25/2022 6:15:00 AM 13.89 57.002 0 7.49 10.24 9.44
5/25/2022 6:30:00 AM 14 57.2 0 7.51 10.15 9.41
5/25/2022 6:45:00 AM 14.02 57.236 0 7.37 10.33 9.4
5/25/2022 7:00:00 AM 14.22 57.596 0 7.52 10.06 9.37
5/25/2022 7:15:00 AM 14.42 57.956 0 7.33 10.34 9.33
5/25/2022 7:30:00 AM 14.82 58.676 0 7.33 10.36 9.25
5/25/2022 7:45:00 AM 15.27 59.486 0 7.24 10.27 9.16
5/25/2022 8:00:00 AM 15.69 60.242 0 7.21 10.3 9.1
5/25/2022 8:15:00 AM 16.03 60.854 0 7.03 10.35 9.05
5/25/2022 8:30:00 AM 16.54 61.772 0 7.01 10.35 8.93
5/25/2022 8:45:00 AM 16.74 62.132 0 6.62 10.33 8.92
5/25/2022 9:00:00 AM 17.15 62.87 0 10.72 10.26 8.86
5/25/2022 9:15:00 AM 17.39 63.302 0 6.5 10.25 8.85
5/25/2022 9:30:00 AM 16.85 62.33 0.382 8.15 4.01 10.07
5/25/2022 9:45:00 AM 16.81 62.258 0.337 8.32 4.04 11.07
5/25/2022 10:00:00 AM 16.95 62.51 0.337 8.36 3.97 11.17
5/25/2022 10:15:00 AM 17.14 62.852 0.337 8.38 3.89 11.24
5/25/2022 10:30:00 AM 17.37 63.266 0.337 8.41 3.95 11.29
5/25/2022 10:45:00 AM 17.61 63.698 0.336 8.44 3.8 11.37
5/25/2022 11:00:00 AM 17.83 64.094 0.336 8.47 3.65 11.46
5/25/2022 11:15:00 AM 18.02 64.436 0.336 8.5 3.81 11.51
5/25/2022 11:30:00 AM 18.18 64.724 0.335 8.52 3.62 11.51
5/25/2022 11:45:00 AM 18.33 64.994 0.335 8.55 3.44 11.54
5/25/2022 12:00:00 PM 18.45 65.21 0.335 8.56 3.29 11.52
5/25/2022 12:15:00 PM 18.77 65.786 0.334 8.59 3.19 11.56
5/25/2022 12:30:00 PM 19.08 66.344 0.334 8.6 3.13 11.54
5/25/2022 12:45:00 PM 19.33 66.794 0.334 8.63 3.07 11.55
5/25/2022 1:00:00 PM 19.59 67.262 0.333 8.64 3.05 11.54
5/25/2022 1:15:00 PM 20.01 68.018 0.334 8.66 2.94 11.51
5/25/2022 1:30:00 PM 20.31 68.558 0.334 8.66 3.02 11.45
5/25/2022 1:45:00 PM 20.6 69.08 0.334 8.67 2.86 11.42
5/25/2022 2:00:00 PM 20.98 69.764 0.334 8.69 2.84 11.41
5/25/2022 2:15:00 PM 21.33 70.394 0.333 8.69 2.8 11.26
5/25/2022 2:30:00 PM 21.68 71.024 0.333 8.69 2.79 11.19
5/25/2022 2:45:00 PM 21.96 71.528 0.333 8.69 2.78 11.11
5/25/2022 3:00:00 PM 22.1 71.78 0.333 8.7 2.84 11.05
5/25/2022 3:15:00 PM 22.25 72.05 0.333 8.7 2.7 10.98
5/25/2022 3:30:00 PM 22.37 72.266 0.333 8.7 2.76 10.87
5/25/2022 3:45:00 PM 22.51 72.518 0.333 8.71 2.91 10.83
5/25/2022 4:00:00 PM 22.52 72.536 0.333 8.71 2.75 10.72
5/25/2022 4:15:00 PM 22.56 72.608 0.332 8.71 2.72 10.64
5/25/2022 4:30:00 PM 22.55 72.59 0.332 8.71 2.72 10.57
5/25/2022 4:45:00 PM 22.47 72.446 0.331 8.71 2.7 10.5
5/25/2022 5:00:00 PM 22.36 72.248 0.331 8.7 2.78 10.42
5/25/2022 5:15:00 PM 22.27 72.086 0.33 8.7 2.9 10.35
5/25/2022 5:30:00 PM 22.1 71.78 0.33 8.7 2.82 10.25
5/25/2022 5:45:00 PM 21.95 71.51 0.329 8.69 2.78 10.15
5/25/2022 6:00:00 PM 21.73 71.114 0.329 8.68 2.91 10.05
5/25/2022 6:15:00 PM 21.58 70.844 0.329 8.68 2.91 10.01
5/25/2022 6:30:00 PM 21.39 70.502 0.329 8.67 2.98 9.91
5/25/2022 6:45:00 PM 21.2 70.16 0.328 8.65 2.83 9.78
5/25/2022 7:00:00 PM 21.04 69.872 0.328 8.64 2.94 9.72
5/25/2022 7:15:00 PM 20.88 69.584 0.328 8.62 2.93 9.6
5/25/2022 7:30:00 PM 20.71 69.278 0.327 8.6 2.83 9.47
5/25/2022 7:45:00 PM 20.53 68.954 0.328 8.57 2.97 9.31
5/25/2022 8:00:00 PM 20.37 68.666 0.328 8.53 2.78 9.14
5/25/2022 8:15:00 PM 20.23 68.414 0.329 8.49 2.86 8.98
5/25/2022 8:30:00 PM 20.1 68.18 0.33 8.44 2.82 8.78
5/25/2022 8:45:00 PM 19.98 67.964 0.331 8.4 2.94 8.61
5/25/2022 9:00:00 PM 19.85 67.73 0.333 8.34 3.12 8.44
5/25/2022 9:15:00 PM 19.73 67.514 0.334 8.28 3.11 8.31
5/25/2022 9:30:00 PM 19.62 67.316 0.334 8.23 3.05 8.2
5/25/2022 9:45:00 PM 19.53 67.154 0.335 8.18 3.13 8.12
5/25/2022 10:00:00 PM 19.43 66.974 0.335 8.14 3.16 8.07
5/25/2022 10:15:00 PM 19.36 66.848 0.335 8.11 3.31 8.02
5/25/2022 10:30:00 PM 19.29 66.722 0.336 8.08 3.2 7.98
5/25/2022 10:45:00 PM 19.21 66.578 0.336 8.05 3.28 7.97
5/25/2022 11:00:00 PM 19.15 66.47 0.336 8.03 3.21 7.96
5/25/2022 11:15:00 PM 19.07 66.326 0.337 8.01 3.27 7.94
5/25/2022 11:30:00 PM 19.02 66.236 0.337 7.99 3.27 7.94
5/25/2022 11:45:00 PM 18.96 66.128 0.338 7.98 3.34 7.95
5/26/2022 12:00:00 AM 18.89 66.002 0.338 7.96 3.22 7.94
5/26/2022 12:15:00 AM 18.84 65.912 0.339 7.95 3.17 7.96
5/26/2022 12:30:00 AM 18.79 65.82201 0.339 7.94 3.2 7.94
5/26/2022 12:45:00 AM 18.74 65.732 0.339 7.93 3.32 7.94
5/26/2022 1:00:00 AM 18.67 65.606 0.34 7.92 3.13 7.94
5/26/2022 1:15:00 AM 18.6 65.48 0.34 7.91 3.43 7.96
5/26/2022 1:30:00 AM 18.54 65.372 0.34 7.9 3.36 7.95
5/26/2022 1:45:00 AM 18.47 65.246 0.34 7.89 3.29 7.98
5/26/2022 2:00:00 AM 18.4 65.12 0.339 7.89 3.18 7.99
5/26/2022 2:15:00 AM 18.32 64.976 0.339 7.88 3.27 8
5/26/2022 2:30:00 AM 18.24 64.832 0.339 7.88 3.33 8.02
5/26/2022 2:45:00 AM 18.16 64.688 0.339 7.87 3.76 8.03
5/26/2022 3:00:00 AM 18.05 64.49 0.339 7.87 3.2 8.05
5/26/2022 3:15:00 AM 17.95 64.31 0.34 7.86 3.27 8.07
5/26/2022 3:30:00 AM 17.83 64.094 0.34 7.86 3.33 8.1
5/26/2022 3:45:00 AM 17.71 63.878 0.34 7.86 3.5 8.12
5/26/2022 4:00:00 AM 17.6 63.68 0.341 7.85 3.43 8.15
5/26/2022 4:15:00 AM 17.48 63.464 0.341 7.85 3.7 8.18
5/26/2022 4:30:00 AM 17.36 63.248 0.342 7.85 3.74 8.19
5/26/2022 4:45:00 AM 17.26 63.068 0.342 7.85 3.97 8.23
5/26/2022 5:00:00 AM 17.13 62.834 0.343 7.85 4.11 8.26
5/26/2022 5:15:00 AM 16.99 62.582 0.343 7.85 4.1 8.3
5/26/2022 5:30:00 AM 16.87 62.366 0.344 7.85 3.99 8.33
5/26/2022 5:45:00 AM 16.74 62.132 0.344 7.85 4.23 8.36
5/26/2022 6:00:00 AM 16.63 61.934 0.345 7.85 4.08 8.41
5/26/2022 6:15:00 AM 16.52 61.736 0.346 7.86 4.18 8.48
5/26/2022 6:30:00 AM 16.44 61.592 0.346 7.87 3.96 8.59
5/26/2022 6:45:00 AM 16.37 61.466 0.347 7.88 3.9 8.71
5/26/2022 7:00:00 AM 16.33 61.394 0.348 7.9 4.1 8.85
5/26/2022 7:15:00 AM 16.3 61.34 0.349 7.93 4.06 9.02
5/26/2022 7:30:00 AM 16.28 61.304 0.349 7.95 4.23 9.18
5/26/2022 7:45:00 AM 16.28 61.304 0.35 7.98 4 9.36
5/26/2022 8:00:00 AM 16.3 61.34 0.351 8.01 3.97 9.53
5/26/2022 8:15:00 AM 16.32 61.376 0.351 8.05 3.89 9.71
5/26/2022 8:30:00 AM 16.38 61.484 0.351 8.09 3.92 9.91
5/26/2022 8:45:00 AM 16.51 61.718 0.351 8.13 3.96 10.09
5/26/2022 9:00:00 AM 16.73 62.114 0.351 8.18 3.89 10.26
5/26/2022 9:15:00 AM 16.84 62.312 0.351 8.22 4.01 10.39
5/26/2022 9:30:00 AM 17.03 62.654 0.351 8.26 3.92 10.49
5/26/2022 9:45:00 AM 17.27 63.086 0.351 8.3 3.96 10.58
5/26/2022 10:00:00 AM 17.6 63.68 0.351 8.33 3.78 10.67
5/26/2022 10:15:00 AM 17.89 64.202 0.351 8.36 4 10.73
5/26/2022 10:30:00 AM 18.18 64.724 0.351 8.38 3.75 10.79
5/26/2022 10:45:00 AM 18.53 65.354 0.351 8.41 3.7 10.83
5/26/2022 11:00:00 AM 18.96 66.128 0.35 8.43 3.96 10.87
5/26/2022 11:15:00 AM 19.39 66.902 0.35 8.46 3.8 10.88
5/26/2022 11:30:00 AM 19.78 67.604 0.35 8.48 4 10.9
5/26/2022 11:45:00 AM 20.25 68.45 0.349 8.5 4.03 10.95
5/26/2022 12:00:00 PM 20.76 69.368 0.349 8.52 4.02 10.93
5/26/2022 12:15:00 PM 21.16 70.088 0.348 8.54 4.04 10.93
5/26/2022 12:30:00 PM 21.56 70.808 0.348 8.56 3.68 10.9
5/26/2022 12:45:00 PM 21.96 71.528 0.347 8.58 3.58 10.86
5/26/2022 1:00:00 PM 22.32 72.176 0.347 8.59 3.63 10.84
5/26/2022 1:15:00 PM 22.59 72.662 0.346 8.6 3.85 10.81
5/26/2022 1:30:00 PM 22.79 73.022 0.346 8.61 3.67 10.77
5/26/2022 1:45:00 PM 23.09 73.562 0.346 8.62 3.27 10.72
5/26/2022 2:00:00 PM 23.36 74.048 0.345 8.63 3.48 10.64
5/26/2022 2:15:00 PM 23.6 74.48 0.345 8.63 4.04 10.64
5/26/2022 2:30:00 PM 23.59 74.462 0.345 8.64 3.3 10.56
5/26/2022 2:45:00 PM 23.72 74.696 0.345 8.64 3.23 10.51
5/26/2022 3:00:00 PM 23.76 74.768 0.344 8.65 2.95 10.44
5/26/2022 3:15:00 PM 23.76 74.768 0.344 8.65 3.05 10.35
5/26/2022 3:30:00 PM 23.92 75.056 0.344 8.65 3.64 10.32
5/26/2022 3:45:00 PM 24.04 75.272 0.344 8.65 3.34 10.24
5/26/2022 4:00:00 PM 23.98 75.164 0.343 8.65 3.33 10.15
5/26/2022 4:15:00 PM 23.97 75.146 0.342 8.66 3.12 10.17
5/26/2022 4:30:00 PM 24.06 75.308 0.342 8.66 2.86 10.08
5/26/2022 4:45:00 PM 24.06 75.308 0.342 8.65 2.81 9.92
5/26/2022 5:00:00 PM 23.99 75.182 0.341 8.65 2.96 9.87
5/26/2022 5:15:00 PM 23.99 75.182 0.341 8.65 2.82 9.84
5/26/2022 5:30:00 PM 23.96 75.128 0.341 8.65 2.92 9.79
5/26/2022 5:45:00 PM 23.81 74.858 0.34 8.65 2.98 9.71
5/26/2022 6:00:00 PM 23.62 74.516 0.34 8.64 2.82 9.63
5/26/2022 6:15:00 PM 23.38 74.084 0.34 8.64 2.77 9.56
5/26/2022 6:30:00 PM 23.15 73.67 0.34 8.63 2.93 9.48
5/26/2022 6:45:00 PM 22.97 73.346 0.34 8.61 2.86 9.39
5/26/2022 7:00:00 PM 22.72 72.896 0.34 8.58 3.43 9.27
5/26/2022 7:15:00 PM 22.5 72.5 0.34 8.57 2.8 9.19
5/26/2022 7:30:00 PM 22.32 72.176 0.34 8.55 2.9 9.12
5/26/2022 7:45:00 PM 22.09 71.762 0.34 8.52 2.89 8.94
5/26/2022 8:00:00 PM 21.85 71.33 0.34 8.47 2.8 8.74
5/26/2022 8:15:00 PM 21.67 71.006 0.341 8.41 2.76 8.49
5/26/2022 8:30:00 PM 21.54 70.772 0.342 8.35 2.9 8.29
5/26/2022 8:45:00 PM 21.4 70.52 0.342 8.3 2.92 8.14
5/26/2022 9:00:00 PM 21.27 70.286 0.342 8.24 2.88 7.98
5/26/2022 9:15:00 PM 21.17 70.106 0.342 8.2 3.02 7.86
5/26/2022 9:30:00 PM 21.1 69.98 0.343 8.15 3.06 7.74
5/26/2022 9:45:00 PM 21.01 69.818 0.343 8.1 2.97 7.66
5/26/2022 10:00:00 PM 20.92 69.656 0.343 8.06 3.01 7.6
5/26/2022 10:15:00 PM 20.84 69.512 0.344 8.04 3.07 7.57
5/26/2022 10:30:00 PM 20.78 69.404 0.344 8.01 2.96 7.53
5/26/2022 10:45:00 PM 20.75 69.35 0.344 7.99 2.97 7.5
5/26/2022 11:00:00 PM 20.68 69.224 0.344 7.97 3.04 7.49
5/26/2022 11:15:00 PM 20.63 69.134 0.345 7.95 3.1 7.48
5/26/2022 11:30:00 PM 20.6 69.08 0.345 7.94 3.13 7.46
5/26/2022 11:45:00 PM 20.55 68.99 0.345 7.93 3.2 7.46
5/27/2022 12:00:00 AM 20.5 68.9 0.346 7.92 3.18 7.46
5/27/2022 12:15:00 AM 20.46 68.828 0.346 7.91 3.05 7.46
5/27/2022 12:30:00 AM 20.4 68.72 0.347 7.9 3.49 7.47
5/27/2022 12:45:00 AM 20.36 68.648 0.347 7.89 3.22 7.47
5/27/2022 1:00:00 AM 20.31 68.558 0.348 7.88 3.23 7.48
5/27/2022 1:15:00 AM 20.27 68.486 0.348 7.87 3.22 7.47
5/27/2022 1:30:00 AM 20.24 68.432 0.349 7.86 3.06 7.48
5/27/2022 1:45:00 AM 20.19 68.342 0.349 7.86 3.44 7.48
5/27/2022 2:00:00 AM 20.16 68.288 0.35 7.86 3.19 7.48
5/27/2022 2:15:00 AM 20.12 68.216 0.35 7.85 3.17 7.49
5/27/2022 2:30:00 AM 20.08 68.144 0.351 7.85 3.21 7.49
5/27/2022 2:45:00 AM 20.03 68.054 0.351 7.85 3.26 7.5
5/27/2022 3:00:00 AM 19.99 67.982 0.351 7.84 3.15 7.51
5/27/2022 3:15:00 AM 19.96 67.92799 0.351 7.83 3.22 7.49
5/27/2022 3:30:00 AM 19.91 67.838 0.351 7.84 3.24 7.52
5/27/2022 3:45:00 AM 19.86 67.748 0.352 7.83 3.36 7.52
5/27/2022 4:00:00 AM 19.81 67.658 0.352 7.83 3.22 7.53
5/27/2022 4:15:00 AM 19.75 67.55 0.352 7.83 3.34 7.56
5/27/2022 4:30:00 AM 19.7 67.46 0.352 7.83 3.45 7.57
5/27/2022 4:45:00 AM 19.65 67.37 0.352 7.83 3.26 7.58
5/27/2022 5:00:00 AM 19.59 67.262 0.353 7.83 3.63 7.6
5/27/2022 5:15:00 AM 19.53 67.154 0.353 7.83 3.72 7.61
5/27/2022 5:30:00 AM 19.46 67.028 0.354 7.82 3.73 7.62
5/27/2022 5:45:00 AM 19.4 66.92 0.354 7.82 3.65 7.65
5/27/2022 6:00:00 AM 19.34 66.812 0.354 7.83 3.63 7.66
5/27/2022 6:15:00 AM 19.28 66.704 0.355 7.83 3.66 7.73
5/27/2022 6:30:00 AM 19.23 66.614 0.355 7.84 3.74 7.79
5/27/2022 6:45:00 AM 19.2 66.56 0.356 7.85 3.71 7.84
5/27/2022 7:00:00 AM 19.17 66.506 0.356 7.85 3.71 7.92
5/27/2022 7:15:00 AM 19.14 66.452 0.357 7.87 3.64 8.04
5/27/2022 7:30:00 AM 19.13 66.434 0.357 7.88 3.72 8.1
5/27/2022 7:45:00 AM 19.1 66.38 0.357 7.89 3.67 8.14
5/27/2022 8:00:00 AM 19.08 66.344 0.358 7.9 3.81 8.24
5/27/2022 8:15:00 AM 19.08 66.344 0.358 7.92 3.86 8.36
5/27/2022 8:30:00 AM 19.07 66.326 0.359 7.94 3.73 8.45
5/27/2022 8:45:00 AM 19.06 66.308 0.36 7.95 3.64 8.51
5/27/2022 9:00:00 AM 19.09 66.362 0.36 7.98 3.47 8.68
5/27/2022 9:15:00 AM 19.12 66.416 0.361 8 3.43 8.77
5/27/2022 9:30:00 AM 19.11 66.398 0.362 8.01 3.56 8.84
5/27/2022 9:45:00 AM 19.16 66.488 0.362 8.05 4.76 9.02
5/27/2022 10:00:00 AM 19.23 66.614 0.362 8.08 3.64 9.15
5/27/2022 10:15:00 AM 19.35 66.83 0.362 8.11 3.74 9.23
5/27/2022 10:30:00 AM 19.43 66.974 0.362 8.13 5.21 9.35
5/27/2022 10:45:00 AM 19.57 67.226 0.362 8.17 3.54 9.55
5/27/2022 11:00:00 AM 19.66 67.388 0.362 8.22 3.63 9.74
5/27/2022 11:15:00 AM 19.74 67.532 0.362 8.25 3.82 9.83
5/27/2022 11:30:00 AM 19.78 67.604 0.361 8.28 3.46 9.88
5/27/2022 11:45:00 AM 19.9 67.82 0.361 8.31 3.52 9.95
5/27/2022 12:00:00 PM 19.92 67.856 0.361 8.31 3.35 9.91
5/27/2022 12:15:00 PM 19.93 67.874 0.361 8.31 3.56 9.88
5/27/2022 12:30:00 PM 19.99 67.982 0.361 8.33 3.33 9.91
5/27/2022 12:45:00 PM 20.05 68.09 0.36 8.35 3.33 9.94
5/27/2022 1:00:00 PM 20.03 68.054 0.36 8.35 3.37 9.9
5/27/2022 1:15:00 PM 20 68 0.357 8.36 3.45 9.88
5/27/2022 1:30:00 PM 19.96 67.92799 0.358 8.35 3.32 9.79
5/27/2022 1:45:00 PM 19.93 67.874 0.357 8.34 3.35 9.7
5/27/2022 2:00:00 PM 19.9 67.82 0.356 8.32 3.26 9.61
5/27/2022 2:15:00 PM 19.84 67.712 0.355 8.29 3.1 9.53
5/27/2022 2:30:00 PM 19.77 67.586 0.355 8.29 3.26 9.47
5/27/2022 2:45:00 PM 19.71 67.478 0.347 8.29 3.92 9.35
5/27/2022 3:00:00 PM 19.74 67.532 0.348 8.28 3.55 9.33
5/27/2022 3:15:00 PM 19.87 67.766 0.345 8.26 4.29 9.25
5/27/2022 3:30:00 PM 19.96 67.92799 0.343 8.26 5.99 9.36
5/27/2022 3:45:00 PM 20.12 68.216 0.343 8.31 5.98 9.62
5/27/2022 4:00:00 PM 20.31 68.558 0.347 8.37 8.2 9.76
5/27/2022 4:15:00 PM 20.51 68.918 0.348 8.39 6.11 9.8
5/27/2022 4:30:00 PM 20.63 69.134 0.347 8.41 5.35 9.85
5/27/2022 4:45:00 PM 20.71 69.278 0.346 8.44 4.57 9.89
5/27/2022 5:00:00 PM 20.82 69.476 0.349 8.46 4.31 9.86
5/27/2022 5:15:00 PM 20.84 69.512 0.352 8.46 3.71 9.77
5/27/2022 5:30:00 PM 20.82 69.476 0.353 8.45 3.53 9.69
5/27/2022 5:45:00 PM 20.8 69.44 0.351 8.44 4.19 9.58
5/27/2022 6:00:00 PM 20.75 69.35 0.35 8.44 8.11 9.52
5/27/2022 6:15:00 PM 20.7 69.26 0.348 8.43 19.11 9.21
5/27/2022 6:30:00 PM 20.6 69.08 0.35 8.35 35.65 8.91
5/27/2022 6:45:00 PM 20.69 69.242 0.36 8.27 40.89 8.77
5/27/2022 7:00:00 PM 20.78 69.404 0.35 8.2 44.84 8.61
5/27/2022 7:15:00 PM 20.62 69.116 0.321 8.12 72.13 8.47
5/27/2022 7:30:00 PM 20.32 68.576 0.297 8.05 98.49 8.43
5/27/2022 7:45:00 PM 20.12 68.216 0.286 8 97.93 8.43
5/27/2022 8:00:00 PM 19.94 67.892 0.277 7.98 92.03 8.44
5/27/2022 8:15:00 PM 19.77 67.586 0.271 7.96 92.02 8.46
5/27/2022 8:30:00 PM 19.59 67.262 0.268 7.95 91.9 8.48
5/27/2022 8:45:00 PM 19.44 66.992 0.266 7.94 94.46 8.49
5/27/2022 9:00:00 PM 19.3 66.74 0.265 7.93 96.96 8.5
5/27/2022 9:15:00 PM 19.18 66.524 0.265 7.93 97.97 8.5
5/27/2022 9:30:00 PM 19.08 66.344 0.263 7.92 97.07 8.52
5/27/2022 9:45:00 PM 18.98 66.164 0.262 7.92 92.36 8.54
5/27/2022 10:00:00 PM 18.87 65.966 0.261 7.91 90.96 8.55
5/27/2022 10:15:00 PM 18.78 65.804 0.26 7.9 87.85 8.56
5/27/2022 10:30:00 PM 18.7 65.66 0.26 7.91 81.95 8.56
5/27/2022 10:45:00 PM 18.61 65.498 0.26 7.9 79.4 8.57
5/27/2022 11:00:00 PM 18.52 65.336 0.261 7.9 75.53 8.58
5/27/2022 11:15:00 PM 18.42 65.156 0.262 7.9 67.84 8.6
5/27/2022 11:30:00 PM 18.34 65.012 0.263 7.9 63.31 8.61
5/27/2022 11:45:00 PM 18.27 64.886 0.265 7.9 59.94 8.62
5/28/2022 12:00:00 AM 18.15 64.67 0.262 7.9 55.68 8.69
5/28/2022 12:15:00 AM 18.09 64.562 0.263 7.9 52.74 8.69
5/28/2022 12:30:00 AM 18.05 64.49 0.265 7.9 52.67 8.67
5/28/2022 12:45:00 AM 18 64.4 0.267 7.9 47.8 8.67
5/28/2022 1:00:00 AM 17.94 64.292 0.269 7.9 46.07 8.67
5/28/2022 1:15:00 AM 17.87 64.166 0.27 7.9 43.68 8.69
5/28/2022 1:30:00 AM 17.81 64.058 0.27 7.89 33.04 8.7
5/28/2022 1:45:00 AM 17.75 63.95 0.271 7.89 42.95 8.71
5/28/2022 2:00:00 AM 17.7 63.86 0.272 7.89 40.77 8.73
5/28/2022 2:15:00 AM 17.64 63.752 0.271 7.89 40.51 8.74
5/28/2022 2:30:00 AM 17.57 63.626 0.27 7.89 39.12 8.76
5/28/2022 2:45:00 AM 17.5 63.5 0.269 7.9 34.8 8.8
5/28/2022 3:00:00 AM 17.45 63.41 0.27 7.89 39.77 8.79
5/28/2022 3:15:00 AM 17.4 63.32 0.271 7.89 36.86 8.79
5/28/2022 3:30:00 AM 17.36 63.248 0.273 7.89 30.88 8.78
5/28/2022 3:45:00 AM 17.29 63.122 0.275 7.89 30.42 8.79
5/28/2022 4:00:00 AM 17.24 63.032 0.277 7.89 35.29 8.81
5/28/2022 4:15:00 AM 17.18 62.924 0.279 7.89 35.97 8.83
5/28/2022 4:30:00 AM 17.13 62.834 0.279 7.89 35.46 8.85
5/28/2022 4:45:00 AM 17.08 62.744 0.278 7.9 36.08 8.87
5/28/2022 5:00:00 AM 16.99 62.582 0.28 7.89 34.18 8.9
5/28/2022 5:15:00 AM 16.91 62.438 0.279 7.89 31.57 8.93
5/28/2022 5:30:00 AM 16.83 62.294 0.278 7.89 34.37 8.95
5/28/2022 5:45:00 AM 16.75 62.15 0.278 7.9 35.73 8.98
5/28/2022 6:00:00 AM 16.65 61.97 0.276 7.9 46.38 9.02
5/28/2022 6:15:00 AM 16.55 61.79 0.272 7.9 53.91 9.06
5/28/2022 6:30:00 AM 16.45 61.61 0.266 7.9 57.01 9.1
5/28/2022 6:45:00 AM 16.37 61.466 0.26 7.9 59.52 9.15
5/28/2022 7:00:00 AM 16.29 61.322 0.256 7.9 59.61 9.17
5/28/2022 7:15:00 AM 16.22 61.196 0.254 7.89 60.13 9.21
5/28/2022 7:30:00 AM 16.17 61.106 0.252 7.9 61.37 9.24
5/28/2022 7:45:00 AM 16.14 61.052 0.25 7.91 52.7 9.26
5/28/2022 8:00:00 AM 16.16 61.088 0.249 7.91 60.84 9.28
5/28/2022 8:15:00 AM 16.25 61.25 0.249 7.92 60.76 9.3
5/28/2022 8:30:00 AM 16.31 61.358 0.249 7.93 61.01 9.31
5/28/2022 8:45:00 AM 16.39 61.502 0.249 7.94 57.88 9.32
5/28/2022 9:00:00 AM 16.42 61.556 0.249 7.94 55.04 9.31
5/28/2022 9:15:00 AM 16.45 61.61 0.248 7.95 53.68 9.3
5/28/2022 9:30:00 AM 16.47 61.646 0.248 7.95 51.51 9.3
5/28/2022 9:45:00 AM 16.48 61.664 0.247 7.95 47.75 9.29
5/28/2022 10:00:00 AM 16.5 61.7 0.247 7.95 45.73 9.29
5/28/2022 10:15:00 AM 16.52 61.736 0.247 7.96 42.79 9.29
5/28/2022 10:30:00 AM 16.57 61.826 0.248 7.97 39.65 9.3
5/28/2022 10:45:00 AM 16.63 61.934 0.249 7.98 37.47 9.32
5/28/2022 11:00:00 AM 16.74 62.132 0.25 8 35.06 9.38
5/28/2022 11:15:00 AM 16.78 62.204 0.251 8.01 33.06 9.4
5/28/2022 11:30:00 AM 16.8 62.24 0.252 8.02 31.86 9.4
5/28/2022 11:45:00 AM 16.86 62.348 0.253 8.04 29.37 9.44
5/28/2022 12:00:00 PM 16.92 62.456 0.254 8.05 27.95 9.47
5/28/2022 12:15:00 PM 16.94 62.492 0.254 8.06 26.66 9.46
5/28/2022 12:30:00 PM 16.99 62.582 0.254 8.07 25.99 9.49
5/28/2022 12:45:00 PM 17.14 62.852 0.254 8.1 24.95 9.54
5/28/2022 1:00:00 PM 17.27 63.086 0.254 8.13 24.47 9.57
5/28/2022 1:15:00 PM 17.31 63.158 0.254 8.13 22.55 9.56
5/28/2022 1:30:00 PM 17.37 63.266 0.255 8.15 22.1 9.57
5/28/2022 1:45:00 PM 17.48 63.464 0.255 8.16 21.11 9.6
5/28/2022 2:00:00 PM 17.68 63.824 0.255 8.2 20.92 9.65
5/28/2022 2:15:00 PM 17.76 63.968 0.256 8.21 20.11 9.63
5/28/2022 2:30:00 PM 17.73 63.914 0.256 8.2 19.17 9.56
5/28/2022 2:45:00 PM 17.79 64.022 0.257 8.22 18.6 9.57
5/28/2022 3:00:00 PM 17.88 64.184 0.257 8.23 17.81 9.58
5/28/2022 3:15:00 PM 18 64.4 0.258 8.25 17.2 9.58
5/28/2022 3:30:00 PM 18.06 64.508 0.259 8.26 16.66 9.58
5/28/2022 3:45:00 PM 18.14 64.652 0.259 8.27 16.38 9.58
5/28/2022 4:00:00 PM 18.24 64.832 0.26 8.29 15.79 9.6
5/28/2022 4:15:00 PM 18.29 64.922 0.261 8.29 15.23 9.55
5/28/2022 4:30:00 PM 18.32 64.976 0.263 8.29 14.34 9.51
5/28/2022 4:45:00 PM 18.38 65.084 0.263 8.28 14.19 9.47
5/28/2022 5:00:00 PM 18.51 65.318 0.264 8.3 13.51 9.51
5/28/2022 5:15:00 PM 18.58 65.444 0.264 8.31 13.29 9.49
5/28/2022 5:30:00 PM 18.61 65.498 0.265 8.31 13.15 9.45
5/28/2022 5:45:00 PM 18.63 65.534 0.265 8.3 12.68 9.41
5/28/2022 6:00:00 PM 18.72 65.696 0.265 8.31 12.71 9.44
5/28/2022 6:15:00 PM 18.74 65.732 0.266 8.31 12.34 9.45
5/28/2022 6:30:00 PM 18.73 65.714 0.266 8.3 12.23 9.42
5/28/2022 6:45:00 PM 18.71 65.67799 0.266 8.29 11.97 9.38
5/28/2022 7:00:00 PM 18.69 65.642 0.267 8.29 11.69 9.34
5/28/2022 7:15:00 PM 18.63 65.534 0.267 8.26 11.77 9.27
5/28/2022 7:30:00 PM 18.54 65.372 0.267 8.23 11.14 9.18
5/28/2022 7:45:00 PM 18.45 65.21 0.268 8.2 11.47 9.1
5/28/2022 8:00:00 PM 18.39 65.102 0.268 8.16 11.08 9.05
5/28/2022 8:15:00 PM 18.33 64.994 0.268 8.14 10.87 8.99
5/28/2022 8:30:00 PM 18.26 64.868 0.269 8.11 10.78 8.95
5/28/2022 8:45:00 PM 18.2 64.76 0.269 8.08 10.89 8.91
5/28/2022 9:00:00 PM 18.12 64.616 0.27 8.06 10.74 8.88
5/28/2022 9:15:00 PM 18.03 64.454 0.27 8.04 10.98 8.86
5/28/2022 9:30:00 PM 17.93 64.274 0.271 8.01 11.15 8.85
5/28/2022 9:45:00 PM 17.81 64.058 0.271 8 10.77 8.86
5/28/2022 10:00:00 PM 17.69 63.842 0.273 7.98 10.53 8.86
5/28/2022 10:15:00 PM 17.57 63.626 0.273 7.96 10.73 8.87
5/28/2022 10:30:00 PM 17.42 63.356 0.274 7.95 10.86 8.88
5/28/2022 10:45:00 PM 17.28 63.104 0.274 7.94 10.31 8.89
5/28/2022 11:00:00 PM 17.14 62.852 0.274 7.93 10.43 8.91
5/28/2022 11:15:00 PM 17 62.6 0.274 7.92 10.69 8.94
5/28/2022 11:30:00 PM 16.86 62.348 0.274 7.92 10.46 8.96
5/28/2022 11:45:00 PM 16.73 62.114 0.275 7.91 10.49 8.98
5/29/2022 12:00:00 AM 16.59 61.862 0.275 7.9 10.08 8.99
5/29/2022 12:15:00 AM 16.46 61.628 0.275 7.9 10.18 9.02
5/29/2022 12:30:00 AM 16.35 61.43 0.276 7.89 10.64 9.05
5/29/2022 12:45:00 AM 16.22 61.196 0.276 7.89 10.33 9.07
5/29/2022 1:00:00 AM 16.11 60.998 0.276 7.89 10.22 9.1
5/29/2022 1:15:00 AM 15.99 60.782 0.277 7.88 10.36 9.11
5/29/2022 1:30:00 AM 15.87 60.566 0.277 7.88 10.17 9.14
5/29/2022 1:45:00 AM 15.78 60.404 0.277 7.88 10.19 9.16
5/29/2022 2:00:00 AM 15.71 60.278 0.278 7.88 9.83 9.19
5/29/2022 2:15:00 AM 15.61 60.098 0.278 7.87 10.73 9.21
5/29/2022 2:30:00 AM 15.51 59.918 0.279 7.87 9.68 9.23
5/29/2022 2:45:00 AM 15.42 59.756 0.279 7.87 9.82 9.26
5/29/2022 3:00:00 AM 15.32 59.576 0.28 7.87 9.63 9.27
5/29/2022 3:15:00 AM 15.19 59.342 0.28 7.82 9.85 9.29
5/29/2022 3:30:00 AM 15.09 59.162 0.281 7.83 9.8 9.32
5/29/2022 3:45:00 AM 15 59 0.281 7.85 10.17 9.34
5/29/2022 4:00:00 AM 14.92 58.856 0.281 7.86 9.66 9.36
5/29/2022 4:15:00 AM 14.86 58.748 0.282 7.86 9.54 9.38
5/29/2022 4:30:00 AM 14.8 58.64 0.283 7.86 15.98 9.39
5/29/2022 4:45:00 AM 14.72 58.496 0.284 7.87 9.31 9.41
5/29/2022 5:00:00 AM 14.66 58.388 0.285 7.87 9.51 9.42
5/29/2022 5:15:00 AM 14.6 58.28 0.286 7.87 9.13 9.43
5/29/2022 5:30:00 AM 14.53 58.154 0.286 7.87 9.12 9.44
5/29/2022 5:45:00 AM 14.46 58.028 0.286 7.87 8.42 9.47
5/29/2022 6:00:00 AM 14.39 57.902 0.286 7.88 8.79 9.51
5/29/2022 6:15:00 AM 14.32 57.776 0.287 7.87 8.81 9.57
5/29/2022 6:30:00 AM 14.27 57.686 0.287 7.89 8.67 9.65
5/29/2022 6:45:00 AM 14.23 57.614 0.288 7.9 8.67 9.73
5/29/2022 7:00:00 AM 14.21 57.578 0.288 7.93 8.45 9.83
5/29/2022 7:15:00 AM 14.19 57.542 0.288 7.95 7.89 9.94
5/29/2022 7:30:00 AM 14.22 57.596 0.289 7.98 7.81 10.06
5/29/2022 7:45:00 AM 14.22 57.596 0.289 8 7.54 10.16
5/29/2022 8:00:00 AM 14.21 57.578 0.288 8.03 7.4 10.23
5/29/2022 8:15:00 AM 14.24 57.632 0.288 8.05 7.2 10.27
5/29/2022 8:30:00 AM 14.3 57.74 0.288 8.07 6.93 10.32
5/29/2022 8:45:00 AM 14.44 57.992 0.288 8.09 7.06 10.38
5/29/2022 9:00:00 AM 14.66 58.388 0.288 8.13 6.62 10.49
5/29/2022 9:15:00 AM 14.9 58.82 0.288 8.16 6.6 10.55
5/29/2022 9:30:00 AM 15.16 59.288 0.288 8.2 6.63 10.55
5/29/2022 9:45:00 AM 15.47 59.846 0.288 8.22 7.51 10.59
5/29/2022 10:00:00 AM 15.8 60.44 0.288 8.26 6.4 10.61
5/29/2022 10:15:00 AM 15.92 60.656 0.288 8.29 19.58 10.62
5/29/2022 10:30:00 AM 16.33 61.394 0.288 8.32 12.05 10.63
5/29/2022 10:45:00 AM 16.56 61.808 0.288 8.35 7.24 10.65
5/29/2022 11:00:00 AM 16.7 62.06 0.288 8.37 6.49 10.63
5/29/2022 11:15:00 AM 17.09 62.762 0.288 8.39 6.67 10.61
5/29/2022 11:30:00 AM 17.44 63.392 0.288 8.41 5.66 10.59
5/29/2022 11:45:00 AM 17.77 63.986 0.289 8.44 5.39 10.6
5/29/2022 12:00:00 PM 18.25 64.85 0.289 8.47 5.33 10.6
5/29/2022 12:15:00 PM 18.74 65.732 0.289 8.5 5.21 10.59
5/29/2022 12:30:00 PM 19.18 66.524 0.289 8.53 5.04 10.57
5/29/2022 12:45:00 PM 19.61 67.298 0.289 8.56 4.97 10.53
5/29/2022 1:00:00 PM 19.81 67.658 0.289 8.57 5.32 10.46
5/29/2022 1:15:00 PM 20.06 68.108 0.289 8.6 4.98 10.43
5/29/2022 1:30:00 PM 20.4 68.72 0.289 8.61 5.12 10.41
5/29/2022 1:45:00 PM 20.65 69.17 0.289 8.61 4.92 10.35
5/29/2022 2:00:00 PM 20.91 69.638 0.289 8.63 4.86 10.33
5/29/2022 2:15:00 PM 21.15 70.07 0.288 8.65 4.98 10.28
5/29/2022 2:30:00 PM 21.5 70.7 0.289 8.67 4.67 10.24
5/29/2022 2:45:00 PM 21.8 71.24 0.289 8.68 4.81 10.18
5/29/2022 3:00:00 PM 22.07 71.726 0.289 8.69 4.88 10.09
5/29/2022 3:15:00 PM 22.3 72.14 0.29 8.71 4.77 10.02
5/29/2022 3:30:00 PM 22.54 72.57201 0.291 8.71 4.68 9.94
5/29/2022 3:45:00 PM 22.71 72.878 0.291 8.72 4.73 9.88
5/29/2022 4:00:00 PM 22.85 73.13 0.291 8.72 4.57 9.81
5/29/2022 4:15:00 PM 22.97 73.346 0.291 8.72 4.61 9.73
5/29/2022 4:30:00 PM 23.04 73.472 0.291 8.72 4.65 9.64
5/29/2022 4:45:00 PM 23.12 73.616 0.291 8.71 4.53 9.54
5/29/2022 5:00:00 PM 23.14 73.652 0.291 8.71 4.58 9.45
5/29/2022 5:15:00 PM 23.16 73.688 0.291 8.69 4.64 9.36
5/29/2022 5:30:00 PM 23.14 73.652 0.291 8.68 4.58 9.26
5/29/2022 5:45:00 PM 23.11 73.598 0.291 8.67 4.54 9.17
5/29/2022 6:00:00 PM 23.09 73.562 0.292 8.65 5.44 9.08
5/29/2022 6:15:00 PM 23.07 73.526 0.292 8.63 4.58 8.99
5/29/2022 6:30:00 PM 23.05 73.49 0.292 8.62 4.64 8.91
5/29/2022 6:45:00 PM 23.03 73.454 0.293 8.6 4.43 8.83
5/29/2022 7:00:00 PM 22.97 73.346 0.293 8.56 4.53 8.74
5/29/2022 7:15:00 PM 22.92 73.256 0.294 8.54 4.55 8.64
5/29/2022 7:30:00 PM 22.8 73.04 0.294 8.49 4.53 8.52
5/29/2022 7:45:00 PM 22.66 72.788 0.295 8.44 4.46 8.37
5/29/2022 8:00:00 PM 22.51 72.518 0.295 8.38 4.4 8.27
5/29/2022 8:15:00 PM 22.37 72.266 0.296 8.33 4.39 8.18
5/29/2022 8:30:00 PM 22.23 72.014 0.296 8.28 4.52 8.09
5/29/2022 8:45:00 PM 22.09 71.762 0.297 8.22 4.51 8.02
5/29/2022 9:00:00 PM 21.96 71.528 0.298 8.18 4.54 7.95
5/29/2022 9:15:00 PM 21.83 71.294 0.298 8.13 4.48 7.92
5/29/2022 9:30:00 PM 21.69 71.042 0.299 8.1 4.78 7.92
5/29/2022 9:45:00 PM 21.55 70.79 0.299 8.06 4.64 7.91
5/29/2022 10:00:00 PM 21.4 70.52 0.3 8.04 4.6 7.92
5/29/2022 10:15:00 PM 21.25 70.25 0.3 8.01 4.8 7.91
5/29/2022 10:30:00 PM 21.08 69.944 0.301 7.99 4.85 7.94
5/29/2022 10:45:00 PM 20.9 69.62 0.301 7.97 4.78 7.96
5/29/2022 11:00:00 PM 20.73 69.314 0.302 7.95 4.74 7.98
5/29/2022 11:15:00 PM 20.55 68.99 0.302 7.94 4.78 8
5/29/2022 11:30:00 PM 20.37 68.666 0.303 7.92 4.9 8.03
5/29/2022 11:45:00 PM 20.19 68.342 0.304 7.91 4.83 8.05
5/30/2022 12:00:00 AM 20.01 68.018 0.305 7.9 4.95 8.08
5/30/2022 12:15:00 AM 19.85 67.73 0.306 7.89 5.01 8.1
5/30/2022 12:30:00 AM 19.68 67.424 0.307 7.87 4.95 8.13
5/30/2022 12:45:00 AM 19.49 67.082 0.308 7.87 5.13 8.16
5/30/2022 1:00:00 AM 19.33 66.794 0.308 7.86 5.17 8.18
5/30/2022 1:15:00 AM 19.17 66.506 0.309 7.86 4.95 8.22
5/30/2022 1:30:00 AM 19.01 66.218 0.309 7.85 5.34 8.25
5/30/2022 1:45:00 AM 18.86 65.948 0.309 7.85 5.15 8.28
5/30/2022 2:00:00 AM 18.72 65.696 0.309 7.85 5.09 8.3
5/30/2022 2:15:00 AM 18.57 65.426 0.309 7.85 4.98 8.32
5/30/2022 2:30:00 AM 18.42 65.156 0.309 7.84 5.34 8.36
5/30/2022 2:45:00 AM 18.28 64.904 0.31 7.84 5.36 8.39
5/30/2022 3:00:00 AM 18.15 64.67 0.31 7.84 5.29 8.42
5/30/2022 3:15:00 AM 18.03 64.454 0.31 7.83 5.42 8.44
5/30/2022 3:30:00 AM 17.89 64.202 0.311 7.83 5.42 8.47
5/30/2022 3:45:00 AM 17.76 63.968 0.311 7.83 5.25 8.5
5/30/2022 4:00:00 AM 17.62 63.716 0.311 7.83 5.21 8.53
5/30/2022 4:15:00 AM 17.49 63.482 0.312 7.83 5.47 8.57
5/30/2022 4:30:00 AM 17.37 63.266 0.312 7.83 5.5 8.59
5/30/2022 4:45:00 AM 17.26 63.068 0.312 7.83 5.3 8.61
5/30/2022 5:00:00 AM 17.14 62.852 0.313 7.83 5.13 8.64
5/30/2022 5:15:00 AM 17.01 62.618 0.313 7.82 5.56 8.67
5/30/2022 5:30:00 AM 16.9 62.42 0.313 7.82 5.45 8.7
5/30/2022 5:45:00 AM 16.79 62.222 0.314 7.83 5.7 8.73
5/30/2022 6:00:00 AM 16.69 62.042 0.314 7.83 5.52 8.78
5/30/2022 6:15:00 AM 16.6 61.88 0.314 7.84 5.51 8.86
5/30/2022 6:30:00 AM 16.52 61.736 0.314 7.85 5.3 8.97
5/30/2022 6:45:00 AM 16.47 61.646 0.314 7.87 5.52 9.1
5/30/2022 7:00:00 AM 16.44 61.592 0.314 7.89 5.33 9.23
5/30/2022 7:15:00 AM 16.41 61.538 0.314 7.91 5.26 9.38
5/30/2022 7:30:00 AM 16.42 61.556 0.314 7.94 5.15 9.52
5/30/2022 7:45:00 AM 16.46 61.628 0.314 7.97 5.08 9.65
5/30/2022 8:00:00 AM 16.57 61.826 0.314 8.01 5.01 9.82
5/30/2022 8:15:00 AM 16.71 62.078 0.314 8.05 4.98 9.99
5/30/2022 8:30:00 AM 16.83 62.294 0.315 8.1 4.85 10.17
5/30/2022 8:45:00 AM 16.88 62.384 0.315 8.14 4.85 10.24
5/30/2022 9:00:00 AM 16.96 62.528 0.315 8.17 4.51 10.28
5/30/2022 9:15:00 AM 17.09 62.762 0.316 8.2 4.25 10.36
5/30/2022 9:30:00 AM 17.33 63.194 0.316 8.24 4.32 10.45
5/30/2022 9:45:00 AM 17.49 63.482 0.316 8.26 4.24 10.5
5/30/2022 10:00:00 AM 17.78 64.004 0.316 8.28 3.98 10.54
5/30/2022 10:15:00 AM 18.1 64.58 0.316 8.32 4.1 10.6
5/30/2022 10:30:00 AM 18.48 65.264 0.316 8.37 3.99 10.69
5/30/2022 10:45:00 AM 18.92 66.056 0.315 8.41 3.9 10.74
5/30/2022 11:00:00 AM 19.37 66.866 0.315 8.45 3.81 10.78
5/30/2022 11:15:00 AM 19.76 67.568 0.315 8.48 3.79 10.82
5/30/2022 11:30:00 AM 20.17 68.306 0.315 8.51 3.81 10.85
5/30/2022 11:45:00 AM 20.56 69.008 0.315 8.55 3.49 10.84
5/30/2022 12:00:00 PM 20.97 69.746 0.314 8.57 3.6 10.87
5/30/2022 12:15:00 PM 21.34 70.412 0.314 8.6 3.61 10.85
5/30/2022 12:30:00 PM 21.7 71.06 0.314 8.62 3.54 10.84
5/30/2022 12:45:00 PM 22.08 71.744 0.313 8.64 3.53 10.79
5/30/2022 1:00:00 PM 22.46 72.42799 0.313 8.67 3.51 10.77
5/30/2022 1:15:00 PM 22.8 73.04 0.313 8.68 3.41 10.73
5/30/2022 1:30:00 PM 23.17 73.706 0.313 8.7 3.4 10.68
5/30/2022 1:45:00 PM 23.47 74.246 0.313 8.72 3.52 10.61
5/30/2022 2:00:00 PM 23.79 74.82201 0.313 8.73 3.5 10.54
5/30/2022 2:15:00 PM 24.09 75.362 0.312 8.75 3.42 10.47
5/30/2022 2:30:00 PM 24.37 75.866 0.312 8.76 3.4 10.4
5/30/2022 2:45:00 PM 24.61 76.298 0.312 8.77 3.3 10.3
5/30/2022 3:00:00 PM 24.84 76.712 0.311 8.78 3.42 10.22
5/30/2022 3:15:00 PM 25.03 77.054 0.311 8.79 3.34 10.14
5/30/2022 3:30:00 PM 25.18 77.324 0.311 8.8 3.4 10.04
5/30/2022 3:45:00 PM 25.3 77.54 0.311 8.8 4.93 9.95
5/30/2022 4:00:00 PM 25.41 77.738 0.311 8.8 3.25 9.85
5/30/2022 4:15:00 PM 25.48 77.864 0.311 8.79 3.99 9.74
5/30/2022 4:30:00 PM 25.55 77.99 0.31 8.79 3.24 9.64
5/30/2022 4:45:00 PM 25.58 78.044 0.311 8.78 3.18 9.52
5/30/2022 5:00:00 PM 25.58 78.044 0.311 8.78 3.34 9.43
5/30/2022 5:15:00 PM 25.54 77.972 0.311 8.77 3.29 9.32
5/30/2022 5:30:00 PM 25.51 77.918 0.311 8.76 3.49 9.21
5/30/2022 5:45:00 PM 25.44 77.792 0.311 8.74 3.3 9.1
5/30/2022 6:00:00 PM 25.38 77.684 0.311 8.73 3.25 8.97
5/30/2022 6:15:00 PM 25.34 77.612 0.312 8.71 3.23 8.87
5/30/2022 6:30:00 PM 25.29 77.522 0.312 8.69 3.27 8.75
5/30/2022 6:45:00 PM 25.26 77.468 0.312 8.67 3.35 8.66
5/30/2022 7:00:00 PM 25.22 77.396 0.313 8.64 3.16 8.53
5/30/2022 7:15:00 PM 25.18 77.324 0.313 8.61 3.3 8.4
5/30/2022 7:30:00 PM 25.11 77.198 0.314 8.57 3.4 8.25
5/30/2022 7:45:00 PM 25 77 0.315 8.52 3.27 8.09
5/30/2022 8:00:00 PM 24.88 76.784 0.315 8.46 3.36 7.92
5/30/2022 8:15:00 PM 24.76 76.568 0.316 8.4 3.29 7.77
5/30/2022 8:30:00 PM 24.64 76.352 0.317 8.34 3.37 7.64
5/30/2022 8:45:00 PM 24.51 76.118 0.317 8.27 3.43 7.52
5/30/2022 9:00:00 PM 24.38 75.884 0.318 8.21 3.52 7.42
5/30/2022 9:15:00 PM 24.25 75.65 0.319 8.15 3.43 7.34
5/30/2022 9:30:00 PM 24.13 75.434 0.319 8.1 3.49 7.3
5/30/2022 9:45:00 PM 24 75.2 0.32 8.06 3.47 7.26
5/30/2022 10:00:00 PM 23.87 74.966 0.32 8.03 3.57 7.25
5/30/2022 10:15:00 PM 23.76 74.768 0.321 8 3.65 7.26
5/30/2022 10:30:00 PM 23.64 74.552 0.321 7.98 3.69 7.26
5/30/2022 10:45:00 PM 23.51 74.318 0.322 7.96 3.74 7.25
5/30/2022 11:00:00 PM 23.37 74.066 0.322 7.94 3.55 7.27
5/30/2022 11:15:00 PM 23.24 73.832 0.322 7.92 3.68 7.29
5/30/2022 11:30:00 PM 23.09 73.562 0.323 7.9 3.62 7.3
5/30/2022 11:45:00 PM 22.94 73.292 0.323 7.89 3.74 7.33
5/31/2022 12:00:00 AM 22.79 73.022 0.324 7.87 3.64 7.34
5/31/2022 12:15:00 AM 22.63 72.734 0.325 7.86 3.8 7.37
5/31/2022 12:30:00 AM 22.47 72.446 0.325 7.85 3.83 7.38
5/31/2022 12:45:00 AM 22.3 72.14 0.326 7.84 3.78 7.42
5/31/2022 1:00:00 AM 22.14 71.852 0.326 7.83 3.76 7.45
5/31/2022 1:15:00 AM 21.98 71.564 0.327 7.83 3.8 7.46
5/31/2022 1:30:00 AM 21.81 71.258 0.327 7.82 3.98 7.49
5/31/2022 1:45:00 AM 21.65 70.97 0.328 7.82 3.87 7.53
5/31/2022 2:00:00 AM 21.49 70.682 0.328 7.81 4.22 7.55
5/31/2022 2:15:00 AM 21.33 70.394 0.329 7.81 4.16 7.57
5/31/2022 2:30:00 AM 21.19 70.142 0.329 7.8 4.16 7.6
5/31/2022 2:45:00 AM 21.04 69.872 0.33 7.8 4.27 7.63
5/31/2022 3:00:00 AM 20.9 69.62 0.33 7.8 4.18 7.65
5/31/2022 3:15:00 AM 20.75 69.35 0.331 7.79 4.22 7.68
5/31/2022 3:30:00 AM 20.61 69.098 0.331 7.79 4.24 7.69
5/31/2022 3:45:00 AM 20.46 68.828 0.332 7.79 4.27 7.74
5/31/2022 4:00:00 AM 20.33 68.594 0.332 7.79 4.23 7.77
5/31/2022 4:15:00 AM 20.19 68.342 0.333 7.79 4.28 7.8
5/31/2022 4:30:00 AM 20.05 68.09 0.332 7.79 4.25 7.83
5/31/2022 4:45:00 AM 19.91 67.838 0.333 7.79 4.3 7.86
5/31/2022 5:00:00 AM 19.79 67.622 0.333 7.79 4.24 7.88
5/31/2022 5:15:00 AM 19.67 67.406 0.334 7.79 4.34 7.91
5/31/2022 5:30:00 AM 19.55 67.19 0.334 7.79 4.3 7.94
5/31/2022 5:45:00 AM 19.44 66.992 0.335 7.79 5.19 7.98
5/31/2022 6:00:00 AM 19.33 66.794 0.335 7.79 4.4 8.02
5/31/2022 6:15:00 AM 19.23 66.614 0.336 7.8 4.43 8.09
5/31/2022 6:30:00 AM 19.13 66.434 0.336 7.81 4.27 8.23
5/31/2022 6:45:00 AM 19.05 66.29 0.336 7.83 4.41 8.36
5/31/2022 7:00:00 AM 19 66.2 0.336 7.84 4.25 8.49
5/31/2022 7:15:00 AM 18.96 66.128 0.336 7.86 4.25 8.64
5/31/2022 7:30:00 AM 18.94 66.092 0.337 7.89 4.23 8.77
5/31/2022 7:45:00 AM 18.95 66.11 0.337 7.91 4.19 8.9
5/31/2022 8:00:00 AM 19.01 66.218 0.337 7.94 4.11 9.09
5/31/2022 8:15:00 AM 19.1 66.38 0.337 7.98 4.09 9.23
5/31/2022 8:30:00 AM 19.2 66.56 0.336 8.01 4.16 9.36
5/31/2022 8:45:00 AM 19.34 66.812 0.336 8.05 4.15 9.48
5/31/2022 9:00:00 AM 19.55 67.19 0.336 8.09 4.1 9.66
5/31/2022 9:15:00 AM 19.77 67.586 0.337 8.14 4.07 9.78
5/31/2022 9:30:00 AM 20.07 68.126 0.337 8.19 4.15 9.94
5/31/2022 9:45:00 AM 20.36 68.648 0.337 8.23 4.86 10.03
5/31/2022 10:00:00 AM 20.68 69.224 0.337 8.28 4.14 10.1
5/31/2022 10:15:00 AM 21.02 69.836 0.337 8.32 4.34 10.2
5/31/2022 10:30:00 AM 21.33 70.394 0.336 8.36 3.79 10.24
5/31/2022 10:45:00 AM 21.59 70.862 0.336 8.39 3.71 10.29
5/31/2022 11:00:00 AM 21.79 71.222 0.336 8.42 3.72 10.28
5/31/2022 11:15:00 AM 22.08 71.744 0.336 8.45 3.47 10.32
5/31/2022 11:30:00 AM 22.36 72.248 0.336 8.46 3.53 10.27
5/31/2022 11:45:00 AM 22.46 72.42799 0.336 8.48 3.58 10.32
5/31/2022 12:00:00 PM 22.82 73.076 0.336 8.5 3.41 10.3
5/31/2022 12:15:00 PM 23.16 73.688 0.336 8.51 3.23 10.31
5/31/2022 12:30:00 PM 23.52 74.336 0.335 8.54 3.24 10.39
5/31/2022 12:45:00 PM 23.98 75.164 0.335 8.56 3.28 10.37
5/31/2022 1:00:00 PM 24.34 75.812 0.335 8.58 3.34 10.39
5/31/2022 1:15:00 PM 24.72 76.496 0.334 8.61 3.29 10.41
5/31/2022 1:30:00 PM 25.07 77.126 0.334 8.63 3.2 10.39
5/31/2022 1:45:00 PM 25.39 77.702 0.334 8.64 3.11 10.36
5/31/2022 2:00:00 PM 25.71 78.278 0.333 8.66 3.36 10.31
5/31/2022 2:15:00 PM 25.9 78.62 0.333 8.66 3.08 10.23
5/31/2022 2:30:00 PM 25.91 78.638 0.333 8.67 3.12 10.14
5/31/2022 2:45:00 PM 26.12 79.016 0.333 8.67 3.21 10.04
5/31/2022 3:00:00 PM 26.29 79.32201 0.332 8.67 3.39 9.95
5/31/2022 3:15:00 PM 26.43 79.574 0.332 8.68 3.27 9.92
5/31/2022 3:30:00 PM 26.56 79.808 0.332 8.69 3.34 9.85
5/31/2022 3:45:00 PM 26.71 80.078 0.332 8.69 3.08 9.78
5/31/2022 4:00:00 PM 26.6 79.88 0.332 8.68 3.21 9.56
5/31/2022 4:15:00 PM 26.55 79.79 0.332 8.68 3.14 9.46
5/31/2022 4:30:00 PM 26.53 79.754 0.332 8.64 3.33 9.25
5/31/2022 4:45:00 PM 26.5 79.7 0.332 8.65 3.42 9.24
5/31/2022 5:00:00 PM 26.55 79.79 0.332 8.66 3.31 9.27
5/31/2022 5:15:00 PM 26.54 79.772 0.332 8.65 3.26 9.19
5/31/2022 5:30:00 PM 26.46 79.628 0.332 8.64 3.45 9.1
5/31/2022 5:45:00 PM 26.39 79.502 0.332 8.62 3.35 9
5/31/2022 6:00:00 PM 26.2 79.16 0.333 8.6 3.29 8.83
5/31/2022 6:15:00 PM 26.1 78.98 0.333 8.58 3.3 8.71
5/31/2022 6:30:00 PM 26.02 78.836 0.334 8.54 3.38 8.54
5/31/2022 6:45:00 PM 25.95 78.71 0.335 8.52 3.38 8.46
5/31/2022 7:00:00 PM 25.88 78.584 0.335 8.5 3.42 8.4
5/31/2022 7:15:00 PM 25.8 78.44 0.336 8.47 3.22 8.29
5/31/2022 7:30:00 PM 25.74 78.332 0.337 8.43 3.29 8.14
5/31/2022 7:45:00 PM 25.67 78.206 0.337 8.39 3.34 7.98
5/31/2022 8:00:00 PM 25.59 78.062 0.338 8.34 3.5 7.83
5/31/2022 8:15:00 PM 25.5 77.9 0.338 8.29 3.3 7.67
5/31/2022 8:30:00 PM 25.39 77.702 0.338 8.23 3.26 7.51
5/31/2022 8:45:00 PM 25.26 77.468 0.339 8.17 3.24 7.34
5/31/2022 9:00:00 PM 25.12 77.216 0.339 8.1 3.4 7.21
5/31/2022 9:15:00 PM 24.98 76.964 0.34 8.05 3.4 7.1
5/31/2022 9:30:00 PM 24.85 76.73 0.34 8 3.51 7.03
5/31/2022 9:45:00 PM 24.72 76.496 0.341 7.97 3.37 6.97
5/31/2022 10:00:00 PM 24.59 76.262 0.341 7.94 3.43 6.95
5/31/2022 10:15:00 PM 24.46 76.028 0.341 7.92 3.49 6.94
5/31/2022 10:30:00 PM 24.32 75.776 0.341 7.9 3.52 6.94
5/31/2022 10:45:00 PM 24.2 75.56 0.342 7.88 3.49 6.95
5/31/2022 11:00:00 PM 24.08 75.344 0.342 7.87 3.48 6.95
5/31/2022 11:15:00 PM 23.96 75.128 0.342 7.86 3.6 6.96
5/31/2022 11:30:00 PM 23.83 74.894 0.342 7.85 3.61 6.98
5/31/2022 11:45:00 PM 23.7 74.66 0.343 7.84 3.69 7
6/1/2022 12:00:00 AM 23.58 74.444 0.343 7.84 3.84 7.02
6/1/2022 12:15:00 AM 23.44 74.192 0.343 7.83 3.69 7.02
6/1/2022 12:30:00 AM 23.32 73.976 0.344 7.82 3.7 7.04
6/1/2022 12:45:00 AM 23.19 73.742 0.344 7.82 3.87 7.07
6/1/2022 1:00:00 AM 23.07 73.526 0.345 7.81 3.82 7.08
6/1/2022 1:15:00 AM 22.96 73.328 0.345 7.81 3.77 7.11
6/1/2022 1:30:00 AM 22.84 73.112 0.345 7.81 3.85 7.14
6/1/2022 1:45:00 AM 22.7 72.86 0.346 7.8 3.93 7.16
6/1/2022 2:00:00 AM 22.58 72.644 0.346 7.8 3.7 7.18
6/1/2022 2:15:00 AM 22.46 72.42799 0.346 7.8 3.84 7.21
6/1/2022 2:30:00 AM 22.34 72.212 0.347 7.79 3.89 7.22
6/1/2022 2:45:00 AM 22.21 71.978 0.347 7.79 3.93 7.26
6/1/2022 3:00:00 AM 22.08 71.744 0.348 7.79 4.01 7.28
6/1/2022 3:15:00 AM 21.94 71.492 0.348 7.79 4.08 7.31
6/1/2022 3:30:00 AM 21.81 71.258 0.349 7.78 4.03 7.32
6/1/2022 3:45:00 AM 21.68 71.024 0.35 7.79 4.15 7.36
6/1/2022 4:00:00 AM 21.55 70.79 0.351 7.78 4.27 7.39
6/1/2022 4:15:00 AM 21.43 70.574 0.351 7.78 4.08 7.41
6/1/2022 4:30:00 AM 21.32 70.376 0.352 7.78 4.09 7.43
6/1/2022 4:45:00 AM 21.21 70.17799 0.353 7.78 4.12 7.44
6/1/2022 5:00:00 AM 21.1 69.98 0.353 7.78 4.29 7.47
6/1/2022 5:15:00 AM 21.01 69.818 0.353 7.78 4.17 7.49
6/1/2022 5:30:00 AM 20.92 69.656 0.354 7.78 4.5 7.51
6/1/2022 5:45:00 AM 20.81 69.458 0.354 7.78 4.28 7.54
6/1/2022 6:00:00 AM 20.72 69.296 0.354 7.78 4.38 7.58
6/1/2022 6:15:00 AM 20.63 69.134 0.354 7.79 4.19 7.65
6/1/2022 6:30:00 AM 20.55 68.99 0.354 7.8 4.3 7.75
6/1/2022 6:45:00 AM 20.47 68.846 0.354 7.81 4.05 7.87
6/1/2022 7:00:00 AM 20.41 68.738 0.354 7.83 4.25 7.99
6/1/2022 7:15:00 AM 20.38 68.684 0.354 7.84 4.29 8.13
6/1/2022 7:30:00 AM 20.37 68.666 0.354 7.86 5.98 8.26
6/1/2022 7:45:00 AM 20.37 68.666 0.354 7.89 8.2 8.41
6/1/2022 8:00:00 AM 20.41 68.738 0.354 7.92 7.98 8.55
6/1/2022 8:15:00 AM 20.51 68.918 0.354 7.95 10.8 8.71
6/1/2022 8:30:00 AM 20.62 69.116 0.355 7.98 8.92 8.83
6/1/2022 8:45:00 AM 20.75 69.35 0.355 8.01 8.61 8.95
6/1/2022 9:00:00 AM 20.93 69.674 0.355 8.05 6.37 9.1
6/1/2022 9:15:00 AM 21.15 70.07 0.355 8.09 11.48 9.22
6/1/2022 9:30:00 AM 21.41 70.538 0.355 8.13 6.8 9.33
6/1/2022 9:45:00 AM 21.69 71.042 0.355 8.16 7.71 9.42
6/1/2022 10:00:00 AM 22 71.6 0.354 8.2 3.82 9.54
6/1/2022 10:15:00 AM 22.35 72.23 0.354 8.25 3.85 9.67
6/1/2022 10:30:00 AM 22.53 72.554 0.354 8.28 3.84 9.72
6/1/2022 10:45:00 AM 22.71 72.878 0.353 8.33 3.7 9.83
6/1/2022 11:00:00 AM 23.01 73.418 0.353 8.37 3.75 9.91
6/1/2022 11:15:00 AM 23.35 74.03 0.353 8.39 3.68 9.95
6/1/2022 11:30:00 AM 23.64 74.552 0.353 8.42 3.47 10.02
6/1/2022 11:45:00 AM 23.95 75.11 0.353 8.45 3.51 10.02
6/1/2022 12:00:00 PM 24.22 75.596 0.353 8.47 3.44 10.05
6/1/2022 12:15:00 PM 24.5 76.1 0.353 8.48 3.41 10
6/1/2022 12:30:00 PM 24.75 76.55 0.353 8.5 3.19 10.01
6/1/2022 12:45:00 PM 24.99 76.982 0.353 8.51 3.18 10.01
6/1/2022 1:00:00 PM 25.14 77.252 0.354 8.52 3.2 9.95
6/1/2022 1:15:00 PM 25.24 77.432 0.353 8.54 3.2 9.92
6/1/2022 1:30:00 PM 25.42 77.756 0.353 8.56 3.28 9.94
6/1/2022 1:45:00 PM 25.4 77.72 0.353 8.56 3.4 9.87
6/1/2022 2:00:00 PM 25.61 78.098 0.353 8.56 3.05 9.85
6/1/2022 2:15:00 PM 25.45 77.81 0.353 8.53 3.11 9.62
6/1/2022 2:30:00 PM 25.25 77.45 0.353 8.54 3.28 9.53
6/1/2022 2:45:00 PM 25.11 77.198 0.353 8.53 3.23 9.31
6/1/2022 3:00:00 PM 25.17 77.306 0.353 8.48 3.12 9.09
6/1/2022 3:15:00 PM 25.18 77.324 0.353 8.45 3.04 9.06
6/1/2022 3:30:00 PM 25.21 77.378 0.353 8.47 3.12 9.15
6/1/2022 3:45:00 PM 25.24 77.432 0.352 8.5 2.98 9.31
6/1/2022 4:00:00 PM 25.26 77.468 0.352 8.51 3.09 9.26
6/1/2022 4:15:00 PM 25.22 77.396 0.352 8.5 3.09 9.16
6/1/2022 4:30:00 PM 25.21 77.378 0.352 8.48 3.11 9.09
6/1/2022 4:45:00 PM 25.17 77.306 0.352 8.46 3.01 9
6/1/2022 5:00:00 PM 25.19 77.342 0.351 8.49 3.09 9.09
6/1/2022 5:15:00 PM 25.12 77.216 0.351 8.49 3.15 9
6/1/2022 5:30:00 PM 24.96 76.92799 0.349 8.47 3.16 8.78
6/1/2022 5:45:00 PM 24.47 76.046 0.336 8.4 9.07 8.36
6/1/2022 6:00:00 PM 24.11 75.398 0.332 8.27 6.36 7.98
6/1/2022 6:15:00 PM 23.84 74.912 0.325 8.16 17.89 7.78
6/1/2022 6:30:00 PM 23.78 74.804 0.326 8.12 29.79 7.71
6/1/2022 6:45:00 PM 23.83 74.894 0.33 8.11 24.73 7.75
6/1/2022 7:00:00 PM 23.81 74.858 0.33 8.11 15.69 7.9
6/1/2022 7:15:00 PM 23.82 74.876 0.335 8.14 9.95 7.99
6/1/2022 7:30:00 PM 23.93 75.074 0.341 8.2 7.61 8.06
6/1/2022 7:45:00 PM 23.83 74.894 0.339 8.16 14.21 7.93
6/1/2022 8:00:00 PM 23.63 74.534 0.338 8.08 26.87 7.76
6/1/2022 8:15:00 PM 23.5 74.3 0.338 8.03 25.55 7.71
6/1/2022 8:30:00 PM 23.44 74.192 0.339 8 21.04 7.65
6/1/2022 8:45:00 PM 23.32 73.976 0.334 7.96 37.29 7.59
6/1/2022 9:00:00 PM 23.02 73.436 0.324 7.91 56.84 7.6
6/1/2022 9:15:00 PM 22.66 72.788 0.32 7.87 55.36 7.61
6/1/2022 9:30:00 PM 22.37 72.266 0.311 7.84 59.56 7.63
6/1/2022 9:45:00 PM 22.15 71.87 0.305 7.83 70.46 7.67
6/1/2022 10:00:00 PM 21.87 71.366 0.304 7.82 73.28 7.74
6/1/2022 10:15:00 PM 21.66 70.988 0.305 7.83 71.23 7.85
6/1/2022 10:30:00 PM 21.53 70.754 0.305 7.84 74.9 7.93
6/1/2022 10:45:00 PM 21.45 70.61 0.305 7.86 82.67 8
6/1/2022 11:00:00 PM 21.45 70.61 0.307 7.88 85.9 8.01
6/1/2022 11:15:00 PM 21.44 70.592 0.306 7.89 78.39 8.01
6/1/2022 11:30:00 PM 21.39 70.502 0.304 7.9 72.84 8.03
6/1/2022 11:45:00 PM 21.3 70.34 0.301 7.9 68.24 8.06
6/2/2022 12:00:00 AM 21.17 70.106 0.304 7.91 63.86 8.1
6/2/2022 12:15:00 AM 21.04 69.872 0.315 7.9 63.32 8.13
6/2/2022 12:30:00 AM 20.9 69.62 0.325 7.89 71.67 8.16
6/2/2022 12:45:00 AM 20.77 69.386 0.326 7.88 78.6 8.18
6/2/2022 1:00:00 AM 20.62 69.116 0.315 7.88 77.23 8.21
6/2/2022 1:15:00 AM 20.49 68.882 0.307 7.87 77.3 8.24
6/2/2022 1:30:00 AM 20.35 68.63 0.301 7.87 72.97 8.27
6/2/2022 1:45:00 AM 20.18 68.324 0.291 7.86 70.97 8.32
6/2/2022 2:00:00 AM 20.01 68.018 0.283 7.86 76.18 8.35
6/2/2022 2:15:00 AM 19.83 67.694 0.275 7.85 92.34 8.4
6/2/2022 2:30:00 AM 19.7 67.46 0.27 7.79 106.93 8.43
6/2/2022 2:45:00 AM 19.58 67.244 0.267 7.83 127.19 8.46
6/2/2022 3:00:00 AM 19.48 67.064 0.267 7.85 131.74 8.49
6/2/2022 3:15:00 AM 19.4 66.92 0.268 7.85 127.18 8.5
6/2/2022 3:30:00 AM 19.33 66.794 0.268 7.85 117.66 8.51
6/2/2022 3:45:00 AM 19.27 66.686 0.268 7.85 110.47 8.52
6/2/2022 4:00:00 AM 19.21 66.578 0.269 7.85 97.19 8.54
6/2/2022 4:15:00 AM 19.15 66.47 0.271 7.85 87.35 8.55
6/2/2022 4:30:00 AM 19.1 66.38 0.273 7.85 79.22 8.56
6/2/2022 4:45:00 AM 19.05 66.29 0.275 7.85 72.23 8.57
6/2/2022 5:00:00 AM 19 66.2 0.278 7.85 66.56 8.57
6/2/2022 5:15:00 AM 18.96 66.128 0.28 7.85 60.86 8.59
6/2/2022 5:30:00 AM 18.93 66.074 0.283 7.85 57.41 8.6
6/2/2022 5:45:00 AM 18.89 66.002 0.286 7.85 54.29 8.6
6/2/2022 6:00:00 AM 18.86 65.948 0.287 7.86 50.06 8.6
6/2/2022 6:15:00 AM 18.83 65.894 0.288 7.85 47.13 8.61
6/2/2022 6:30:00 AM 18.8 65.84 0.288 7.86 43.71 8.6
6/2/2022 6:45:00 AM 18.77 65.786 0.288 7.86 39.53 8.61
6/2/2022 7:00:00 AM 18.75 65.75 0.287 7.86 37.24 8.61
6/2/2022 7:15:00 AM 18.73 65.714 0.287 7.86 34.79 8.63
6/2/2022 7:30:00 AM 18.74 65.732 0.288 7.86 33 8.65
6/2/2022 7:45:00 AM 18.75 65.75 0.288 7.87 31.55 8.71
6/2/2022 8:00:00 AM 18.77 65.786 0.289 7.89 30.18 8.76
6/2/2022 8:15:00 AM 18.8 65.84 0.29 7.9 29.21 8.81
6/2/2022 8:30:00 AM 18.83 65.894 0.29 7.92 28.64 8.84
6/2/2022 8:45:00 AM 18.88 65.984 0.291 7.94 27.16 8.87
6/2/2022 9:00:00 AM 18.94 66.092 0.292 7.96 24.84 8.94
6/2/2022 9:15:00 AM 19 66.2 0.292 7.98 23.47 8.98
6/2/2022 9:30:00 AM 19.08 66.344 0.293 8 22.49 9.03
6/2/2022 9:45:00 AM 19.18 66.524 0.293 8.03 21.84 9.07
6/2/2022 10:00:00 AM 19.23 66.614 0.293 8.05 20.58 9.08
6/2/2022 10:15:00 AM 19.32 66.776 0.293 8.07 19.46 9.1
6/2/2022 10:30:00 AM 19.41 66.938 0.294 8.09 18.44 9.15
6/2/2022 10:45:00 AM 19.48 67.064 0.294 8.1 18.04 9.15
6/2/2022 11:00:00 AM 19.76 67.568 0.294 8.13 17.21 9.21
6/2/2022 11:15:00 AM 20 68 0.294 8.16 16.58 9.26
6/2/2022 11:30:00 AM 20.15 68.27 0.295 8.19 16.11 9.31
6/2/2022 11:45:00 AM 20.34 68.612 0.295 8.22 16.11 9.32
6/2/2022 12:00:00 PM 20.48 68.864 0.295 8.23 15.16 9.29
6/2/2022 12:15:00 PM 20.89 69.602 0.296 8.26 14.81 9.34
6/2/2022 12:30:00 PM 21.06 69.908 0.296 8.28 14.91 9.33
6/2/2022 12:45:00 PM 21.26 70.268 0.297 8.3 13.56 9.32
6/2/2022 1:00:00 PM 21.35 70.43 0.297 8.31 13.49 9.32
6/2/2022 1:15:00 PM 21.39 70.502 0.298 8.32 12.99 9.28
6/2/2022 1:30:00 PM 21.46 70.628 0.298 8.32 12.7 9.25
6/2/2022 1:45:00 PM 21.48 70.664 0.298 8.33 11.9 9.19
6/2/2022 2:00:00 PM 21.55 70.79 0.299 8.33 11.63 9.16
6/2/2022 2:15:00 PM 21.65 70.97 0.299 8.34 11.62 9.15
6/2/2022 2:30:00 PM 21.94 71.492 0.3 8.36 11.27 9.17
6/2/2022 2:45:00 PM 22.19 71.942 0.3 8.38 10.83 9.18
6/2/2022 3:00:00 PM 22.49 72.482 0.301 8.39 11.27 9.17
6/2/2022 3:15:00 PM 22.63 72.734 0.301 8.39 12.02 9.14
6/2/2022 3:30:00 PM 22.7 72.86 0.301 8.39 12.23 9.1
6/2/2022 3:45:00 PM 22.76 72.968 0.302 8.39 11.86 9.07
6/2/2022 4:00:00 PM 22.83 73.094 0.302 8.38 10.93 9.01
6/2/2022 4:15:00 PM 22.89 73.202 0.302 8.38 10.38 8.92
6/2/2022 4:30:00 PM 22.93 73.274 0.302 8.37 9.87 8.88
6/2/2022 4:45:00 PM 22.98 73.364 0.303 8.35 9.86 8.79
6/2/2022 5:00:00 PM 23 73.4 0.303 8.35 10.24 8.75
6/2/2022 5:15:00 PM 23.09 73.562 0.303 8.34 13.28 8.74
6/2/2022 5:30:00 PM 23 73.4 0.304 8.29 14.89 8.63
6/2/2022 5:45:00 PM 22.99 73.382 0.304 8.28 15.01 8.58
6/2/2022 6:00:00 PM 22.98 73.364 0.304 8.28 12.86 8.59
6/2/2022 6:15:00 PM 22.94 73.292 0.304 8.27 11.65 8.56
6/2/2022 6:30:00 PM 22.88 73.184 0.304 8.26 10.32 8.47
6/2/2022 6:45:00 PM 22.85 73.13 0.304 8.25 9.5 8.44
6/2/2022 7:00:00 PM 22.79 73.022 0.305 8.21 9.21 8.34
6/2/2022 7:15:00 PM 22.76 72.968 0.305 8.2 8.55 8.33
6/2/2022 7:30:00 PM 22.7 72.86 0.306 8.19 8.3 8.25
6/2/2022 7:45:00 PM 22.64 72.752 0.307 8.14 8.24 8.13
6/2/2022 8:00:00 PM 22.55 72.59 0.308 8.12 8.12 8.03
6/2/2022 8:15:00 PM 22.45 72.41 0.308 8.07 8.05 7.96
6/2/2022 8:30:00 PM 22.35 72.23 0.309 8.05 8.02 7.9
6/2/2022 8:45:00 PM 22.24 72.032 0.309 8.02 8.08 7.87
6/2/2022 9:00:00 PM 22.13 71.834 0.309 8 7.91 7.85
6/2/2022 9:15:00 PM 22.01 71.618 0.309 7.98 8.06 7.82
6/2/2022 9:30:00 PM 21.86 71.348 0.309 7.97 8.22 7.82
6/2/2022 9:45:00 PM 21.72 71.096 0.309 7.95 8.67 7.83
6/2/2022 10:00:00 PM 21.56 70.808 0.309 7.94 8.41 7.84
6/2/2022 10:15:00 PM 21.41 70.538 0.309 7.93 8.22 7.86
6/2/2022 10:30:00 PM 21.27 70.286 0.309 7.91 8.34 7.87
6/2/2022 10:45:00 PM 21.12 70.016 0.31 7.91 7.98 7.89
6/2/2022 11:00:00 PM 20.98 69.764 0.31 7.9 8.24 7.92
6/2/2022 11:15:00 PM 20.84 69.512 0.31 7.9 8.43 7.93
6/2/2022 11:30:00 PM 20.7 69.26 0.311 7.89 8.36 7.95
6/2/2022 11:45:00 PM 20.56 69.008 0.311 7.88 8.03 7.97
6/3/2022 12:00:00 AM 20.44 68.792 0.311 7.88 8.2 8
6/3/2022 12:15:00 AM 20.32 68.576 0.312 7.88 8.37 8.01
6/3/2022 12:30:00 AM 20.2 68.36 0.312 7.87 8.17 8.04
6/3/2022 12:45:00 AM 20.07 68.126 0.312 7.87 8.35 8.06
6/3/2022 1:00:00 AM 19.95 67.91 0.313 7.87 8.18 8.07
6/3/2022 1:15:00 AM 19.84 67.712 0.313 7.87 7.99 8.09
6/3/2022 1:30:00 AM 19.72 67.496 0.313 7.87 8.07 8.12
6/3/2022 1:45:00 AM 19.61 67.298 0.314 7.87 8.05 8.14
6/3/2022 2:00:00 AM 19.52 67.136 0.314 7.87 7.92 8.15
6/3/2022 2:15:00 AM 19.42 66.956 0.314 7.87 8.04 8.17
6/3/2022 2:30:00 AM 19.31 66.758 0.315 7.86 8.75 8.18
6/3/2022 2:45:00 AM 19.19 66.542 0.315 7.86 8.18 8.2
6/3/2022 3:00:00 AM 19.08 66.344 0.315 7.87 8.22 8.23
6/3/2022 3:15:00 AM 18.97 66.146 0.316 7.86 7.92 8.26
6/3/2022 3:30:00 AM 18.85 65.93 0.316 7.86 8.22 8.28
6/3/2022 3:45:00 AM 18.71 65.67799 0.316 7.86 8.12 8.29
6/3/2022 4:00:00 AM 18.57 65.426 0.317 7.82 7.98 8.31
6/3/2022 4:15:00 AM 18.43 65.174 0.317 7.84 8.49 8.34
6/3/2022 4:30:00 AM 18.29 64.922 0.317 7.85 8.17 8.37
6/3/2022 4:45:00 AM 18.16 64.688 0.318 7.84 8.08 8.4
6/3/2022 5:00:00 AM 18.03 64.454 0.318 7.85 7.93 8.41
6/3/2022 5:15:00 AM 17.89 64.202 0.318 7.85 7.84 8.44
6/3/2022 5:30:00 AM 17.77 63.986 0.319 7.85 7.88 8.47
6/3/2022 5:45:00 AM 17.65 63.77 0.319 7.85 14.52 8.5
6/3/2022 6:00:00 AM 17.53 63.554 0.319 7.86 10.48 8.55
6/3/2022 6:15:00 AM 17.42 63.356 0.32 7.86 13.19 8.61
6/3/2022 6:30:00 AM 17.33 63.194 0.32 7.88 7.24 8.68
6/3/2022 6:45:00 AM 17.26 63.068 0.32 7.89 9.36 8.76
6/3/2022 7:00:00 AM 17.2 62.96 0.32 7.9 7.23 8.84
6/3/2022 7:15:00 AM 17.16 62.888 0.32 7.92 7.19 8.93
6/3/2022 7:30:00 AM 17.15 62.87 0.321 7.94 7.22 9.03
6/3/2022 7:45:00 AM 17.16 62.888 0.321 7.96 6.95 9.13
6/3/2022 8:00:00 AM 17.2 62.96 0.321 7.98 6.96 9.23
6/3/2022 8:15:00 AM 17.25 63.05 0.321 8 6.87 9.3
6/3/2022 8:30:00 AM 17.31 63.158 0.321 8.03 6.43 9.38
6/3/2022 8:45:00 AM 17.41 63.338 0.321 8.06 6.55 9.47
6/3/2022 9:00:00 AM 17.56 63.608 0.321 8.09 6.41 9.57
6/3/2022 9:15:00 AM 17.62 63.716 0.321 8.12 5.86 9.64
6/3/2022 9:30:00 AM 17.74 63.932 0.321 8.15 5.93 9.74
6/3/2022 9:45:00 AM 17.95 64.31 0.321 8.18 6.06 9.83
6/3/2022 10:00:00 AM 18.19 64.742 0.321 8.21 5.75 9.92
6/3/2022 10:15:00 AM 18.44 65.192 0.322 8.23 5.79 9.97
6/3/2022 10:30:00 AM 18.67 65.606 0.322 8.25 5.54 9.97
6/3/2022 10:45:00 AM 18.77 65.786 0.322 8.26 5.4 9.97
6/3/2022 11:00:00 AM 19.11 66.398 0.323 8.29 5.41 10
6/3/2022 11:15:00 AM 19.48 67.064 0.323 8.31 5.14 10.06
6/3/2022 11:30:00 AM 19.92 67.856 0.323 8.35 5.1 10.12
6/3/2022 11:45:00 AM 20.22 68.396 0.323 8.37 5.12 10.11
6/3/2022 12:00:00 PM 20.63 69.134 0.323 8.4 6.16 10.1
6/3/2022 12:15:00 PM 21.01 69.818 0.322 8.43 4.89 10.13
6/3/2022 12:30:00 PM 21.16 70.088 0.322 8.44 5.87 10.06
6/3/2022 12:45:00 PM 21.13 70.034 0.322 8.43 4.44 9.92
6/3/2022 1:00:00 PM 21.34 70.412 0.321 8.44 4.77 9.94
6/3/2022 1:15:00 PM 21.68 71.024 0.323 8.45 4.65 9.92
6/3/2022 1:30:00 PM 21.99 71.582 0.323 8.47 4.73 9.92
6/3/2022 1:45:00 PM 22.24 72.032 0.323 8.49 4.75 9.88
6/3/2022 2:00:00 PM 22.51 72.518 0.323 8.5 4.86 9.84
6/3/2022 2:15:00 PM 22.61 72.698 0.323 8.5 4.72 9.71
6/3/2022 2:30:00 PM 22.56 72.608 0.324 8.49 4.73 9.62
6/3/2022 2:45:00 PM 22.58 72.644 0.324 8.48 4.88 9.52
6/3/2022 3:00:00 PM 22.61 72.698 0.325 8.47 4.74 9.49
6/3/2022 3:15:00 PM 22.8 73.04 0.325 8.48 4.67 9.52
6/3/2022 3:30:00 PM 23 73.4 0.325 8.5 4.58 9.5
6/3/2022 3:45:00 PM 23.22 73.796 0.325 8.51 4.59 9.45
6/3/2022 4:00:00 PM 23.3 73.94 0.325 8.51 4.42 9.41
6/3/2022 4:15:00 PM 23.42 74.156 0.324 8.51 4.32 9.41
6/3/2022 4:30:00 PM 23.49 74.282 0.324 8.52 4.38 9.38
6/3/2022 4:45:00 PM 23.5 74.3 0.324 8.51 4.39 9.32
6/3/2022 5:00:00 PM 23.43 74.174 0.325 8.5 4.31 9.25
6/3/2022 5:15:00 PM 23.29 73.922 0.325 8.49 4.25 9.13
6/3/2022 5:30:00 PM 23.21 73.778 0.325 8.46 4.41 9.04
6/3/2022 5:45:00 PM 23.06 73.508 0.325 8.44 4.22 8.96
6/3/2022 6:00:00 PM 22.99 73.382 0.326 8.42 4.37 8.89
6/3/2022 6:15:00 PM 22.89 73.202 0.326 8.4 4.28 8.81
6/3/2022 6:30:00 PM 22.84 73.112 0.327 8.38 4.31 8.73
6/3/2022 6:45:00 PM 22.77 72.986 0.327 8.37 4.38 8.66
6/3/2022 7:00:00 PM 22.67 72.806 0.328 8.34 4.39 8.56
6/3/2022 7:15:00 PM 22.59 72.662 0.329 8.31 4.56 8.46
6/3/2022 7:30:00 PM 22.52 72.536 0.33 8.27 4.31 8.36
6/3/2022 7:45:00 PM 22.43 72.374 0.33 8.23 4.32 8.24
6/3/2022 8:00:00 PM 22.27 72.086 0.331 8.18 4.33 8.12
6/3/2022 8:15:00 PM 22.12 71.816 0.331 8.14 4.47 8.02
6/3/2022 8:30:00 PM 21.98 71.564 0.331 8.09 4.33 7.93
6/3/2022 8:45:00 PM 21.83 71.294 0.331 8.05 4.11 7.86
6/3/2022 9:00:00 PM 21.68 71.024 0.331 8.02 4.17 7.79
6/3/2022 9:15:00 PM 21.53 70.754 0.331 7.99 4.48 7.76
6/3/2022 9:30:00 PM 21.4 70.52 0.331 7.96 4.63 7.73
6/3/2022 9:45:00 PM 21.26 70.268 0.331 7.95 4.76 7.7
6/3/2022 10:00:00 PM 21.12 70.016 0.331 7.93 4.75 7.71
6/3/2022 10:15:00 PM 20.98 69.764 0.331 7.92 5.02 7.72
6/3/2022 10:30:00 PM 20.84 69.512 0.331 7.91 4.89 7.74
6/3/2022 10:45:00 PM 20.7 69.26 0.331 7.9 5.02 7.75
6/3/2022 11:00:00 PM 20.55 68.99 0.331 7.89 5.22 7.77
6/3/2022 11:15:00 PM 20.4 68.72 0.332 7.88 5.19 7.79
6/3/2022 11:30:00 PM 20.23 68.414 0.335 7.87 5.15 7.82
6/3/2022 11:45:00 PM 20.04 68.07201 0.339 7.86 5.22 7.84
6/4/2022 12:00:00 AM 19.86 67.748 0.343 7.85 5.42 7.87
6/4/2022 12:15:00 AM 19.69 67.442 0.347 7.85 5.34 7.9
6/4/2022 12:30:00 AM 19.51 67.118 0.349 7.84 5.49 7.93
6/4/2022 12:45:00 AM 19.33 66.794 0.349 7.84 5.15 7.97
6/4/2022 1:00:00 AM 19.16 66.488 0.349 7.84 5.37 8.01
6/4/2022 1:15:00 AM 18.99 66.182 0.348 7.83 5.39 8.04
6/4/2022 1:30:00 AM 18.82 65.876 0.347 7.83 5.69 8.08
6/4/2022 1:45:00 AM 18.65 65.57 0.346 7.83 5.69 8.1
6/4/2022 2:00:00 AM 18.48 65.264 0.344 7.83 5.59 8.14
6/4/2022 2:15:00 AM 18.32 64.976 0.343 7.82 5.94 8.18
6/4/2022 2:30:00 AM 18.17 64.706 0.342 7.82 5.99 8.21
6/4/2022 2:45:00 AM 18.01 64.418 0.342 7.82 5.9 8.24
6/4/2022 3:00:00 AM 17.86 64.148 0.342 7.82 5.82 8.27
6/4/2022 3:15:00 AM 17.72 63.896 0.342 7.82 5.99 8.31
6/4/2022 3:30:00 AM 17.58 63.644 0.342 7.82 6 8.34
6/4/2022 3:45:00 AM 17.43 63.374 0.342 7.82 6.05 8.36
6/4/2022 4:00:00 AM 17.28 63.104 0.342 7.82 6.23 8.4
6/4/2022 4:15:00 AM 17.14 62.852 0.343 7.8 6.12 8.43
6/4/2022 4:30:00 AM 17 62.6 0.343 7.8 6.08 8.47
6/4/2022 4:45:00 AM 16.85 62.33 0.343 7.8 5.93 8.5
6/4/2022 5:00:00 AM 16.71 62.078 0.343 7.8 6.12 8.53
6/4/2022 5:15:00 AM 16.58 61.844 0.341 7.8 6.35 8.53
6/4/2022 5:30:00 AM 16.45 61.61 0.343 7.8 6.03 8.59
6/4/2022 5:45:00 AM 16.32 61.376 0.342 7.8 5.83 8.63
6/4/2022 6:00:00 AM 16.21 61.178 0.343 7.81 6.47 8.69
6/4/2022 6:15:00 AM 16.11 60.998 0.342 7.82 12.56 8.77
6/4/2022 6:30:00 AM 16.02 60.836 0.342 7.83 10.78 8.87
6/4/2022 6:45:00 AM 15.94 60.692 0.342 7.84 10.46 8.96
6/4/2022 7:00:00 AM 15.89 60.602 0.342 7.86 14.8 9.05
6/4/2022 7:15:00 AM 15.85 60.53 0.342 7.88 10.09 9.17
6/4/2022 7:30:00 AM 15.83 60.494 0.342 7.9 10.66 9.29
6/4/2022 7:45:00 AM 15.86 60.548 0.342 7.93 8.32 9.4
6/4/2022 8:00:00 AM 15.94 60.692 0.342 7.95 9.43 9.51
6/4/2022 8:15:00 AM 16.03 60.854 0.342 7.98 18.25 9.61
6/4/2022 8:30:00 AM 16.12 61.016 0.342 8.01 10.08 9.71
6/4/2022 8:45:00 AM 16.25 61.25 0.342 8.04 9.23 9.79
6/4/2022 9:00:00 AM 16.41 61.538 0.342 8.06 5.23 9.88
6/4/2022 9:15:00 AM 16.65 61.97 0.341 8.1 4.96 9.96
6/4/2022 9:30:00 AM 16.9 62.42 0.341 8.13 4.9 10.05
6/4/2022 9:45:00 AM 17.13 62.834 0.341 8.16 4.8 10.09
6/4/2022 10:00:00 AM 17.44 63.392 0.341 8.19 4.99 10.18
6/4/2022 10:15:00 AM 17.76 63.968 0.341 8.23 4.39 10.24
6/4/2022 10:30:00 AM 18.05 64.49 0.341 8.26 4.54 10.29
6/4/2022 10:45:00 AM 18.39 65.102 0.341 8.29 4.04 10.35
6/4/2022 11:00:00 AM 18.77 65.786 0.341 8.32 4.38 10.39
6/4/2022 11:15:00 AM 19.15 66.47 0.343 8.36 4.09 10.47
6/4/2022 11:30:00 AM 19.53 67.154 0.343 8.38 4.06 10.49
6/4/2022 11:45:00 AM 19.92 67.856 0.343 8.41 4.29 10.53
6/4/2022 12:00:00 PM 20.31 68.558 0.343 8.43 3.92 10.57
6/4/2022 12:15:00 PM 20.66 69.188 0.343 8.46 3.94 10.55
6/4/2022 12:30:00 PM 20.99 69.782 0.343 8.48 3.78 10.56
6/4/2022 12:45:00 PM 21.29 70.32201 0.343 8.5 3.88 10.53
6/4/2022 1:00:00 PM 21.61 70.898 0.343 8.52 3.88 10.53
6/4/2022 1:15:00 PM 21.89 71.402 0.343 8.53 3.63 10.48
6/4/2022 1:30:00 PM 22.17 71.906 0.343 8.55 3.8 10.46
6/4/2022 1:45:00 PM 22.34 72.212 0.34 8.53 6.54 10.31
6/4/2022 2:00:00 PM 22.65 72.77 0.343 8.56 3.85 10.34
6/4/2022 2:15:00 PM 22.91 73.238 0.343 8.58 3.77 10.31
6/4/2022 2:30:00 PM 23.1 73.58 0.342 8.58 3.64 10.24
6/4/2022 2:45:00 PM 23.27 73.886 0.342 8.59 3.83 10.17
6/4/2022 3:00:00 PM 23.39 74.102 0.342 8.6 3.86 10.1
6/4/2022 3:15:00 PM 23.46 74.228 0.342 8.6 3.67 10.05
6/4/2022 3:30:00 PM 23.56 74.408 0.342 8.6 3.86 9.99
6/4/2022 3:45:00 PM 23.57 74.426 0.342 8.6 4 9.92
6/4/2022 4:00:00 PM 23.58 74.444 0.342 8.6 3.72 9.85
6/4/2022 4:15:00 PM 23.54 74.372 0.342 8.59 3.6 9.76
6/4/2022 4:30:00 PM 23.46 74.228 0.343 8.58 3.99 9.68
6/4/2022 4:45:00 PM 23.39 74.102 0.343 8.57 3.67 9.59
6/4/2022 5:00:00 PM 23.25 73.85 0.343 8.56 3.8 9.51
6/4/2022 5:15:00 PM 23.1 73.58 0.343 8.54 3.87 9.44
6/4/2022 5:30:00 PM 22.94 73.292 0.343 8.51 4.03 9.35
6/4/2022 5:45:00 PM 22.73 72.914 0.343 8.49 3.63 9.26
6/4/2022 6:00:00 PM 22.52 72.536 0.343 8.47 3.96 9.16
6/4/2022 6:15:00 PM 22.38 72.284 0.344 8.45 3.98 9.09
6/4/2022 6:30:00 PM 22.21 71.978 0.344 8.42 3.87 9.02
6/4/2022 6:45:00 PM 22.06 71.708 0.344 8.4 3.94 8.93
6/4/2022 7:00:00 PM 21.91 71.438 0.344 8.37 4.16 8.84
6/4/2022 7:15:00 PM 21.75 71.15 0.344 8.34 3.95 8.75
6/4/2022 7:30:00 PM 21.61 70.898 0.345 8.31 3.9 8.65
6/4/2022 7:45:00 PM 21.46 70.628 0.345 8.26 4.07 8.49
6/4/2022 8:00:00 PM 21.29 70.32201 0.345 8.22 4.22 8.36
6/4/2022 8:15:00 PM 21.14 70.052 0.346 8.16 4.07 8.21
6/4/2022 8:30:00 PM 20.99 69.782 0.346 8.12 4.4 8.11
6/4/2022 8:45:00 PM 20.82 69.476 0.346 8.08 4.22 8.02
6/4/2022 9:00:00 PM 20.67 69.206 0.347 8.04 4.27 7.93
6/4/2022 9:15:00 PM 20.5 68.9 0.347 7.99 4.34 7.85
6/4/2022 9:30:00 PM 20.34 68.612 0.347 7.96 4.34 7.8
6/4/2022 9:45:00 PM 20.17 68.306 0.348 7.94 4.47 7.78
6/4/2022 10:00:00 PM 20.02 68.036 0.348 7.92 4.57 7.76
6/4/2022 10:15:00 PM 19.88 67.784 0.348 7.9 4.64 7.76
6/4/2022 10:30:00 PM 19.75 67.55 0.348 7.89 4.6 7.77
6/4/2022 10:45:00 PM 19.62 67.316 0.348 7.88 4.67 7.79
6/4/2022 11:00:00 PM 19.48 67.064 0.348 7.87 4.64 7.8
6/4/2022 11:15:00 PM 19.36 66.848 0.348 7.86 4.74 7.82
6/4/2022 11:30:00 PM 19.25 66.65 0.349 7.86 4.79 7.83
6/4/2022 11:45:00 PM 19.11 66.398 0.349 7.85 4.81 7.85
6/5/2022 12:00:00 AM 18.97 66.146 0.349 7.85 4.92 7.88
6/5/2022 12:15:00 AM 18.84 65.912 0.349 7.84 4.68 7.91
6/5/2022 12:30:00 AM 18.71 65.67799 0.349 7.84 5.11 7.93
6/5/2022 12:45:00 AM 18.57 65.426 0.35 7.83 4.83 7.94
6/5/2022 1:00:00 AM 18.41 65.138 0.35 7.83 5.03 7.97
6/5/2022 1:15:00 AM 18.27 64.886 0.35 7.82 5.16 8.02
6/5/2022 1:30:00 AM 18.1 64.58 0.35 7.82 5.16 8.05
6/5/2022 1:45:00 AM 17.95 64.31 0.35 7.82 5.24 8.06
6/5/2022 2:00:00 AM 17.83 64.094 0.351 7.82 5.29 8.11
6/5/2022 2:15:00 AM 17.7 63.86 0.35 7.82 5.41 8.14
6/5/2022 2:30:00 AM 17.58 63.644 0.35 7.81 5.41 8.17
6/5/2022 2:45:00 AM 17.46 63.428 0.35 7.81 5.3 8.19
6/5/2022 3:00:00 AM 17.34 63.212 0.351 7.81 5.44 8.23
6/5/2022 3:15:00 AM 17.19 62.942 0.351 7.81 5.56 8.26
6/5/2022 3:30:00 AM 17.05 62.69 0.351 7.8 5.7 8.29
6/5/2022 3:45:00 AM 16.89 62.402 0.351 7.81 5.86 8.34
6/5/2022 4:00:00 AM 16.73 62.114 0.351 7.8 5.74 8.36
6/5/2022 4:15:00 AM 16.57 61.826 0.351 7.8 5.88 8.4
6/5/2022 4:30:00 AM 16.41 61.538 0.352 7.8 5.94 8.45
6/5/2022 4:45:00 AM 16.24 61.232 0.352 7.78 5.81 8.48
6/5/2022 5:00:00 AM 16.08 60.944 0.352 7.79 6.04 8.53
6/5/2022 5:15:00 AM 15.91 60.638 0.353 7.79 6.18 8.56
6/5/2022 5:30:00 AM 15.75 60.35 0.353 7.79 5.77 8.61
6/5/2022 5:45:00 AM 15.59 60.062 0.354 7.79 5.88 8.67
6/5/2022 6:00:00 AM 15.46 59.828 0.355 7.8 5.61 8.74
6/5/2022 6:15:00 AM 15.34 59.612 0.356 7.81 5.64 8.83
6/5/2022 6:30:00 AM 15.24 59.432 0.356 7.82 5.75 8.93
6/5/2022 6:45:00 AM 15.15 59.27 0.356 7.83 5.76 9.02
6/5/2022 7:00:00 AM 15.05 59.09 0.356 7.84 5.51 9.13
6/5/2022 7:15:00 AM 15 59 0.356 7.86 5.31 9.25
6/5/2022 7:30:00 AM 14.99 58.982 0.356 7.88 5.43 9.41
6/5/2022 7:45:00 AM 14.99 58.982 0.356 7.91 5.3 9.54
6/5/2022 8:00:00 AM 15.03 59.054 0.356 7.93 5.19 9.69
6/5/2022 8:15:00 AM 15.12 59.216 0.356 7.96 4.9 9.83
6/5/2022 8:30:00 AM 15.22 59.396 0.355 7.99 4.99 9.94
6/5/2022 8:45:00 AM 15.32 59.576 0.355 8.02 5.06 10.03
6/5/2022 9:00:00 AM 15.49 59.882 0.355 8.05 5.26 10.13
6/5/2022 9:15:00 AM 15.73 60.314 0.355 8.08 4.84 10.25
6/5/2022 9:30:00 AM 15.98 60.764 0.355 8.12 5.25 10.33
6/5/2022 9:45:00 AM 16.27 61.286 0.354 8.16 4.9 10.43
6/5/2022 10:00:00 AM 16.47 61.646 0.354 8.19 5.49 10.51
6/5/2022 10:15:00 AM 16.77 62.186 0.354 8.23 4.87 10.62
6/5/2022 10:30:00 AM 17.1 62.78 0.353 8.28 4.47 10.74
6/5/2022 10:45:00 AM 17.45 63.41 0.354 8.32 4.54 10.84
6/5/2022 11:00:00 AM 17.8 64.04 0.354 8.36 4.38 10.91
6/5/2022 11:15:00 AM 18.23 64.814 0.354 8.39 4.12 10.94
6/5/2022 11:30:00 AM 18.72 65.696 0.354 8.41 4.19 10.93
6/5/2022 11:45:00 AM 19.15 66.47 0.354 8.43 3.79 10.96
6/5/2022 12:00:00 PM 19.56 67.208 0.354 8.45 3.82 10.97
6/5/2022 12:15:00 PM 19.95 67.91 0.354 8.47 3.82 10.97
6/5/2022 12:30:00 PM 20.39 68.702 0.354 8.49 4.03 10.95
6/5/2022 12:45:00 PM 20.81 69.458 0.354 8.51 3.56 10.96
6/5/2022 1:00:00 PM 21.16 70.088 0.354 8.53 3.69 10.91
6/5/2022 1:15:00 PM 21.52 70.736 0.354 8.55 3.67 10.88
6/5/2022 1:30:00 PM 21.94 71.492 0.354 8.56 3.62 10.86
6/5/2022 1:45:00 PM 22.2 71.96 0.354 8.57 3.66 10.81
6/5/2022 2:00:00 PM 22.42 72.356 0.354 8.58 3.56 10.73
6/5/2022 2:15:00 PM 22.61 72.698 0.354 8.59 3.72 10.67
6/5/2022 2:30:00 PM 22.9 73.22 0.354 8.6 3.53 10.63
6/5/2022 2:45:00 PM 23.03 73.454 0.354 8.6 3.57 10.52
6/5/2022 3:00:00 PM 23.22 73.796 0.354 8.61 3.55 10.47
6/5/2022 3:15:00 PM 23.34 74.012 0.354 8.61 3.33 10.32
6/5/2022 3:30:00 PM 23.26 73.868 0.354 8.6 3.52 10.22
6/5/2022 3:45:00 PM 23.41 74.138 0.354 8.61 3.41 10.23
6/5/2022 4:00:00 PM 23.46 74.228 0.354 8.61 3.5 10.12
6/5/2022 4:15:00 PM 23.41 74.138 0.354 8.61 3.54 10.11
6/5/2022 4:30:00 PM 23.44 74.192 0.354 8.62 3.54 10.06
6/5/2022 4:45:00 PM 23.46 74.228 0.354 8.62 3.46 9.99
6/5/2022 5:00:00 PM 23.44 74.192 0.355 8.61 3.55 9.92
6/5/2022 5:15:00 PM 23.32 73.976 0.355 8.59 3.67 9.77
6/5/2022 5:30:00 PM 23.24 73.832 0.356 8.58 3.66 9.67
6/5/2022 5:45:00 PM 23.12 73.616 0.356 8.56 3.87 9.56
6/5/2022 6:00:00 PM 22.98 73.364 0.356 8.54 3.94 9.49
6/5/2022 6:15:00 PM 22.76 72.968 0.357 8.51 3.98 9.35
6/5/2022 6:30:00 PM 22.62 72.716 0.357 8.49 4.28 9.26
6/5/2022 6:45:00 PM 22.46 72.42799 0.357 8.46 4.03 9.13
6/5/2022 7:00:00 PM 22.31 72.158 0.358 8.42 4.2 9.01
6/5/2022 7:15:00 PM 22.18 71.924 0.358 8.39 4.18 8.89
6/5/2022 7:30:00 PM 22.05 71.69 0.358 8.35 4.22 8.74
6/5/2022 7:45:00 PM 21.91 71.438 0.359 8.3 4.05 8.57
6/5/2022 8:00:00 PM 21.79 71.222 0.359 8.23 4.19 8.33
6/5/2022 8:15:00 PM 21.71 71.078 0.36 8.18 4.07 8.17
6/5/2022 8:30:00 PM 21.65 70.97 0.36 8.13 3.93 8.03
6/5/2022 8:45:00 PM 21.57 70.826 0.36 8.08 3.88 7.9
6/5/2022 9:00:00 PM 21.47 70.646 0.361 8.03 4.01 7.76
6/5/2022 9:15:00 PM 21.35 70.43 0.361 7.99 4.1 7.65
6/5/2022 9:30:00 PM 21.23 70.214 0.362 7.96 4.22 7.59
6/5/2022 9:45:00 PM 21.12 70.016 0.362 7.93 4.29 7.54
6/5/2022 10:00:00 PM 21.05 69.89 0.363 7.9 4.33 7.5
6/5/2022 10:15:00 PM 20.96 69.728 0.363 7.88 4.3 7.48
6/5/2022 10:30:00 PM 20.89 69.602 0.363 7.87 4.45 7.46
6/5/2022 10:45:00 PM 20.82 69.476 0.364 7.85 4.47 7.46
6/5/2022 11:00:00 PM 20.75 69.35 0.364 7.84 4.52 7.46
6/5/2022 11:15:00 PM 20.68 69.224 0.364 7.83 4.58 7.42
6/5/2022 11:30:00 PM 20.62 69.116 0.364 7.82 4.45 7.45
6/5/2022 11:45:00 PM 20.55 68.99 0.365 7.82 4.52 7.46
6/6/2022 12:00:00 AM 20.48 68.864 0.365 7.81 4.65 7.47
6/6/2022 12:15:00 AM 20.42 68.756 0.365 7.81 4.74 7.48
6/6/2022 12:30:00 AM 20.36 68.648 0.365 7.8 4.58 7.49
6/6/2022 12:45:00 AM 20.29 68.522 0.365 7.8 4.62 7.5
6/6/2022 1:00:00 AM 20.21 68.378 0.365 7.79 4.79 7.51
6/6/2022 1:15:00 AM 20.14 68.252 0.365 7.79 4.9 7.52
6/6/2022 1:30:00 AM 20.06 68.108 0.365 7.78 4.97 7.54
6/6/2022 1:45:00 AM 19.98 67.964 0.365 7.78 4.89 7.54
6/6/2022 2:00:00 AM 19.88 67.784 0.365 7.78 4.92 7.56
6/6/2022 2:15:00 AM 19.76 67.568 0.366 7.78 5.23 7.59
6/6/2022 2:30:00 AM 19.63 67.334 0.366 7.78 5.08 7.62
6/6/2022 2:45:00 AM 19.52 67.136 0.366 7.77 5.26 7.64
6/6/2022 3:00:00 AM 19.41 66.938 0.366 7.77 5.29 7.66
6/6/2022 3:15:00 AM 19.3 66.74 0.366 7.77 5.17 7.67
6/6/2022 3:30:00 AM 19.18 66.524 0.366 7.77 5.36 7.71
6/6/2022 3:45:00 AM 19.07 66.326 0.366 7.77 5.32 7.75
6/6/2022 4:00:00 AM 18.96 66.128 0.366 7.77 5.37 7.76
6/6/2022 4:15:00 AM 18.82 65.876 0.366 7.77 5.43 7.79
6/6/2022 4:30:00 AM 18.71 65.67799 0.366 7.77 5.78 7.83
6/6/2022 4:45:00 AM 18.6 65.48 0.366 7.77 5.62 7.85
6/6/2022 5:00:00 AM 18.5 65.3 0.367 7.77 5.94 7.88
6/6/2022 5:15:00 AM 18.4 65.12 0.367 7.77 6.61 7.9
6/6/2022 5:30:00 AM 18.28 64.904 0.367 7.77 5.85 7.91
6/6/2022 5:45:00 AM 18.16 64.688 0.367 7.77 5.81 7.96
6/6/2022 6:00:00 AM 18.05 64.49 0.367 7.77 5.57 8.03
6/6/2022 6:15:00 AM 17.95 64.31 0.367 7.78 5.55 8.12
6/6/2022 6:30:00 AM 17.87 64.166 0.367 7.79 5.77 8.24
6/6/2022 6:45:00 AM 17.79 64.022 0.367 7.81 5.35 8.39
6/6/2022 7:00:00 AM 17.72 63.896 0.367 7.82 5.68 8.5
6/6/2022 7:15:00 AM 17.69 63.842 0.367 7.85 5.5 8.71
6/6/2022 7:30:00 AM 17.63 63.734 0.368 7.86 5.48 8.79
6/6/2022 7:45:00 AM 17.6 63.68 0.368 7.88 6.12 8.96
6/6/2022 8:00:00 AM 17.59 63.662 0.368 7.91 5.52 9.07
6/6/2022 8:15:00 AM 17.64 63.752 0.368 7.93 5.52 9.21
6/6/2022 8:30:00 AM 17.7 63.86 0.368 7.96 5.57 9.32
6/6/2022 8:45:00 AM 17.78 64.004 0.368 7.99 5.16 9.42
6/6/2022 9:00:00 AM 17.92 64.256 0.368 8.01 5.06 9.51
6/6/2022 9:15:00 AM 18.12 64.616 0.368 8.05 5.16 9.68
6/6/2022 9:30:00 AM 18.38 65.084 0.368 8.1 5.16 9.82
6/6/2022 9:45:00 AM 18.62 65.516 0.367 8.13 5.09 9.92
6/6/2022 10:00:00 AM 18.88 65.984 0.367 8.17 5.07 10.12
6/6/2022 10:15:00 AM 19.25 66.65 0.367 8.24 5.03 10.25
6/6/2022 10:30:00 AM 19.59 67.262 0.367 8.28 4.87 10.35
6/6/2022 10:45:00 AM 19.97 67.946 0.367 8.31 5 10.37
6/6/2022 11:00:00 AM 20.31 68.558 0.367 8.34 5.08 10.41
6/6/2022 11:15:00 AM 20.78 69.404 0.366 8.38 4.86 10.47
6/6/2022 11:30:00 AM 21.2 70.16 0.366 8.41 4.87 10.55
6/6/2022 11:45:00 AM 21.65 70.97 0.366 8.44 4.68 10.62
6/6/2022 12:00:00 PM 22.12 71.816 0.366 8.49 4.77 10.67
6/6/2022 12:15:00 PM 22.55 72.59 0.366 8.52 4.41 10.69
6/6/2022 12:30:00 PM 23.02 73.436 0.365 8.53 4.29 10.73
6/6/2022 12:45:00 PM 23.43 74.174 0.365 8.56 4.13 10.69
6/6/2022 1:00:00 PM 23.83 74.894 0.365 8.58 4.82 10.66
6/6/2022 1:15:00 PM 24.16 75.488 0.365 8.59 4.12 10.67
6/6/2022 1:30:00 PM 24.48 76.064 0.365 8.61 3.81 10.61
6/6/2022 1:45:00 PM 24.69 76.442 0.364 8.63 4.2 10.57
6/6/2022 2:00:00 PM 24.76 76.568 0.364 8.63 3.81 10.48
6/6/2022 2:15:00 PM 24.74 76.532 0.364 8.64 3.81 10.43
6/6/2022 2:30:00 PM 24.67 76.406 0.364 8.63 3.86 10.29
6/6/2022 2:45:00 PM 24.64 76.352 0.364 8.64 3.73 10.26
6/6/2022 3:00:00 PM 24.61 76.298 0.364 8.64 4.12 10.18
6/6/2022 3:15:00 PM 24.56 76.208 0.364 8.62 3.58 10.12
6/6/2022 3:30:00 PM 24.49 76.082 0.365 8.63 3.67 10.13
6/6/2022 3:45:00 PM 24.48 76.064 0.365 8.63 3.71 10.09
6/6/2022 4:00:00 PM 24.49 76.082 0.365 8.63 3.91 10.04
6/6/2022 4:15:00 PM 24.36 75.848 0.365 8.63 3.7 10
6/6/2022 4:30:00 PM 24.33 75.794 0.365 8.63 3.69 10.01
6/6/2022 4:45:00 PM 24.28 75.704 0.365 8.62 3.66 9.9
6/6/2022 5:00:00 PM 24.28 75.704 0.365 8.6 3.66 9.84
6/6/2022 5:15:00 PM 24.19 75.542 0.365 8.6 3.69 9.77
6/6/2022 5:30:00 PM 24.09 75.362 0.365 8.59 3.66 9.7
6/6/2022 5:45:00 PM 24.01 75.218 0.365 8.58 3.74 9.69
6/6/2022 6:00:00 PM 23.85 74.93 0.366 8.57 3.77 9.58
6/6/2022 6:15:00 PM 23.71 74.67799 0.366 8.54 3.63 9.48
6/6/2022 6:30:00 PM 23.52 74.336 0.366 8.51 3.79 9.35
6/6/2022 6:45:00 PM 23.36 74.048 0.367 8.47 3.87 9.16
6/6/2022 7:00:00 PM 23.26 73.868 0.367 8.44 4.04 9.02
6/6/2022 7:15:00 PM 23.13 73.634 0.368 8.4 4.11 8.88
6/6/2022 7:30:00 PM 22.99 73.382 0.368 8.35 4.01 8.74
6/6/2022 7:45:00 PM 22.88 73.184 0.369 8.32 3.97 8.61
6/6/2022 8:00:00 PM 22.75 72.95 0.369 8.26 4.21 8.41
6/6/2022 8:15:00 PM 22.64 72.752 0.37 8.21 4.15 8.23
6/6/2022 8:30:00 PM 22.52 72.536 0.37 8.16 4.22 8.04
6/6/2022 8:45:00 PM 22.42 72.356 0.371 8.1 4.34 7.86
6/6/2022 9:00:00 PM 22.3 72.14 0.371 8.04 4.41 7.67
6/6/2022 9:15:00 PM 22.18 71.924 0.372 7.99 4.37 7.52
6/6/2022 9:30:00 PM 22.07 71.726 0.372 7.95 4.37 7.38
6/6/2022 9:45:00 PM 21.97 71.546 0.372 7.91 4.43 7.27
6/6/2022 10:00:00 PM 21.86 71.348 0.373 7.88 4.78 7.19
6/6/2022 10:15:00 PM 21.74 71.132 0.373 7.86 4.31 7.18
6/6/2022 10:30:00 PM 21.63 70.934 0.374 7.84 4.65 7.13
6/6/2022 10:45:00 PM 21.52 70.736 0.374 7.83 5.16 7.11
6/6/2022 11:00:00 PM 21.42 70.556 0.374 7.81 4.7 7.09
6/6/2022 11:15:00 PM 21.33 70.394 0.375 7.8 4.5 7.05
6/6/2022 11:30:00 PM 21.24 70.232 0.375 7.79 4.63 7.07
6/6/2022 11:45:00 PM 21.17 70.106 0.376 7.79 4.69 7.08
6/7/2022 12:00:00 AM 21.07 69.926 0.376 7.78 4.59 7.09
6/7/2022 12:15:00 AM 20.99 69.782 0.376 7.78 4.71 7.11
6/7/2022 12:30:00 AM 20.9 69.62 0.377 7.77 5.16 7.1
6/7/2022 12:45:00 AM 20.8 69.44 0.377 7.77 5.08 7.09
6/7/2022 1:00:00 AM 20.71 69.278 0.377 7.76 5.11 7.11
6/7/2022 1:15:00 AM 20.61 69.098 0.377 7.76 5.2 7.15
6/7/2022 1:30:00 AM 20.52 68.936 0.377 7.76 4.95 7.13
6/7/2022 1:45:00 AM 20.45 68.81 0.377 7.76 5.09 7.18
6/7/2022 2:00:00 AM 20.36 68.648 0.377 7.76 5.2 7.22
6/7/2022 2:15:00 AM 20.26 68.468 0.377 7.76 5.68 7.24
6/7/2022 2:30:00 AM 20.18 68.324 0.377 7.76 5.09 7.24
6/7/2022 2:45:00 AM 20.12 68.216 0.376 7.76 5.46 7.3
6/7/2022 3:00:00 AM 20.05 68.09 0.376 7.76 5.06 7.28
6/7/2022 3:15:00 AM 19.97 67.946 0.376 7.76 5.22 7.33
6/7/2022 3:30:00 AM 19.92 67.856 0.376 7.75 5.46 7.32
6/7/2022 3:45:00 AM 19.85 67.73 0.376 7.76 5.3 7.34
6/7/2022 4:00:00 AM 19.77 67.586 0.376 7.76 5.62 7.37
6/7/2022 4:15:00 AM 19.69 67.442 0.376 7.76 5.39 7.41
6/7/2022 4:30:00 AM 19.6 67.28 0.376 7.76 5.47 7.41
6/7/2022 4:45:00 AM 19.54 67.172 0.376 7.76 5.37 7.45
6/7/2022 5:00:00 AM 19.47 67.046 0.376 7.76 5.46 7.45
6/7/2022 5:15:00 AM 19.39 66.902 0.376 7.77 7.05 7.49
6/7/2022 5:30:00 AM 19.33 66.794 0.376 7.76 5.58 7.51
6/7/2022 5:45:00 AM 19.28 66.704 0.376 7.76 5.42 7.52
6/7/2022 6:00:00 AM 19.21 66.578 0.376 7.77 5.74 7.61
6/7/2022 6:15:00 AM 19.18 66.524 0.376 7.78 5.35 7.72
6/7/2022 6:30:00 AM 19.15 66.47 0.376 7.8 5.31 7.89
6/7/2022 6:45:00 AM 19.1 66.38 0.376 7.81 5.38 8
6/7/2022 7:00:00 AM 19.05 66.29 0.376 7.85 5.15 8.17
6/7/2022 7:15:00 AM 19 66.2 0.376 7.86 5.17 8.35
6/7/2022 7:30:00 AM 18.98 66.164 0.376 7.89 5.34 8.52
6/7/2022 7:45:00 AM 18.95 66.11 0.376 7.92 5.36 8.61
6/7/2022 8:00:00 AM 18.95 66.11 0.376 7.94 5.32 8.77
6/7/2022 8:15:00 AM 18.94 66.092 0.376 7.97 5.08 8.94
6/7/2022 8:30:00 AM 18.93 66.074 0.376 7.99 4.83 9.04
6/7/2022 8:45:00 AM 18.93 66.074 0.376 8.02 5.14 9.15
6/7/2022 9:00:00 AM 18.92 66.056 0.376 8.05 8.61 9.25
6/7/2022 9:15:00 AM 18.89 66.002 0.377 8.06 4.84 9.25
6/7/2022 9:30:00 AM 18.86 65.948 0.377 8.07 5.01 9.3
6/7/2022 9:45:00 AM 18.84 65.912 0.377 8.07 13.24 9.29
6/7/2022 10:00:00 AM 18.8 65.84 0.377 8.08 4.57 9.36
6/7/2022 10:15:00 AM 18.78 65.804 0.378 8.09 4.46 9.38
6/7/2022 10:30:00 AM 18.76 65.768 0.378 8.1 4.42 9.4
6/7/2022 10:45:00 AM 18.76 65.768 0.378 8.11 4.99 9.43
6/7/2022 11:00:00 AM 18.76 65.768 0.378 8.12 4.45 9.43
6/7/2022 11:15:00 AM 18.77 65.786 0.378 8.13 4.61 9.46
6/7/2022 11:30:00 AM 18.77 65.786 0.378 8.13 4.52 9.52
6/7/2022 11:45:00 AM 18.81 65.858 0.378 8.15 4.56 9.57
6/7/2022 12:00:00 PM 18.83 65.894 0.377 8.17 4.7 9.64
6/7/2022 12:15:00 PM 18.85 65.93 0.377 8.17 4.51 9.69
6/7/2022 12:30:00 PM 18.91 66.038 0.376 8.21 4.59 9.82
6/7/2022 12:45:00 PM 18.93 66.074 0.376 8.23 4.42 9.87
6/7/2022 1:00:00 PM 18.92 66.056 0.374 8.23 4.7 9.83
6/7/2022 1:15:00 PM 18.96 66.128 0.373 8.26 4.46 9.92
6/7/2022 1:30:00 PM 18.99 66.182 0.373 8.27 4.43 9.95
6/7/2022 1:45:00 PM 19.07 66.326 0.373 8.27 4.35 9.94
6/7/2022 2:00:00 PM 19.14 66.452 0.372 8.28 4.2 10.01
6/7/2022 2:15:00 PM 19.26 66.668 0.371 8.32 4.26 10.17
6/7/2022 2:30:00 PM 19.42 66.956 0.372 8.35 3.99 10.22
6/7/2022 2:45:00 PM 19.48 67.064 0.372 8.37 4.1 10.26
6/7/2022 3:00:00 PM 19.61 67.298 0.372 8.39 4.18 10.35
6/7/2022 3:15:00 PM 19.6 67.28 0.372 8.4 4.23 10.26
6/7/2022 3:30:00 PM 19.63 67.334 0.372 8.4 4.07 10.26
6/7/2022 3:45:00 PM 19.68 67.424 0.372 8.42 3.95 10.28
6/7/2022 4:00:00 PM 19.69 67.442 0.373 8.41 3.82 10.16
6/7/2022 4:15:00 PM 19.68 67.424 0.373 8.39 3.98 10.06
6/7/2022 4:30:00 PM 19.64 67.352 0.374 8.38 3.73 10.05
6/7/2022 4:45:00 PM 19.61 67.298 0.374 8.38 3.92 9.95
6/7/2022 5:00:00 PM 19.6 67.28 0.374 8.35 3.85 9.78
6/7/2022 5:15:00 PM 19.58 67.244 0.375 8.32 3.69 9.68
6/7/2022 5:30:00 PM 19.59 67.262 0.375 8.3 3.62 9.68
6/7/2022 5:45:00 PM 19.58 67.244 0.375 8.29 3.61 9.63
6/7/2022 6:00:00 PM 19.52 67.136 0.375 8.28 6.45 9.55
6/7/2022 6:15:00 PM 19.49 67.082 0.375 8.29 3.67 9.53
6/7/2022 6:30:00 PM 19.45 67.01 0.375 8.27 3.5 9.46
6/7/2022 6:45:00 PM 19.4 66.92 0.375 8.24 3.64 9.28
6/7/2022 7:00:00 PM 19.33 66.794 0.375 8.18 3.36 9.1
6/7/2022 7:15:00 PM 19.27 66.686 0.376 8.16 3.56 8.99
6/7/2022 7:30:00 PM 19.25 66.65 0.376 8.14 3.28 8.94
6/7/2022 7:45:00 PM 19.21 66.578 0.376 8.1 3.55 8.71
6/7/2022 8:00:00 PM 19.18 66.524 0.376 8.06 3.59 8.64
6/7/2022 8:15:00 PM 19.15 66.47 0.376 8.04 3.55 8.53
6/7/2022 8:30:00 PM 19.12 66.416 0.377 8.01 3.38 8.37
6/7/2022 8:45:00 PM 19.08 66.344 0.377 7.96 3.48 8.24
6/7/2022 9:00:00 PM 19.03 66.254 0.376 7.93 3.55 8.15
6/7/2022 9:15:00 PM 18.98 66.164 0.377 7.91 4.37 8.07
6/7/2022 9:30:00 PM 18.94 66.092 0.376 7.88 3.73 8.01
6/7/2022 9:45:00 PM 18.9 66.02 0.375 7.86 4.1 7.95
6/7/2022 10:00:00 PM 18.87 65.966 0.375 7.85 4.16 7.91
6/7/2022 10:15:00 PM 18.84 65.912 0.374 7.84 4.11 7.88
6/7/2022 10:30:00 PM 18.79 65.82201 0.374 7.82 4.35 7.84
6/7/2022 10:45:00 PM 18.76 65.768 0.374 7.82 4.54 7.82
6/7/2022 11:00:00 PM 18.73 65.714 0.374 7.8 4.52 7.8
6/7/2022 11:15:00 PM 18.69 65.642 0.375 7.8 4.6 7.81
6/7/2022 11:30:00 PM 18.66 65.588 0.375 7.8 4.78 7.78
6/7/2022 11:45:00 PM 18.64 65.552 0.375 7.8 4.5 7.78
6/8/2022 12:00:00 AM 18.62 65.516 0.375 7.8 4.81 7.8
6/8/2022 12:15:00 AM 18.61 65.498 0.376 7.8 4.83 7.79
6/8/2022 12:30:00 AM 18.59 65.462 0.377 7.79 4.91 7.81
6/8/2022 12:45:00 AM 18.55 65.39 0.377 7.79 4.68 7.81
6/8/2022 1:00:00 AM 18.51 65.318 0.378 7.8 4.86 7.85
6/8/2022 1:15:00 AM 18.45 65.21 0.378 7.8 5.2 7.86
6/8/2022 1:30:00 AM 18.39 65.102 0.377 7.81 5.14 7.9
6/8/2022 1:45:00 AM 18.32 64.976 0.377 7.81 5.28 7.92
6/8/2022 2:00:00 AM 18.24 64.832 0.376 7.81 5.15 7.94
6/8/2022 2:15:00 AM 18.14 64.652 0.376 7.82 5.2 7.97
6/8/2022 2:30:00 AM 18.04 64.472 0.376 7.81 5.28 7.99
6/8/2022 2:45:00 AM 17.94 64.292 0.376 7.81 5.72 8.02
6/8/2022 3:00:00 AM 17.83 64.094 0.375 7.81 5.18 8.05
6/8/2022 3:15:00 AM 17.75 63.95 0.375 7.82 5.34 8.09
6/8/2022 3:30:00 AM 17.64 63.752 0.375 7.83 5.26 8.12
6/8/2022 3:45:00 AM 17.53 63.554 0.375 7.82 5.5 8.13
6/8/2022 4:00:00 AM 17.44 63.392 0.375 7.82 5.4 8.15
6/8/2022 4:15:00 AM 17.33 63.194 0.375 7.82 5.39 8.21
6/8/2022 4:30:00 AM 17.23 63.014 0.375 7.82 5.46 8.22
6/8/2022 4:45:00 AM 17.13 62.834 0.375 7.82 5.71 8.26
6/8/2022 5:00:00 AM 17.04 62.672 0.375 7.8 5.77 8.28
6/8/2022 5:15:00 AM 16.96 62.528 0.375 7.82 6.11 8.31
6/8/2022 5:30:00 AM 16.86 62.348 0.375 7.82 5.58 8.35
6/8/2022 5:45:00 AM 16.76 62.168 0.375 7.83 5.82 8.39
6/8/2022 6:00:00 AM 16.67 62.006 0.375 7.82 5.56 8.45
6/8/2022 6:15:00 AM 16.59 61.862 0.375 7.84 5.73 8.53
6/8/2022 6:30:00 AM 16.53 61.754 0.375 7.85 5.98 8.63
6/8/2022 6:45:00 AM 16.47 61.646 0.376 7.88 11.83 8.72
6/8/2022 7:00:00 AM 16.42 61.556 0.376 7.89 10.97 8.86
6/8/2022 7:15:00 AM 16.4 61.52 0.377 7.91 15.14 8.96
6/8/2022 7:30:00 AM 16.41 61.538 0.377 7.93 9.57 9.07
6/8/2022 7:45:00 AM 16.44 61.592 0.378 7.95 9.94 9.19
6/8/2022 8:00:00 AM 16.53 61.754 0.378 7.99 690.34 9.33
6/8/2022 8:15:00 AM 16.62 61.916 0.378 8.02 118.35 9.43
6/8/2022 8:30:00 AM 16.74 62.132 0.379 8.05 15.42 9.57
6/8/2022 8:45:00 AM 16.91 62.438 0.379 8.08 18.22 9.72
6/8/2022 9:00:00 AM 17.09 62.762 0.38 8.11 7.47 9.8
6/8/2022 9:15:00 AM 17.33 63.194 0.38 8.16 19.09 9.94
6/8/2022 9:30:00 AM 17.46 63.428 0.381 8.19 11.43 9.98
6/8/2022 9:45:00 AM 17.68 63.824 0.381 8.22 238 10.06
6/8/2022 10:00:00 AM 18.03 64.454 0.381 8.26 16.3 10.14
6/8/2022 10:15:00 AM 18.35 65.03 0.381 8.29 271.13 10.24
6/8/2022 10:30:00 AM 18.61 65.498 0.38 8.32 6.55 10.28
6/8/2022 10:45:00 AM 18.97 66.146 0.379 8.37 5.03 10.38
6/8/2022 11:00:00 AM 19.4 66.92 0.379 8.39 4.54 10.43
6/8/2022 11:15:00 AM 19.73 67.514 0.378 8.41 45.72 10.38
6/8/2022 11:30:00 AM 20.01 68.018 0.377 8.44 4.43 10.47
6/8/2022 11:45:00 AM 20.45 68.81 0.377 8.46 483.94 10.45
6/8/2022 12:00:00 PM 20.83 69.494 0.376 8.48 4.06 10.45
6/8/2022 12:15:00 PM 21.09 69.962 0.376 8.51 4.11 10.53
6/8/2022 12:30:00 PM 21.27 70.286 0.375 8.53 4.08 10.42
6/8/2022 12:45:00 PM 21.54 70.772 0.374 8.54 3.86 10.45
6/8/2022 1:00:00 PM 21.56 70.808 0.374 8.54 10.4 10.42
6/8/2022 1:15:00 PM 21.78 71.204 0.374 8.54 46.08 10.51
6/8/2022 1:30:00 PM 21.85 71.33 0.374 8.54 19.44 10.54
6/8/2022 1:45:00 PM 21.98 71.564 0.373 8.55 17.45 10.6
6/8/2022 2:00:00 PM 21.96 71.528 0.373 8.54 3.98 10.54
6/8/2022 2:15:00 PM 22.16 71.888 0.373 8.56 3.76 10.63
6/8/2022 2:30:00 PM 22.51 72.518 0.373 8.56 3.71 10.57
6/8/2022 2:45:00 PM 22.87 73.166 0.372 8.57 3.8 10.53
6/8/2022 3:00:00 PM 23.27 73.886 0.371 8.59 3.75 10.5
6/8/2022 3:15:00 PM 23.55 74.39 0.371 8.6 3.73 10.43
6/8/2022 3:30:00 PM 23.81 74.858 0.37 8.61 156.63 10.28
6/8/2022 3:45:00 PM 23.93 75.074 0.37 8.61 3.58 10.18
6/8/2022 4:00:00 PM 24 75.2 0.369 8.62 3.53 10.05
6/8/2022 4:15:00 PM 23.92 75.056 0.369 8.61 3.73 9.93
6/8/2022 4:30:00 PM 23.89 75.002 0.368 8.61 3.47 9.85
6/8/2022 4:45:00 PM 23.86 74.948 0.368 8.61 3.62 9.81
6/8/2022 5:00:00 PM 23.82 74.876 0.367 8.6 3.54 9.72
6/8/2022 5:15:00 PM 23.7 74.66 0.367 8.57 3.64 9.61
6/8/2022 5:30:00 PM 23.55 74.39 0.367 8.57 3.49 9.54
6/8/2022 5:45:00 PM 23.42 74.156 0.366 8.55 3.61 9.45
6/8/2022 6:00:00 PM 23.33 73.994 0.366 8.52 3.77 9.34
6/8/2022 6:15:00 PM 23.17 73.706 0.366 8.51 3.73 9.22
6/8/2022 6:30:00 PM 23.12 73.616 0.366 8.49 4.08 9.16
6/8/2022 6:45:00 PM 23.03 73.454 0.366 8.48 3.71 9.03
6/8/2022 7:00:00 PM 22.93 73.274 0.366 8.44 3.5 8.93
6/8/2022 7:15:00 PM 22.89 73.202 0.366 8.43 3.58 8.78
6/8/2022 7:30:00 PM 22.84 73.112 0.366 8.38 3.46 8.63
6/8/2022 7:45:00 PM 22.76 72.968 0.366 8.35 3.38 8.49
6/8/2022 8:00:00 PM 22.7 72.86 0.366 8.32 3.57 8.32
6/8/2022 8:15:00 PM 22.62 72.716 0.366 8.27 3.47 8.18
6/8/2022 8:30:00 PM 22.52 72.536 0.366 8.22 3.75 8.02
6/8/2022 8:45:00 PM 22.4 72.32 0.367 8.16 3.53 7.83
6/8/2022 9:00:00 PM 22.28 72.104 0.367 8.11 3.64 7.66
6/8/2022 9:15:00 PM 22.16 71.888 0.368 8.05 3.72 7.5
6/8/2022 9:30:00 PM 22.05 71.69 0.369 8 3.81 7.36
6/8/2022 9:45:00 PM 21.94 71.492 0.37 7.93 4.08 7.19
6/8/2022 10:00:00 PM 21.84 71.312 0.372 7.89 4.25 7.07
6/8/2022 10:15:00 PM 21.75 71.15 0.373 7.85 4.32 6.98
6/8/2022 10:30:00 PM 21.67 71.006 0.373 7.83 4.62 6.88
6/8/2022 10:45:00 PM 21.58 70.844 0.374 7.8 4.9 6.85
6/8/2022 11:00:00 PM 21.5 70.7 0.374 7.79 4.82 6.81
6/8/2022 11:15:00 PM 21.43 70.574 0.374 7.78 5.09 6.79
6/8/2022 11:30:00 PM 21.35 70.43 0.374 7.76 5.2 6.8
6/8/2022 11:45:00 PM 21.28 70.304 0.374 7.76 5.09 6.77
6/9/2022 12:00:00 AM 21.2 70.16 0.374 7.75 4.97 6.81
6/9/2022 12:15:00 AM 21.14 70.052 0.373 7.75 20.52 6.84
6/9/2022 12:30:00 AM 21.06 69.908 0.373 7.74 5.28 6.89
6/9/2022 12:45:00 AM 20.98 69.764 0.372 7.74 5.11 6.92
6/9/2022 1:00:00 AM 20.87 69.566 0.371 7.76 4.88 7.04
6/9/2022 1:15:00 AM 20.73 69.314 0.369 7.77 5.09 7.16
6/9/2022 1:30:00 AM 20.61 69.098 0.367 7.78 5.43 7.25
6/9/2022 1:45:00 AM 20.44 68.792 0.363 7.79 5.45 7.36
6/9/2022 2:00:00 AM 20.27 68.486 0.358 7.81 5.55 7.48
6/9/2022 2:15:00 AM 20.05 68.09 0.353 7.81 6.58 7.64
6/9/2022 2:30:00 AM 19.86 67.748 0.348 7.83 6.81 7.76
6/9/2022 2:45:00 AM 19.67 67.406 0.343 7.85 8.26 7.84
6/9/2022 3:00:00 AM 19.54 67.172 0.341 7.84 11.43 7.83
6/9/2022 3:15:00 AM 19.41 66.938 0.34 7.83 18.5 7.85
6/9/2022 3:30:00 AM 19.31 66.758 0.342 7.84 18.72 7.87
6/9/2022 3:45:00 AM 19.25 66.65 0.343 7.82 14.79 7.85
6/9/2022 4:00:00 AM 19.17 66.506 0.346 7.83 14.32 7.88
6/9/2022 4:15:00 AM 19.12 66.416 0.35 7.85 12.49 7.91
6/9/2022 4:30:00 AM 19.05 66.29 0.352 7.85 11.11 7.97
6/9/2022 4:45:00 AM 18.94 66.092 0.352 7.87 13.59 8.06
6/9/2022 5:00:00 AM 18.81 65.858 0.353 7.87 19.76 8.13
6/9/2022 5:15:00 AM 18.68 65.624 0.353 7.88 21.67 8.18
6/9/2022 5:30:00 AM 18.55 65.39 0.355 7.89 19.69 8.23
6/9/2022 5:45:00 AM 18.4 65.12 0.354 7.89 21.2 8.28
6/9/2022 6:00:00 AM 18.21 64.778 0.351 7.88 29.8 8.35
6/9/2022 6:15:00 AM 17.98 64.364 0.345 7.86 39.1 8.4
6/9/2022 6:30:00 AM 17.75 63.95 0.336 7.84 36.44 8.46
6/9/2022 6:45:00 AM 17.54 63.572 0.327 7.83 42.86 8.52
6/9/2022 7:00:00 AM 17.36 63.248 0.328 7.84 50.48 8.56
6/9/2022 7:15:00 AM 17.23 63.014 0.32 7.81 45.47 8.52
6/9/2022 7:30:00 AM 17.23 63.014 0.308 7.84 60.75 8.64
6/9/2022 7:45:00 AM 17.22 62.996 0.297 7.86 76.82 8.74
6/9/2022 8:00:00 AM 17.18 62.924 0.288 7.88 79.64 8.8
6/9/2022 8:15:00 AM 17.17 62.906 0.281 7.88 75.44 8.86
6/9/2022 8:30:00 AM 17.14 62.852 0.278 7.89 70.11 8.92
6/9/2022 8:45:00 AM 17.08 62.744 0.277 7.89 66.68 8.98
6/9/2022 9:00:00 AM 16.95 62.51 0.276 7.89 64.05 9.01
6/9/2022 9:15:00 AM 16.91 62.438 0.276 7.9 60.65 9.04
6/9/2022 9:30:00 AM 16.88 62.384 0.278 7.91 57.62 9.06
6/9/2022 9:45:00 AM 16.86 62.348 0.281 7.93 54.78 9.06
6/9/2022 10:00:00 AM 16.87 62.366 0.282 7.94 52.65 9.08
6/9/2022 10:15:00 AM 16.92 62.456 0.281 7.95 53.79 9.1
6/9/2022 10:30:00 AM 17.06 62.708 0.282 7.97 51.27 9.14
6/9/2022 10:45:00 AM 17.16 62.888 0.286 7.98 50 9.15
6/9/2022 11:00:00 AM 17.28 63.104 0.291 8 49.17 9.15
6/9/2022 11:15:00 AM 17.31 63.158 0.293 8.01 47.64 9.14
6/9/2022 11:30:00 AM 17.33 63.194 0.294 8.01 46.17 9.11
6/9/2022 11:45:00 AM 17.47 63.446 0.293 8.02 43.43 9.19
6/9/2022 12:00:00 PM 17.49 63.482 0.294 8.04 40.5 9.19
6/9/2022 12:15:00 PM 17.49 63.482 0.295 8.04 38.53 9.2
6/9/2022 12:30:00 PM 17.45 63.41 0.295 8.05 36.04 9.2
6/9/2022 12:45:00 PM 17.48 63.464 0.295 8.05 35.61 9.18
6/9/2022 1:00:00 PM 17.5 63.5 0.294 8.06 33.9 9.19
6/9/2022 1:15:00 PM 17.73 63.914 0.293 8.08 32.56 9.29
6/9/2022 1:30:00 PM 17.75 63.95 0.292 8.09 30.62 9.29
6/9/2022 1:45:00 PM 17.78 64.004 0.292 8.1 29.57 9.31
6/9/2022 2:00:00 PM 17.87 64.166 0.293 8.12 29.91 9.37
6/9/2022 2:15:00 PM 17.92 64.256 0.295 8.14 26.66 9.34
6/9/2022 2:30:00 PM 17.88 64.184 0.297 8.13 24.96 9.27
6/9/2022 2:45:00 PM 18 64.4 0.299 8.14 24.24 9.33
6/9/2022 3:00:00 PM 18.09 64.562 0.302 8.16 23.45 9.35
6/9/2022 3:15:00 PM 18.22 64.796 0.304 8.18 23.2 9.38
6/9/2022 3:30:00 PM 18.21 64.778 0.306 8.18 21.34 9.33
6/9/2022 3:45:00 PM 18.25 64.85 0.307 8.18 20.24 9.3
6/9/2022 4:00:00 PM 18.3 64.94 0.309 8.18 19.48 9.23
6/9/2022 4:15:00 PM 18.31 64.958 0.31 8.18 18.2 9.18
6/9/2022 4:30:00 PM 18.33 64.994 0.31 8.16 17.38 9.15
6/9/2022 4:45:00 PM 18.4 65.12 0.31 8.17 16.69 9.18
6/9/2022 5:00:00 PM 18.44 65.192 0.31 8.18 16.63 9.2
6/9/2022 5:15:00 PM 18.43 65.174 0.309 8.17 15.91 9.13
6/9/2022 5:30:00 PM 18.39 65.102 0.309 8.15 15.31 9.04
6/9/2022 5:45:00 PM 18.4 65.12 0.309 8.15 15.53 9.09
6/9/2022 6:00:00 PM 18.4 65.12 0.309 8.16 15.49 9.09
6/9/2022 6:15:00 PM 18.45 65.21 0.309 8.17 15.05 9.1
6/9/2022 6:30:00 PM 18.49 65.282 0.31 8.17 14.7 9.13
6/9/2022 6:45:00 PM 18.45 65.21 0.311 8.17 15.4 9.11
6/9/2022 7:00:00 PM 18.41 65.138 0.312 8.16 15.99 9.09
6/9/2022 7:15:00 PM 18.37 65.066 0.313 8.14 16.58 9.03
6/9/2022 7:30:00 PM 18.31 64.958 0.313 8.12 16.62 8.98
6/9/2022 7:45:00 PM 18.25 64.85 0.312 8.1 16.97 8.91
6/9/2022 8:00:00 PM 18.23 64.814 0.312 8.08 17.73 8.86
6/9/2022 8:15:00 PM 18.24 64.832 0.312 8.06 18.18 8.82
6/9/2022 8:30:00 PM 18.24 64.832 0.312 8.04 18.49 8.79
6/9/2022 8:45:00 PM 18.21 64.778 0.313 8.03 18.54 8.77
6/9/2022 9:00:00 PM 18.16 64.688 0.313 8.02 19.14 8.74
6/9/2022 9:15:00 PM 18.07 64.526 0.314 8 21.12 8.72
6/9/2022 9:30:00 PM 17.99 64.382 0.314 7.99 22.85 8.7
6/9/2022 9:45:00 PM 17.91 64.238 0.315 7.98 21.62 8.7
6/9/2022 10:00:00 PM 17.81 64.058 0.315 7.97 22.09 8.71
6/9/2022 10:15:00 PM 17.69 63.842 0.315 7.96 20.74 8.72
6/9/2022 10:30:00 PM 17.57 63.626 0.315 7.95 19.85 8.74
6/9/2022 10:45:00 PM 17.45 63.41 0.316 7.94 18.73 8.75
6/9/2022 11:00:00 PM 17.34 63.212 0.316 7.93 17.39 8.75
6/9/2022 11:15:00 PM 17.25 63.05 0.316 7.93 16.64 8.77
6/9/2022 11:30:00 PM 17.15 62.87 0.316 7.92 16.27 8.79
6/9/2022 11:45:00 PM 17.05 62.69 0.317 7.92 16 8.81
6/10/2022 12:00:00 AM 16.94 62.492 0.317 7.91 16.53 8.84
6/10/2022 12:15:00 AM 16.86 62.348 0.317 7.9 16.54 8.85
6/10/2022 12:30:00 AM 16.79 62.222 0.317 7.89 16.01 8.87
6/10/2022 12:45:00 AM 16.71 62.078 0.318 7.9 16.18 8.88
6/10/2022 1:00:00 AM 16.63 61.934 0.318 7.9 16.51 8.89
6/10/2022 1:15:00 AM 16.52 61.736 0.318 7.89 16.12 8.91
6/10/2022 1:30:00 AM 16.42 61.556 0.319 7.88 16.03 8.94
6/10/2022 1:45:00 AM 16.31 61.358 0.319 7.89 14.96 8.95
6/10/2022 2:00:00 AM 16.2 61.16 0.319 7.89 14.99 8.98
6/10/2022 2:15:00 AM 16.09 60.962 0.319 7.89 14.66 9
6/10/2022 2:30:00 AM 15.98 60.764 0.319 7.89 13.74 9.02
6/10/2022 2:45:00 AM 15.87 60.566 0.32 7.89 13.77 9.04
6/10/2022 3:00:00 AM 15.76 60.368 0.32 7.89 13.21 9.06
6/10/2022 3:15:00 AM 15.66 60.188 0.32 7.89 12.67 9.08
6/10/2022 3:30:00 AM 15.56 60.008 0.321 7.89 12.95 9.11
6/10/2022 3:45:00 AM 15.45 59.81 0.322 7.89 12.85 9.13
6/10/2022 4:00:00 AM 15.36 59.648 0.323 7.88 12.13 9.15
6/10/2022 4:15:00 AM 15.27 59.486 0.324 7.88 11.99 9.16
6/10/2022 4:30:00 AM 15.17 59.306 0.324 7.89 11.83 9.18
6/10/2022 4:45:00 AM 15.09 59.162 0.325 7.88 11.6 9.2
6/10/2022 5:00:00 AM 14.99 58.982 0.325 7.89 11.64 9.22
6/10/2022 5:15:00 AM 14.9 58.82 0.324 7.89 11.71 9.24
6/10/2022 5:30:00 AM 14.82 58.676 0.324 7.88 11.89 9.27
6/10/2022 5:45:00 AM 14.74 58.532 0.324 7.89 13.83 9.29
6/10/2022 6:00:00 AM 14.66 58.388 0.324 7.89 15.73 9.33
6/10/2022 6:15:00 AM 14.6 58.28 0.324 7.9 12.17 9.38
6/10/2022 6:30:00 AM 14.54 58.172 0.324 7.91 12.34 9.44
6/10/2022 6:45:00 AM 14.5 58.1 0.324 7.92 17.33 9.5
6/10/2022 7:00:00 AM 14.47 58.046 0.325 7.94 11.44 9.57
6/10/2022 7:15:00 AM 14.47 58.046 0.325 7.94 333.17 9.64
6/10/2022 7:30:00 AM 14.5 58.1 0.325 7.97 12.01 9.72
6/10/2022 7:45:00 AM 14.55 58.19 0.325 7.99 17.06 9.8
6/10/2022 8:00:00 AM 14.63 58.334 0.325 8.02 12.11 9.87
6/10/2022 8:15:00 AM 14.7 58.46 0.325 8.03 12.57 9.95
6/10/2022 8:30:00 AM 14.8 58.64 0.325 8.06 11.61 10.01
6/10/2022 8:45:00 AM 14.92 58.856 0.325 8.08 9.52 10.06
6/10/2022 9:00:00 AM 15.09 59.162 0.326 8.11 9.45 10.13
6/10/2022 9:15:00 AM 15.29 59.522 0.326 8.13 9.19 10.18
6/10/2022 9:30:00 AM 15.53 59.954 0.325 8.16 13.55 10.24
6/10/2022 9:45:00 AM 15.78 60.404 0.326 8.18 10.05 10.28
6/10/2022 10:00:00 AM 16.08 60.944 0.326 8.22 8.81 10.32
6/10/2022 10:15:00 AM 16.39 61.502 0.326 8.24 6.96 10.36
6/10/2022 10:30:00 AM 16.72 62.096 0.326 8.26 8.19 10.38
6/10/2022 10:45:00 AM 17.03 62.654 0.326 8.3 7.47 10.41
6/10/2022 11:00:00 AM 17.32 63.176 0.326 8.32 10.06 10.4
6/10/2022 11:15:00 AM 17.69 63.842 0.326 8.35 12.15 10.43
6/10/2022 11:30:00 AM 18.03 64.454 0.326 8.37 15.4 10.41
6/10/2022 11:45:00 AM 18.22 64.796 0.326